<?xml version="1.0" encoding="UTF-8"?>
<gpx
  version="1.1"
  creator="RunKeeper - http://www.runkeeper.com"
  xmlns:xsi="http://www.w3.org/2001/XMLSchema-instance"
  xmlns="http://www.topografix.com/GPX/1/1"
  xsi:schemaLocation="http://www.topografix.com/GPX/1/1 http://www.topografix.com/GPX/1/1/gpx.xsd"
  xmlns:gpxtpx="http://www.garmin.com/xmlschemas/TrackPointExtension/v1">
<trk>
  <name><![CDATA[Walking 26/5/13 9:09 am]]></name>
  <time>2013-05-26T09:09:51Z</time>
<trkseg>
<trkpt lat="55.496647000" lon="-3.258863000"><ele>354.0</ele><time>2013-05-26T09:09:51Z</time></trkpt>
<trkpt lat="55.496594000" lon="-3.259008000"><ele>354.0</ele><time>2013-05-26T09:11:41Z</time></trkpt>
<trkpt lat="55.496699000" lon="-3.258986000"><ele>354.4</ele><time>2013-05-26T09:12:35Z</time></trkpt>
<trkpt lat="55.496784000" lon="-3.258933000"><ele>354.7</ele><time>2013-05-26T09:12:41Z</time></trkpt>
<trkpt lat="55.496883000" lon="-3.258971000"><ele>354.9</ele><time>2013-05-26T09:12:48Z</time></trkpt>
<trkpt lat="55.496980000" lon="-3.258965000"><ele>355.1</ele><time>2013-05-26T09:12:54Z</time></trkpt>
<trkpt lat="55.497073000" lon="-3.258925000"><ele>354.8</ele><time>2013-05-26T09:13:00Z</time></trkpt>
<trkpt lat="55.497176000" lon="-3.258915000"><ele>354.5</ele><time>2013-05-26T09:13:07Z</time></trkpt>
<trkpt lat="55.497266000" lon="-3.258843000"><ele>354.3</ele><time>2013-05-26T09:13:13Z</time></trkpt>
<trkpt lat="55.497356000" lon="-3.258767000"><ele>354.0</ele><time>2013-05-26T09:13:19Z</time></trkpt>
<trkpt lat="55.497457000" lon="-3.258726000"><ele>353.7</ele><time>2013-05-26T09:13:25Z</time></trkpt>
<trkpt lat="55.497530000" lon="-3.258627000"><ele>353.5</ele><time>2013-05-26T09:13:32Z</time></trkpt>
<trkpt lat="55.497597000" lon="-3.258512000"><ele>353.0</ele><time>2013-05-26T09:13:37Z</time></trkpt>
<trkpt lat="55.497672000" lon="-3.258389000"><ele>352.3</ele><time>2013-05-26T09:13:44Z</time></trkpt>
<trkpt lat="55.497729000" lon="-3.258251000"><ele>351.5</ele><time>2013-05-26T09:13:49Z</time></trkpt>
<trkpt lat="55.497781000" lon="-3.258109000"><ele>350.8</ele><time>2013-05-26T09:13:55Z</time></trkpt>
<trkpt lat="55.497803000" lon="-3.257944000"><ele>350.1</ele><time>2013-05-26T09:14:04Z</time></trkpt>
<trkpt lat="55.497838000" lon="-3.257795000"><ele>349.6</ele><time>2013-05-26T09:14:10Z</time></trkpt>
<trkpt lat="55.497841000" lon="-3.257629000"><ele>349.2</ele><time>2013-05-26T09:14:15Z</time></trkpt>
<trkpt lat="55.497834000" lon="-3.257441000"><ele>348.7</ele><time>2013-05-26T09:14:21Z</time></trkpt>
<trkpt lat="55.497832000" lon="-3.257275000"><ele>348.3</ele><time>2013-05-26T09:14:26Z</time></trkpt>
<trkpt lat="55.497833000" lon="-3.257115000"><ele>347.8</ele><time>2013-05-26T09:14:33Z</time></trkpt>
<trkpt lat="55.497829000" lon="-3.256942000"><ele>347.4</ele><time>2013-05-26T09:14:39Z</time></trkpt>
<trkpt lat="55.497842000" lon="-3.256774000"><ele>347.1</ele><time>2013-05-26T09:14:43Z</time></trkpt>
<trkpt lat="55.497845000" lon="-3.256598000"><ele>346.8</ele><time>2013-05-26T09:14:49Z</time></trkpt>
<trkpt lat="55.497839000" lon="-3.256418000"><ele>346.5</ele><time>2013-05-26T09:14:55Z</time></trkpt>
<trkpt lat="55.497823000" lon="-3.256255000"><ele>346.3</ele><time>2013-05-26T09:15:02Z</time></trkpt>
<trkpt lat="55.497879000" lon="-3.256102000"><ele>346.0</ele><time>2013-05-26T09:15:06Z</time></trkpt>
<trkpt lat="55.497929000" lon="-3.255959000"><ele>346.1</ele><time>2013-05-26T09:15:13Z</time></trkpt>
<trkpt lat="55.497878000" lon="-3.255816000"><ele>346.2</ele><time>2013-05-26T09:15:20Z</time></trkpt>
<trkpt lat="55.497867000" lon="-3.255654000"><ele>346.3</ele><time>2013-05-26T09:15:26Z</time></trkpt>
<trkpt lat="55.497825000" lon="-3.255486000"><ele>346.4</ele><time>2013-05-26T09:15:34Z</time></trkpt>
<trkpt lat="55.497745000" lon="-3.255413000"><ele>348.4</ele><time>2013-05-26T09:15:38Z</time></trkpt>
<trkpt lat="55.497681000" lon="-3.255276000"><ele>349.9</ele><time>2013-05-26T09:15:46Z</time></trkpt>
<trkpt lat="55.497745000" lon="-3.255135000"><ele>351.5</ele><time>2013-05-26T09:15:58Z</time></trkpt>
<trkpt lat="55.497838000" lon="-3.255067000"><ele>353.0</ele><time>2013-05-26T09:16:19Z</time></trkpt>
<trkpt lat="55.497903000" lon="-3.255203000"><ele>354.5</ele><time>2013-05-26T09:16:27Z</time></trkpt>
<trkpt lat="55.497947000" lon="-3.255351000"><ele>356.1</ele><time>2013-05-26T09:16:37Z</time></trkpt>
<trkpt lat="55.498011000" lon="-3.255468000"><ele>357.6</ele><time>2013-05-26T09:16:43Z</time></trkpt>
<trkpt lat="55.498049000" lon="-3.255618000"><ele>359.1</ele><time>2013-05-26T09:16:52Z</time></trkpt>
<trkpt lat="55.498133000" lon="-3.255708000"><ele>360.2</ele><time>2013-05-26T09:17:06Z</time></trkpt>
<trkpt lat="55.498210000" lon="-3.255855000"><ele>361.3</ele><time>2013-05-26T09:17:11Z</time></trkpt>
<trkpt lat="55.498296000" lon="-3.256013000"><ele>362.4</ele><time>2013-05-26T09:17:15Z</time></trkpt>
<trkpt lat="55.498384000" lon="-3.256061000"><ele>363.1</ele><time>2013-05-26T09:17:27Z</time></trkpt>
<trkpt lat="55.498452000" lon="-3.256198000"><ele>364.3</ele><time>2013-05-26T09:17:32Z</time></trkpt>
<trkpt lat="55.498546000" lon="-3.256246000"><ele>365.5</ele><time>2013-05-26T09:17:46Z</time></trkpt>
<trkpt lat="55.498632000" lon="-3.256309000"><ele>366.6</ele><time>2013-05-26T09:17:52Z</time></trkpt>
<trkpt lat="55.498710000" lon="-3.256400000"><ele>367.8</ele><time>2013-05-26T09:18:00Z</time></trkpt>
<trkpt lat="55.498794000" lon="-3.256502000"><ele>369.0</ele><time>2013-05-26T09:18:09Z</time></trkpt>
<trkpt lat="55.498867000" lon="-3.256608000"><ele>370.2</ele><time>2013-05-26T09:18:18Z</time></trkpt>
<trkpt lat="55.498952000" lon="-3.256697000"><ele>371.4</ele><time>2013-05-26T09:18:26Z</time></trkpt>
<trkpt lat="55.499034000" lon="-3.256776000"><ele>372.9</ele><time>2013-05-26T09:18:34Z</time></trkpt>
<trkpt lat="55.499129000" lon="-3.256810000"><ele>374.5</ele><time>2013-05-26T09:18:43Z</time></trkpt>
<trkpt lat="55.499224000" lon="-3.256867000"><ele>377.6</ele><time>2013-05-26T09:18:51Z</time></trkpt>
<trkpt lat="55.499317000" lon="-3.256932000"><ele>378.7</ele><time>2013-05-26T09:18:58Z</time></trkpt>
<trkpt lat="55.499406000" lon="-3.256976000"><ele>379.8</ele><time>2013-05-26T09:19:05Z</time></trkpt>
<trkpt lat="55.499496000" lon="-3.257009000"><ele>380.9</ele><time>2013-05-26T09:19:23Z</time></trkpt>
<trkpt lat="55.499593000" lon="-3.257005000"><ele>382.0</ele><time>2013-05-26T09:19:31Z</time></trkpt>
<trkpt lat="55.499689000" lon="-3.257020000"><ele>383.1</ele><time>2013-05-26T09:19:41Z</time></trkpt>
<trkpt lat="55.499788000" lon="-3.257053000"><ele>384.2</ele><time>2013-05-26T09:19:52Z</time></trkpt>
<trkpt lat="55.499865000" lon="-3.257141000"><ele>385.3</ele><time>2013-05-26T09:20:00Z</time></trkpt>
<trkpt lat="55.499946000" lon="-3.257222000"><ele>386.4</ele><time>2013-05-26T09:20:09Z</time></trkpt>
<trkpt lat="55.500036000" lon="-3.257308000"><ele>388.8</ele><time>2013-05-26T09:20:16Z</time></trkpt>
<trkpt lat="55.500116000" lon="-3.257395000"><ele>391.3</ele><time>2013-05-26T09:20:21Z</time></trkpt>
<trkpt lat="55.500198000" lon="-3.257469000"><ele>392.1</ele><time>2013-05-26T09:20:27Z</time></trkpt>
<trkpt lat="55.500289000" lon="-3.257523000"><ele>393.5</ele><time>2013-05-26T09:20:34Z</time></trkpt>
<trkpt lat="55.500380000" lon="-3.257595000"><ele>394.8</ele><time>2013-05-26T09:20:41Z</time></trkpt>
<trkpt lat="55.500480000" lon="-3.257613000"><ele>396.2</ele><time>2013-05-26T09:20:50Z</time></trkpt>
<trkpt lat="55.500576000" lon="-3.257647000"><ele>397.5</ele><time>2013-05-26T09:20:58Z</time></trkpt>
<trkpt lat="55.500677000" lon="-3.257672000"><ele>398.9</ele><time>2013-05-26T09:21:07Z</time></trkpt>
<trkpt lat="55.500773000" lon="-3.257718000"><ele>399.5</ele><time>2013-05-26T09:21:16Z</time></trkpt>
<trkpt lat="55.500871000" lon="-3.257754000"><ele>402.1</ele><time>2013-05-26T09:21:24Z</time></trkpt>
<trkpt lat="55.500967000" lon="-3.257756000"><ele>404.6</ele><time>2013-05-26T09:21:34Z</time></trkpt>
<trkpt lat="55.501062000" lon="-3.257771000"><ele>405.8</ele><time>2013-05-26T09:21:41Z</time></trkpt>
<trkpt lat="55.501156000" lon="-3.257775000"><ele>407.0</ele><time>2013-05-26T09:21:51Z</time></trkpt>
<trkpt lat="55.501234000" lon="-3.257868000"><ele>408.2</ele><time>2013-05-26T09:22:18Z</time></trkpt>
<trkpt lat="55.501333000" lon="-3.257839000"><ele>409.4</ele><time>2013-05-26T09:22:27Z</time></trkpt>
<trkpt lat="55.501426000" lon="-3.257837000"><ele>410.5</ele><time>2013-05-26T09:22:33Z</time></trkpt>
<trkpt lat="55.501521000" lon="-3.257797000"><ele>411.7</ele><time>2013-05-26T09:22:41Z</time></trkpt>
<trkpt lat="55.501616000" lon="-3.257749000"><ele>412.9</ele><time>2013-05-26T09:22:49Z</time></trkpt>
<trkpt lat="55.501719000" lon="-3.257768000"><ele>415.2</ele><time>2013-05-26T09:23:09Z</time></trkpt>
<trkpt lat="55.501812000" lon="-3.257763000"><ele>418.2</ele><time>2013-05-26T09:23:16Z</time></trkpt>
<trkpt lat="55.501905000" lon="-3.257736000"><ele>419.3</ele><time>2013-05-26T09:23:22Z</time></trkpt>
<trkpt lat="55.501996000" lon="-3.257715000"><ele>420.4</ele><time>2013-05-26T09:23:30Z</time></trkpt>
<trkpt lat="55.502087000" lon="-3.257721000"><ele>421.5</ele><time>2013-05-26T09:23:37Z</time></trkpt>
<trkpt lat="55.502189000" lon="-3.257713000"><ele>422.5</ele><time>2013-05-26T09:23:46Z</time></trkpt>
<trkpt lat="55.502287000" lon="-3.257674000"><ele>423.6</ele><time>2013-05-26T09:23:54Z</time></trkpt>
<trkpt lat="55.502377000" lon="-3.257669000"><ele>424.7</ele><time>2013-05-26T09:24:02Z</time></trkpt>
<trkpt lat="55.502471000" lon="-3.257690000"><ele>426.7</ele><time>2013-05-26T09:24:12Z</time></trkpt>
<trkpt lat="55.502559000" lon="-3.257654000"><ele>428.7</ele><time>2013-05-26T09:24:20Z</time></trkpt>
<trkpt lat="55.502654000" lon="-3.257692000"><ele>430.0</ele><time>2013-05-26T09:24:26Z</time></trkpt>
<trkpt lat="55.502750000" lon="-3.257735000"><ele>430.2</ele><time>2013-05-26T09:24:34Z</time></trkpt>
<trkpt lat="55.502857000" lon="-3.257767000"><ele>430.4</ele><time>2013-05-26T09:24:42Z</time></trkpt>
<trkpt lat="55.502960000" lon="-3.257757000"><ele>430.5</ele><time>2013-05-26T09:24:48Z</time></trkpt>
<trkpt lat="55.503051000" lon="-3.257792000"><ele>430.7</ele><time>2013-05-26T09:24:58Z</time></trkpt>
<trkpt lat="55.503143000" lon="-3.257866000"><ele>430.9</ele><time>2013-05-26T09:25:04Z</time></trkpt>
<trkpt lat="55.503241000" lon="-3.257919000"><ele>431.1</ele><time>2013-05-26T09:25:11Z</time></trkpt>
<trkpt lat="55.503327000" lon="-3.257991000"><ele>432.1</ele><time>2013-05-26T09:25:18Z</time></trkpt>
<trkpt lat="55.503416000" lon="-3.258031000"><ele>433.1</ele><time>2013-05-26T09:25:27Z</time></trkpt>
<trkpt lat="55.503505000" lon="-3.258057000"><ele>433.2</ele><time>2013-05-26T09:25:32Z</time></trkpt>
<trkpt lat="55.503606000" lon="-3.258041000"><ele>433.3</ele><time>2013-05-26T09:25:41Z</time></trkpt>
<trkpt lat="55.503706000" lon="-3.258047000"><ele>434.1</ele><time>2013-05-26T09:25:48Z</time></trkpt>
<trkpt lat="55.503800000" lon="-3.258095000"><ele>434.9</ele><time>2013-05-26T09:25:54Z</time></trkpt>
<trkpt lat="55.503889000" lon="-3.258138000"><ele>435.7</ele><time>2013-05-26T09:26:02Z</time></trkpt>
<trkpt lat="55.503984000" lon="-3.258149000"><ele>436.5</ele><time>2013-05-26T09:26:12Z</time></trkpt>
<trkpt lat="55.504080000" lon="-3.258167000"><ele>437.4</ele><time>2013-05-26T09:26:19Z</time></trkpt>
<trkpt lat="55.504173000" lon="-3.258185000"><ele>438.2</ele><time>2013-05-26T09:26:28Z</time></trkpt>
<trkpt lat="55.504266000" lon="-3.258187000"><ele>439.4</ele><time>2013-05-26T09:26:35Z</time></trkpt>
<trkpt lat="55.504356000" lon="-3.258208000"><ele>439.7</ele><time>2013-05-26T09:26:40Z</time></trkpt>
<trkpt lat="55.504460000" lon="-3.258198000"><ele>440.1</ele><time>2013-05-26T09:26:49Z</time></trkpt>
<trkpt lat="55.504551000" lon="-3.258208000"><ele>440.5</ele><time>2013-05-26T09:26:55Z</time></trkpt>
<trkpt lat="55.504642000" lon="-3.258209000"><ele>440.8</ele><time>2013-05-26T09:26:59Z</time></trkpt>
<trkpt lat="55.504746000" lon="-3.258236000"><ele>441.2</ele><time>2013-05-26T09:27:07Z</time></trkpt>
<trkpt lat="55.504847000" lon="-3.258256000"><ele>442.1</ele><time>2013-05-26T09:27:14Z</time></trkpt>
<trkpt lat="55.504941000" lon="-3.258261000"><ele>443.0</ele><time>2013-05-26T09:27:22Z</time></trkpt>
<trkpt lat="55.505033000" lon="-3.258327000"><ele>443.9</ele><time>2013-05-26T09:27:28Z</time></trkpt>
<trkpt lat="55.505100000" lon="-3.258471000"><ele>444.8</ele><time>2013-05-26T09:27:51Z</time></trkpt>
<trkpt lat="55.505138000" lon="-3.258620000"><ele>445.7</ele><time>2013-05-26T09:27:58Z</time></trkpt>
<trkpt lat="55.505175000" lon="-3.258775000"><ele>446.7</ele><time>2013-05-26T09:28:04Z</time></trkpt>
<trkpt lat="55.505126000" lon="-3.258911000"><ele>447.7</ele><time>2013-05-26T09:28:17Z</time></trkpt>
<trkpt lat="55.505131000" lon="-3.259070000"><ele>448.7</ele><time>2013-05-26T09:28:27Z</time></trkpt>
<trkpt lat="55.505133000" lon="-3.259232000"><ele>449.7</ele><time>2013-05-26T09:28:40Z</time></trkpt>
<trkpt lat="55.505158000" lon="-3.259391000"><ele>451.6</ele><time>2013-05-26T09:28:56Z</time></trkpt>
<trkpt lat="55.505197000" lon="-3.259538000"><ele>453.5</ele><time>2013-05-26T09:29:09Z</time></trkpt>
<trkpt lat="55.505246000" lon="-3.259676000"><ele>454.9</ele><time>2013-05-26T09:29:22Z</time></trkpt>
<trkpt lat="55.505321000" lon="-3.259783000"><ele>456.3</ele><time>2013-05-26T09:29:44Z</time></trkpt>
<trkpt lat="55.505411000" lon="-3.259835000"><ele>457.6</ele><time>2013-05-26T09:30:04Z</time></trkpt>
<trkpt lat="55.505500000" lon="-3.259871000"><ele>459.0</ele><time>2013-05-26T09:30:17Z</time></trkpt>
<trkpt lat="55.505593000" lon="-3.259911000"><ele>460.4</ele><time>2013-05-26T09:30:27Z</time></trkpt>
<trkpt lat="55.505679000" lon="-3.259980000"><ele>461.3</ele><time>2013-05-26T09:30:39Z</time></trkpt>
<trkpt lat="55.505760000" lon="-3.260049000"><ele>462.7</ele><time>2013-05-26T09:30:58Z</time></trkpt>
<trkpt lat="55.505853000" lon="-3.260101000"><ele>464.2</ele><time>2013-05-26T09:31:21Z</time></trkpt>
<trkpt lat="55.505948000" lon="-3.260132000"><ele>465.6</ele><time>2013-05-26T09:31:37Z</time></trkpt>
<trkpt lat="55.506034000" lon="-3.260182000"><ele>466.2</ele><time>2013-05-26T09:31:47Z</time></trkpt>
<trkpt lat="55.506116000" lon="-3.260249000"><ele>466.7</ele><time>2013-05-26T09:31:58Z</time></trkpt>
<trkpt lat="55.506189000" lon="-3.260343000"><ele>468.1</ele><time>2013-05-26T09:32:13Z</time></trkpt>
<trkpt lat="55.506198000" lon="-3.260505000"><ele>469.8</ele><time>2013-05-26T09:32:27Z</time></trkpt>
<trkpt lat="55.506220000" lon="-3.260666000"><ele>471.5</ele><time>2013-05-26T09:32:41Z</time></trkpt>
<trkpt lat="55.506245000" lon="-3.260819000"><ele>473.3</ele><time>2013-05-26T09:33:11Z</time></trkpt>
<trkpt lat="55.506287000" lon="-3.260973000"><ele>475.0</ele><time>2013-05-26T09:33:24Z</time></trkpt>
<trkpt lat="55.506289000" lon="-3.261139000"><ele>476.7</ele><time>2013-05-26T09:33:35Z</time></trkpt>
<trkpt lat="55.506329000" lon="-3.261289000"><ele>478.6</ele><time>2013-05-26T09:34:02Z</time></trkpt>
<trkpt lat="55.506378000" lon="-3.261442000"><ele>480.5</ele><time>2013-05-26T09:34:34Z</time></trkpt>
<trkpt lat="55.506426000" lon="-3.261588000"><ele>482.5</ele><time>2013-05-26T09:34:46Z</time></trkpt>
<trkpt lat="55.506482000" lon="-3.261713000"><ele>484.4</ele><time>2013-05-26T09:34:56Z</time></trkpt>
<trkpt lat="55.506538000" lon="-3.261854000"><ele>486.3</ele><time>2013-05-26T09:35:07Z</time></trkpt>
<trkpt lat="55.506589000" lon="-3.261988000"><ele>487.4</ele><time>2013-05-26T09:35:19Z</time></trkpt>
<trkpt lat="55.506636000" lon="-3.262131000"><ele>488.7</ele><time>2013-05-26T09:35:33Z</time></trkpt>
<trkpt lat="55.506696000" lon="-3.262254000"><ele>490.1</ele><time>2013-05-26T09:35:47Z</time></trkpt>
<trkpt lat="55.506769000" lon="-3.262362000"><ele>491.5</ele><time>2013-05-26T09:36:04Z</time></trkpt>
<trkpt lat="55.506827000" lon="-3.262494000"><ele>492.8</ele><time>2013-05-26T09:37:00Z</time></trkpt>
<trkpt lat="55.506848000" lon="-3.262676000"><ele>494.2</ele><time>2013-05-26T09:37:35Z</time></trkpt>
<trkpt lat="55.506834000" lon="-3.262846000"><ele>494.8</ele><time>2013-05-26T09:37:44Z</time></trkpt>
<trkpt lat="55.506857000" lon="-3.263008000"><ele>496.2</ele><time>2013-05-26T09:38:02Z</time></trkpt>
<trkpt lat="55.506888000" lon="-3.263159000"><ele>497.5</ele><time>2013-05-26T09:38:45Z</time></trkpt>
<trkpt lat="55.506942000" lon="-3.263295000"><ele>498.8</ele><time>2013-05-26T09:38:56Z</time></trkpt>
<trkpt lat="55.506953000" lon="-3.263470000"><ele>500.1</ele><time>2013-05-26T09:39:06Z</time></trkpt>
<trkpt lat="55.506980000" lon="-3.263635000"><ele>501.4</ele><time>2013-05-26T09:39:18Z</time></trkpt>
<trkpt lat="55.506992000" lon="-3.263797000"><ele>502.0</ele><time>2013-05-26T09:39:42Z</time></trkpt>
<trkpt lat="55.507067000" lon="-3.263900000"><ele>502.6</ele><time>2013-05-26T09:40:02Z</time></trkpt>
<trkpt lat="55.507144000" lon="-3.264002000"><ele>503.8</ele><time>2013-05-26T09:40:17Z</time></trkpt>
<trkpt lat="55.507200000" lon="-3.264129000"><ele>505.0</ele><time>2013-05-26T09:40:35Z</time></trkpt>
<trkpt lat="55.507239000" lon="-3.264277000"><ele>506.2</ele><time>2013-05-26T09:40:46Z</time></trkpt>
<trkpt lat="55.507292000" lon="-3.264409000"><ele>507.4</ele><time>2013-05-26T09:40:54Z</time></trkpt>
<trkpt lat="55.507367000" lon="-3.264507000"><ele>507.8</ele><time>2013-05-26T09:41:07Z</time></trkpt>
<trkpt lat="55.507405000" lon="-3.264667000"><ele>508.3</ele><time>2013-05-26T09:41:17Z</time></trkpt>
<trkpt lat="55.507460000" lon="-3.264797000"><ele>509.5</ele><time>2013-05-26T09:41:29Z</time></trkpt>
<trkpt lat="55.507533000" lon="-3.264897000"><ele>510.8</ele><time>2013-05-26T09:41:49Z</time></trkpt>
<trkpt lat="55.507562000" lon="-3.265053000"><ele>512.1</ele><time>2013-05-26T09:42:24Z</time></trkpt>
<trkpt lat="55.507628000" lon="-3.265168000"><ele>513.5</ele><time>2013-05-26T09:42:35Z</time></trkpt>
<trkpt lat="55.507687000" lon="-3.265290000"><ele>514.8</ele><time>2013-05-26T09:42:49Z</time></trkpt>
<trkpt lat="55.507764000" lon="-3.265391000"><ele>515.6</ele><time>2013-05-26T09:43:00Z</time></trkpt>
<trkpt lat="55.507837000" lon="-3.265499000"><ele>516.5</ele><time>2013-05-26T09:43:13Z</time></trkpt>
<trkpt lat="55.507901000" lon="-3.265613000"><ele>517.3</ele><time>2013-05-26T09:43:27Z</time></trkpt>
<trkpt lat="55.507980000" lon="-3.265692000"><ele>518.1</ele><time>2013-05-26T09:43:56Z</time></trkpt>
<trkpt lat="55.508061000" lon="-3.265769000"><ele>518.9</ele><time>2013-05-26T09:44:10Z</time></trkpt>
<trkpt lat="55.508113000" lon="-3.265912000"><ele>520.5</ele><time>2013-05-26T09:44:24Z</time></trkpt>
<trkpt lat="55.508199000" lon="-3.265977000"><ele>521.3</ele><time>2013-05-26T09:44:53Z</time></trkpt>
<trkpt lat="55.508274000" lon="-3.266064000"><ele>522.1</ele><time>2013-05-26T09:45:07Z</time></trkpt>
<trkpt lat="55.508340000" lon="-3.266182000"><ele>522.9</ele><time>2013-05-26T09:45:20Z</time></trkpt>
<trkpt lat="55.508430000" lon="-3.266202000"><ele>523.6</ele><time>2013-05-26T09:45:34Z</time></trkpt>
<trkpt lat="55.508515000" lon="-3.266261000"><ele>524.7</ele><time>2013-05-26T09:45:45Z</time></trkpt>
<trkpt lat="55.508559000" lon="-3.266405000"><ele>525.8</ele><time>2013-05-26T09:46:10Z</time></trkpt>
<trkpt lat="55.508586000" lon="-3.266564000"><ele>527.6</ele><time>2013-05-26T09:46:41Z</time></trkpt>
<trkpt lat="55.508653000" lon="-3.266674000"><ele>529.5</ele><time>2013-05-26T09:46:53Z</time></trkpt>
<trkpt lat="55.508727000" lon="-3.266766000"><ele>531.3</ele><time>2013-05-26T09:47:27Z</time></trkpt>
<trkpt lat="55.508807000" lon="-3.266865000"><ele>533.1</ele><time>2013-05-26T09:47:37Z</time></trkpt>
<trkpt lat="55.508881000" lon="-3.266959000"><ele>534.2</ele><time>2013-05-26T09:47:50Z</time></trkpt>
<trkpt lat="55.508952000" lon="-3.267062000"><ele>535.3</ele><time>2013-05-26T09:48:34Z</time></trkpt>
<trkpt lat="55.509027000" lon="-3.267152000"><ele>536.4</ele><time>2013-05-26T09:48:45Z</time></trkpt>
<trkpt lat="55.509101000" lon="-3.267252000"><ele>537.5</ele><time>2013-05-26T09:49:19Z</time></trkpt>
<trkpt lat="55.509180000" lon="-3.267338000"><ele>539.3</ele><time>2013-05-26T09:49:34Z</time></trkpt>
<trkpt lat="55.509261000" lon="-3.267410000"><ele>540.7</ele><time>2013-05-26T09:50:07Z</time></trkpt>
<trkpt lat="55.509331000" lon="-3.267512000"><ele>542.2</ele><time>2013-05-26T09:50:20Z</time></trkpt>
<trkpt lat="55.509310000" lon="-3.267675000"><ele>542.9</ele><time>2013-05-26T09:50:33Z</time></trkpt>
<trkpt lat="55.509262000" lon="-3.267823000"><ele>543.6</ele><time>2013-05-26T09:50:45Z</time></trkpt>
<trkpt lat="55.509201000" lon="-3.267953000"><ele>544.4</ele><time>2013-05-26T09:50:55Z</time></trkpt>
<trkpt lat="55.509148000" lon="-3.268085000"><ele>545.1</ele><time>2013-05-26T09:51:07Z</time></trkpt>
<trkpt lat="55.509088000" lon="-3.268207000"><ele>546.0</ele><time>2013-05-26T09:51:20Z</time></trkpt>
<trkpt lat="55.509025000" lon="-3.268331000"><ele>546.9</ele><time>2013-05-26T09:51:43Z</time></trkpt>
<trkpt lat="55.508944000" lon="-3.268423000"><ele>547.8</ele><time>2013-05-26T09:51:55Z</time></trkpt>
<trkpt lat="55.508881000" lon="-3.268546000"><ele>548.7</ele><time>2013-05-26T09:52:09Z</time></trkpt>
<trkpt lat="55.508798000" lon="-3.268634000"><ele>548.9</ele><time>2013-05-26T09:52:22Z</time></trkpt>
<trkpt lat="55.508725000" lon="-3.268734000"><ele>549.1</ele><time>2013-05-26T09:52:33Z</time></trkpt>
<trkpt lat="55.508630000" lon="-3.268803000"><ele>549.5</ele><time>2013-05-26T09:53:01Z</time></trkpt>
<trkpt lat="55.508560000" lon="-3.268915000"><ele>550.0</ele><time>2013-05-26T09:53:11Z</time></trkpt>
<trkpt lat="55.508510000" lon="-3.269064000"><ele>550.5</ele><time>2013-05-26T09:53:21Z</time></trkpt>
<trkpt lat="55.508503000" lon="-3.269229000"><ele>550.9</ele><time>2013-05-26T09:53:45Z</time></trkpt>
<trkpt lat="55.508517000" lon="-3.269388000"><ele>551.4</ele><time>2013-05-26T09:53:54Z</time></trkpt>
<trkpt lat="55.508568000" lon="-3.269523000"><ele>551.6</ele><time>2013-05-26T09:54:03Z</time></trkpt>
<trkpt lat="55.508579000" lon="-3.269684000"><ele>552.6</ele><time>2013-05-26T09:54:16Z</time></trkpt>
<trkpt lat="55.508551000" lon="-3.269845000"><ele>553.5</ele><time>2013-05-26T09:54:39Z</time></trkpt>
<trkpt lat="55.508566000" lon="-3.270015000"><ele>554.5</ele><time>2013-05-26T09:55:25Z</time></trkpt>
<trkpt lat="55.508605000" lon="-3.270176000"><ele>555.4</ele><time>2013-05-26T10:02:14Z</time></trkpt>
<trkpt lat="55.508694000" lon="-3.270249000"><ele>556.3</ele><time>2013-05-26T10:02:24Z</time></trkpt>
<trkpt lat="55.508785000" lon="-3.270305000"><ele>556.9</ele><time>2013-05-26T10:02:36Z</time></trkpt>
<trkpt lat="55.508874000" lon="-3.270374000"><ele>557.5</ele><time>2013-05-26T10:02:48Z</time></trkpt>
<trkpt lat="55.508963000" lon="-3.270407000"><ele>558.2</ele><time>2013-05-26T10:02:59Z</time></trkpt>
<trkpt lat="55.509060000" lon="-3.270424000"><ele>558.8</ele><time>2013-05-26T10:03:06Z</time></trkpt>
<trkpt lat="55.509163000" lon="-3.270427000"><ele>559.5</ele><time>2013-05-26T10:03:16Z</time></trkpt>
<trkpt lat="55.509257000" lon="-3.270463000"><ele>560.7</ele><time>2013-05-26T10:03:28Z</time></trkpt>
<trkpt lat="55.509343000" lon="-3.270534000"><ele>561.3</ele><time>2013-05-26T10:03:40Z</time></trkpt>
<trkpt lat="55.509419000" lon="-3.270627000"><ele>561.9</ele><time>2013-05-26T10:03:59Z</time></trkpt>
<trkpt lat="55.509505000" lon="-3.270700000"><ele>562.5</ele><time>2013-05-26T10:04:10Z</time></trkpt>
<trkpt lat="55.509595000" lon="-3.270764000"><ele>563.2</ele><time>2013-05-26T10:04:25Z</time></trkpt>
<trkpt lat="55.509685000" lon="-3.270800000"><ele>564.1</ele><time>2013-05-26T10:04:39Z</time></trkpt>
<trkpt lat="55.509759000" lon="-3.270898000"><ele>565.0</ele><time>2013-05-26T10:04:49Z</time></trkpt>
<trkpt lat="55.509836000" lon="-3.270994000"><ele>565.9</ele><time>2013-05-26T10:05:02Z</time></trkpt>
<trkpt lat="55.509924000" lon="-3.271058000"><ele>566.8</ele><time>2013-05-26T10:05:12Z</time></trkpt>
<trkpt lat="55.510010000" lon="-3.271115000"><ele>568.0</ele><time>2013-05-26T10:05:22Z</time></trkpt>
<trkpt lat="55.510095000" lon="-3.271172000"><ele>569.2</ele><time>2013-05-26T10:05:31Z</time></trkpt>
<trkpt lat="55.510191000" lon="-3.271219000"><ele>569.7</ele><time>2013-05-26T10:05:41Z</time></trkpt>
<trkpt lat="55.510283000" lon="-3.271247000"><ele>570.3</ele><time>2013-05-26T10:05:51Z</time></trkpt>
<trkpt lat="55.510377000" lon="-3.271274000"><ele>570.8</ele><time>2013-05-26T10:05:59Z</time></trkpt>
<trkpt lat="55.510472000" lon="-3.271293000"><ele>571.4</ele><time>2013-05-26T10:06:09Z</time></trkpt>
<trkpt lat="55.510552000" lon="-3.271365000"><ele>571.9</ele><time>2013-05-26T10:06:30Z</time></trkpt>
<trkpt lat="55.510634000" lon="-3.271447000"><ele>571.8</ele><time>2013-05-26T10:06:42Z</time></trkpt>
<trkpt lat="55.510708000" lon="-3.271548000"><ele>571.7</ele><time>2013-05-26T10:06:51Z</time></trkpt>
<trkpt lat="55.510773000" lon="-3.271679000"><ele>571.6</ele><time>2013-05-26T10:06:59Z</time></trkpt>
<trkpt lat="55.510844000" lon="-3.271798000"><ele>571.5</ele><time>2013-05-26T10:07:08Z</time></trkpt>
<trkpt lat="55.510916000" lon="-3.271912000"><ele>572.2</ele><time>2013-05-26T10:07:16Z</time></trkpt>
<trkpt lat="55.511005000" lon="-3.271980000"><ele>572.8</ele><time>2013-05-26T10:07:25Z</time></trkpt>
<trkpt lat="55.511087000" lon="-3.272072000"><ele>573.5</ele><time>2013-05-26T10:07:34Z</time></trkpt>
<trkpt lat="55.511168000" lon="-3.272143000"><ele>574.1</ele><time>2013-05-26T10:07:42Z</time></trkpt>
<trkpt lat="55.511253000" lon="-3.272230000"><ele>574.7</ele><time>2013-05-26T10:07:53Z</time></trkpt>
<trkpt lat="55.511340000" lon="-3.272303000"><ele>575.4</ele><time>2013-05-26T10:08:03Z</time></trkpt>
<trkpt lat="55.511417000" lon="-3.272394000"><ele>576.2</ele><time>2013-05-26T10:08:14Z</time></trkpt>
<trkpt lat="55.511504000" lon="-3.272444000"><ele>577.4</ele><time>2013-05-26T10:08:24Z</time></trkpt>
<trkpt lat="55.511590000" lon="-3.272510000"><ele>578.5</ele><time>2013-05-26T10:08:42Z</time></trkpt>
<trkpt lat="55.511659000" lon="-3.272616000"><ele>579.7</ele><time>2013-05-26T10:08:51Z</time></trkpt>
<trkpt lat="55.511740000" lon="-3.272706000"><ele>582.4</ele><time>2013-05-26T10:09:03Z</time></trkpt>
<trkpt lat="55.511822000" lon="-3.272794000"><ele>584.0</ele><time>2013-05-26T10:09:15Z</time></trkpt>
<trkpt lat="55.511875000" lon="-3.272926000"><ele>585.6</ele><time>2013-05-26T10:09:57Z</time></trkpt>
<trkpt lat="55.511954000" lon="-3.273012000"><ele>587.3</ele><time>2013-05-26T10:10:12Z</time></trkpt>
<trkpt lat="55.512037000" lon="-3.273083000"><ele>588.9</ele><time>2013-05-26T10:10:44Z</time></trkpt>
<trkpt lat="55.512127000" lon="-3.273116000"><ele>590.5</ele><time>2013-05-26T10:10:56Z</time></trkpt>
<trkpt lat="55.512219000" lon="-3.273091000"><ele>592.2</ele><time>2013-05-26T10:11:08Z</time></trkpt>
<trkpt lat="55.512306000" lon="-3.273034000"><ele>593.6</ele><time>2013-05-26T10:11:18Z</time></trkpt>
<trkpt lat="55.512391000" lon="-3.272981000"><ele>595.1</ele><time>2013-05-26T10:11:32Z</time></trkpt>
<trkpt lat="55.512464000" lon="-3.273078000"><ele>596.5</ele><time>2013-05-26T10:12:22Z</time></trkpt>
<trkpt lat="55.512552000" lon="-3.273118000"><ele>598.0</ele><time>2013-05-26T10:12:36Z</time></trkpt>
<trkpt lat="55.512641000" lon="-3.273166000"><ele>598.6</ele><time>2013-05-26T10:12:49Z</time></trkpt>
<trkpt lat="55.512717000" lon="-3.273276000"><ele>598.6</ele><time>2013-05-26T10:13:01Z</time></trkpt>
<trkpt lat="55.512776000" lon="-3.273408000"><ele>598.6</ele><time>2013-05-26T10:13:12Z</time></trkpt>
<trkpt lat="55.512840000" lon="-3.273531000"><ele>598.6</ele><time>2013-05-26T10:13:34Z</time></trkpt>
<trkpt lat="55.512917000" lon="-3.273631000"><ele>598.6</ele><time>2013-05-26T10:13:48Z</time></trkpt>
<trkpt lat="55.513004000" lon="-3.273679000"><ele>599.3</ele><time>2013-05-26T10:14:14Z</time></trkpt>
<trkpt lat="55.513076000" lon="-3.273774000"><ele>599.9</ele><time>2013-05-26T10:14:32Z</time></trkpt>
<trkpt lat="55.513173000" lon="-3.273788000"><ele>600.5</ele><time>2013-05-26T10:14:41Z</time></trkpt>
<trkpt lat="55.513267000" lon="-3.273838000"><ele>601.2</ele><time>2013-05-26T10:14:52Z</time></trkpt>
<trkpt lat="55.513358000" lon="-3.273780000"><ele>601.8</ele><time>2013-05-26T10:15:03Z</time></trkpt>
<trkpt lat="55.513412000" lon="-3.273642000"><ele>602.6</ele><time>2013-05-26T10:15:13Z</time></trkpt>
<trkpt lat="55.513435000" lon="-3.273487000"><ele>602.8</ele><time>2013-05-26T10:15:23Z</time></trkpt>
<trkpt lat="55.513520000" lon="-3.273425000"><ele>603.6</ele><time>2013-05-26T10:15:34Z</time></trkpt>
<trkpt lat="55.513607000" lon="-3.273381000"><ele>604.5</ele><time>2013-05-26T10:15:48Z</time></trkpt>
<trkpt lat="55.513702000" lon="-3.273367000"><ele>605.3</ele><time>2013-05-26T10:15:59Z</time></trkpt>
<trkpt lat="55.513776000" lon="-3.273276000"><ele>606.1</ele><time>2013-05-26T10:16:25Z</time></trkpt>
<trkpt lat="55.513872000" lon="-3.273268000"><ele>606.3</ele><time>2013-05-26T10:16:34Z</time></trkpt>
<trkpt lat="55.513971000" lon="-3.273262000"><ele>606.5</ele><time>2013-05-26T10:16:43Z</time></trkpt>
<trkpt lat="55.514069000" lon="-3.273269000"><ele>606.6</ele><time>2013-05-26T10:16:52Z</time></trkpt>
<trkpt lat="55.514163000" lon="-3.273258000"><ele>606.8</ele><time>2013-05-26T10:17:00Z</time></trkpt>
<trkpt lat="55.514255000" lon="-3.273279000"><ele>607.2</ele><time>2013-05-26T10:17:07Z</time></trkpt>
<trkpt lat="55.514347000" lon="-3.273244000"><ele>607.4</ele><time>2013-05-26T10:17:15Z</time></trkpt>
<trkpt lat="55.514444000" lon="-3.273250000"><ele>607.5</ele><time>2013-05-26T10:17:23Z</time></trkpt>
<trkpt lat="55.514534000" lon="-3.273252000"><ele>607.7</ele><time>2013-05-26T10:17:31Z</time></trkpt>
<trkpt lat="55.514622000" lon="-3.273201000"><ele>607.9</ele><time>2013-05-26T10:17:37Z</time></trkpt>
<trkpt lat="55.514719000" lon="-3.273144000"><ele>608.1</ele><time>2013-05-26T10:17:43Z</time></trkpt>
<trkpt lat="55.514816000" lon="-3.273151000"><ele>608.3</ele><time>2013-05-26T10:17:53Z</time></trkpt>
<trkpt lat="55.514911000" lon="-3.273178000"><ele>608.5</ele><time>2013-05-26T10:18:04Z</time></trkpt>
<trkpt lat="55.515011000" lon="-3.273178000"><ele>609.5</ele><time>2013-05-26T10:18:15Z</time></trkpt>
<trkpt lat="55.515100000" lon="-3.273203000"><ele>610.5</ele><time>2013-05-26T10:18:28Z</time></trkpt>
<trkpt lat="55.515196000" lon="-3.273199000"><ele>611.5</ele><time>2013-05-26T10:18:39Z</time></trkpt>
<trkpt lat="55.515290000" lon="-3.273204000"><ele>612.3</ele><time>2013-05-26T10:18:50Z</time></trkpt>
<trkpt lat="55.515381000" lon="-3.273187000"><ele>613.1</ele><time>2013-05-26T10:19:03Z</time></trkpt>
<trkpt lat="55.515475000" lon="-3.273182000"><ele>613.9</ele><time>2013-05-26T10:19:21Z</time></trkpt>
<trkpt lat="55.515567000" lon="-3.273213000"><ele>614.7</ele><time>2013-05-26T10:19:34Z</time></trkpt>
<trkpt lat="55.515661000" lon="-3.273206000"><ele>615.5</ele><time>2013-05-26T10:19:47Z</time></trkpt>
<trkpt lat="55.515757000" lon="-3.273186000"><ele>616.4</ele><time>2013-05-26T10:20:00Z</time></trkpt>
<trkpt lat="55.515846000" lon="-3.273166000"><ele>617.2</ele><time>2013-05-26T10:20:10Z</time></trkpt>
<trkpt lat="55.515937000" lon="-3.273157000"><ele>618.9</ele><time>2013-05-26T10:20:22Z</time></trkpt>
<trkpt lat="55.516032000" lon="-3.273122000"><ele>620.2</ele><time>2013-05-26T10:20:46Z</time></trkpt>
<trkpt lat="55.516117000" lon="-3.273043000"><ele>621.5</ele><time>2013-05-26T10:20:57Z</time></trkpt>
<trkpt lat="55.516197000" lon="-3.272965000"><ele>622.7</ele><time>2013-05-26T10:21:08Z</time></trkpt>
<trkpt lat="55.516283000" lon="-3.272911000"><ele>624.0</ele><time>2013-05-26T10:21:20Z</time></trkpt>
<trkpt lat="55.516365000" lon="-3.272833000"><ele>625.3</ele><time>2013-05-26T10:21:30Z</time></trkpt>
<trkpt lat="55.516450000" lon="-3.272752000"><ele>626.5</ele><time>2013-05-26T10:21:41Z</time></trkpt>
<trkpt lat="55.516526000" lon="-3.272657000"><ele>627.8</ele><time>2013-05-26T10:21:52Z</time></trkpt>
<trkpt lat="55.516574000" lon="-3.272507000"><ele>629.5</ele><time>2013-05-26T10:22:01Z</time></trkpt>
<trkpt lat="55.516641000" lon="-3.272364000"><ele>631.1</ele><time>2013-05-26T10:22:10Z</time></trkpt>
<trkpt lat="55.516700000" lon="-3.272226000"><ele>632.7</ele><time>2013-05-26T10:22:19Z</time></trkpt>
<trkpt lat="55.516773000" lon="-3.272118000"><ele>633.7</ele><time>2013-05-26T10:22:30Z</time></trkpt>
<trkpt lat="55.516830000" lon="-3.271992000"><ele>634.4</ele><time>2013-05-26T10:22:39Z</time></trkpt>
<trkpt lat="55.516885000" lon="-3.271862000"><ele>635.0</ele><time>2013-05-26T10:22:47Z</time></trkpt>
<trkpt lat="55.516973000" lon="-3.271806000"><ele>635.6</ele><time>2013-05-26T10:22:56Z</time></trkpt>
<trkpt lat="55.517067000" lon="-3.271817000"><ele>636.3</ele><time>2013-05-26T10:23:27Z</time></trkpt>
<trkpt lat="55.517165000" lon="-3.271807000"><ele>636.9</ele><time>2013-05-26T10:23:36Z</time></trkpt>
<trkpt lat="55.517263000" lon="-3.271815000"><ele>637.5</ele><time>2013-05-26T10:23:46Z</time></trkpt>
<trkpt lat="55.517359000" lon="-3.271838000"><ele>638.2</ele><time>2013-05-26T10:23:56Z</time></trkpt>
<trkpt lat="55.517451000" lon="-3.271844000"><ele>638.5</ele><time>2013-05-26T10:24:04Z</time></trkpt>
<trkpt lat="55.517540000" lon="-3.271870000"><ele>638.7</ele><time>2013-05-26T10:24:15Z</time></trkpt>
<trkpt lat="55.517626000" lon="-3.271808000"><ele>639.0</ele><time>2013-05-26T10:24:22Z</time></trkpt>
<trkpt lat="55.517724000" lon="-3.271810000"><ele>639.0</ele><time>2013-05-26T10:24:31Z</time></trkpt>
<trkpt lat="55.517819000" lon="-3.271865000"><ele>639.0</ele><time>2013-05-26T10:28:30Z</time></trkpt>
<trkpt lat="55.517718000" lon="-3.271836000"><ele>638.5</ele><time>2013-05-26T10:31:24Z</time></trkpt>
<trkpt lat="55.517621000" lon="-3.271853000"><ele>638.1</ele><time>2013-05-26T10:31:33Z</time></trkpt>
<trkpt lat="55.517532000" lon="-3.271881000"><ele>637.6</ele><time>2013-05-26T10:31:40Z</time></trkpt>
<trkpt lat="55.517442000" lon="-3.271905000"><ele>637.0</ele><time>2013-05-26T10:31:48Z</time></trkpt>
<trkpt lat="55.517339000" lon="-3.271905000"><ele>636.4</ele><time>2013-05-26T10:31:55Z</time></trkpt>
<trkpt lat="55.517263000" lon="-3.271996000"><ele>635.7</ele><time>2013-05-26T10:32:03Z</time></trkpt>
<trkpt lat="55.517216000" lon="-3.272158000"><ele>635.1</ele><time>2013-05-26T10:32:20Z</time></trkpt>
<trkpt lat="55.517129000" lon="-3.272219000"><ele>634.5</ele><time>2013-05-26T10:32:26Z</time></trkpt>
<trkpt lat="55.517036000" lon="-3.272216000"><ele>633.8</ele><time>2013-05-26T10:32:34Z</time></trkpt>
<trkpt lat="55.516946000" lon="-3.272182000"><ele>633.2</ele><time>2013-05-26T10:32:42Z</time></trkpt>
<trkpt lat="55.516873000" lon="-3.272066000"><ele>632.5</ele><time>2013-05-26T10:32:50Z</time></trkpt>
<trkpt lat="55.516786000" lon="-3.272131000"><ele>632.4</ele><time>2013-05-26T10:33:06Z</time></trkpt>
<trkpt lat="55.516691000" lon="-3.272206000"><ele>631.8</ele><time>2013-05-26T10:33:13Z</time></trkpt>
<trkpt lat="55.516618000" lon="-3.272319000"><ele>631.3</ele><time>2013-05-26T10:33:22Z</time></trkpt>
<trkpt lat="55.516544000" lon="-3.272431000"><ele>630.9</ele><time>2013-05-26T10:33:30Z</time></trkpt>
<trkpt lat="55.516479000" lon="-3.272566000"><ele>630.5</ele><time>2013-05-26T10:33:38Z</time></trkpt>
<trkpt lat="55.516499000" lon="-3.272745000"><ele>630.2</ele><time>2013-05-26T10:34:09Z</time></trkpt>
<trkpt lat="55.516446000" lon="-3.272897000"><ele>629.8</ele><time>2013-05-26T10:34:26Z</time></trkpt>
<trkpt lat="55.516408000" lon="-3.273062000"><ele>627.6</ele><time>2013-05-26T10:34:34Z</time></trkpt>
<trkpt lat="55.516401000" lon="-3.273237000"><ele>625.5</ele><time>2013-05-26T10:34:42Z</time></trkpt>
<trkpt lat="55.516379000" lon="-3.273404000"><ele>623.3</ele><time>2013-05-26T10:34:48Z</time></trkpt>
<trkpt lat="55.516349000" lon="-3.273553000"><ele>621.1</ele><time>2013-05-26T10:34:55Z</time></trkpt>
<trkpt lat="55.516305000" lon="-3.273698000"><ele>618.9</ele><time>2013-05-26T10:35:02Z</time></trkpt>
<trkpt lat="55.516238000" lon="-3.273811000"><ele>617.1</ele><time>2013-05-26T10:35:12Z</time></trkpt>
<trkpt lat="55.516187000" lon="-3.273945000"><ele>614.5</ele><time>2013-05-26T10:35:18Z</time></trkpt>
<trkpt lat="55.516138000" lon="-3.274080000"><ele>611.8</ele><time>2013-05-26T10:35:27Z</time></trkpt>
<trkpt lat="55.516063000" lon="-3.274188000"><ele>609.2</ele><time>2013-05-26T10:35:39Z</time></trkpt>
<trkpt lat="55.515984000" lon="-3.274281000"><ele>606.5</ele><time>2013-05-26T10:35:47Z</time></trkpt>
<trkpt lat="55.515922000" lon="-3.274410000"><ele>603.9</ele><time>2013-05-26T10:35:54Z</time></trkpt>
<trkpt lat="55.515881000" lon="-3.274570000"><ele>603.1</ele><time>2013-05-26T10:36:03Z</time></trkpt>
<trkpt lat="55.515828000" lon="-3.274719000"><ele>601.0</ele><time>2013-05-26T10:36:11Z</time></trkpt>
<trkpt lat="55.515791000" lon="-3.274871000"><ele>598.9</ele><time>2013-05-26T10:36:21Z</time></trkpt>
<trkpt lat="55.515735000" lon="-3.275014000"><ele>597.2</ele><time>2013-05-26T10:36:30Z</time></trkpt>
<trkpt lat="55.515687000" lon="-3.275150000"><ele>595.5</ele><time>2013-05-26T10:36:38Z</time></trkpt>
<trkpt lat="55.515621000" lon="-3.275280000"><ele>593.4</ele><time>2013-05-26T10:36:49Z</time></trkpt>
<trkpt lat="55.515565000" lon="-3.275424000"><ele>592.1</ele><time>2013-05-26T10:36:58Z</time></trkpt>
<trkpt lat="55.515510000" lon="-3.275565000"><ele>590.8</ele><time>2013-05-26T10:37:04Z</time></trkpt>
<trkpt lat="55.515443000" lon="-3.275703000"><ele>588.4</ele><time>2013-05-26T10:37:10Z</time></trkpt>
<trkpt lat="55.515448000" lon="-3.275876000"><ele>585.9</ele><time>2013-05-26T10:37:19Z</time></trkpt>
<trkpt lat="55.515486000" lon="-3.276038000"><ele>583.5</ele><time>2013-05-26T10:37:29Z</time></trkpt>
<trkpt lat="55.515580000" lon="-3.276107000"><ele>581.0</ele><time>2013-05-26T10:37:39Z</time></trkpt>
<trkpt lat="55.515674000" lon="-3.276126000"><ele>580.6</ele><time>2013-05-26T10:37:46Z</time></trkpt>
<trkpt lat="55.515659000" lon="-3.276298000"><ele>580.3</ele><time>2013-05-26T10:38:10Z</time></trkpt>
<trkpt lat="55.515585000" lon="-3.276411000"><ele>579.5</ele><time>2013-05-26T10:38:18Z</time></trkpt>
<trkpt lat="55.515524000" lon="-3.276546000"><ele>578.8</ele><time>2013-05-26T10:38:26Z</time></trkpt>
<trkpt lat="55.515480000" lon="-3.276701000"><ele>577.8</ele><time>2013-05-26T10:38:34Z</time></trkpt>
<trkpt lat="55.515446000" lon="-3.276854000"><ele>576.8</ele><time>2013-05-26T10:38:42Z</time></trkpt>
<trkpt lat="55.515356000" lon="-3.276899000"><ele>575.8</ele><time>2013-05-26T10:38:52Z</time></trkpt>
<trkpt lat="55.515262000" lon="-3.276904000"><ele>576.0</ele><time>2013-05-26T10:39:01Z</time></trkpt>
<trkpt lat="55.515166000" lon="-3.276962000"><ele>576.2</ele><time>2013-05-26T10:39:10Z</time></trkpt>
<trkpt lat="55.515087000" lon="-3.277050000"><ele>576.4</ele><time>2013-05-26T10:39:17Z</time></trkpt>
<trkpt lat="55.514995000" lon="-3.277075000"><ele>576.5</ele><time>2013-05-26T10:39:26Z</time></trkpt>
<trkpt lat="55.514928000" lon="-3.277184000"><ele>575.4</ele><time>2013-05-26T10:39:33Z</time></trkpt>
<trkpt lat="55.514863000" lon="-3.277321000"><ele>573.9</ele><time>2013-05-26T10:39:42Z</time></trkpt>
<trkpt lat="55.514813000" lon="-3.277458000"><ele>572.5</ele><time>2013-05-26T10:39:50Z</time></trkpt>
<trkpt lat="55.514769000" lon="-3.277607000"><ele>571.0</ele><time>2013-05-26T10:39:58Z</time></trkpt>
<trkpt lat="55.514740000" lon="-3.277772000"><ele>570.2</ele><time>2013-05-26T10:40:18Z</time></trkpt>
<trkpt lat="55.514679000" lon="-3.277896000"><ele>569.4</ele><time>2013-05-26T10:40:27Z</time></trkpt>
<trkpt lat="55.514624000" lon="-3.278033000"><ele>569.0</ele><time>2013-05-26T10:40:34Z</time></trkpt>
<trkpt lat="55.514590000" lon="-3.278194000"><ele>568.6</ele><time>2013-05-26T10:40:43Z</time></trkpt>
<trkpt lat="55.514551000" lon="-3.278349000"><ele>568.3</ele><time>2013-05-26T10:40:51Z</time></trkpt>
<trkpt lat="55.514519000" lon="-3.278509000"><ele>567.9</ele><time>2013-05-26T10:41:02Z</time></trkpt>
<trkpt lat="55.514486000" lon="-3.278666000"><ele>567.5</ele><time>2013-05-26T10:41:14Z</time></trkpt>
<trkpt lat="55.514470000" lon="-3.278828000"><ele>568.1</ele><time>2013-05-26T10:41:26Z</time></trkpt>
<trkpt lat="55.514451000" lon="-3.279002000"><ele>568.9</ele><time>2013-05-26T10:41:36Z</time></trkpt>
<trkpt lat="55.514424000" lon="-3.279156000"><ele>569.7</ele><time>2013-05-26T10:41:46Z</time></trkpt>
<trkpt lat="55.514405000" lon="-3.279313000"><ele>571.2</ele><time>2013-05-26T10:41:54Z</time></trkpt>
<trkpt lat="55.514438000" lon="-3.279469000"><ele>572.6</ele><time>2013-05-26T10:42:04Z</time></trkpt>
<trkpt lat="55.514499000" lon="-3.279613000"><ele>574.1</ele><time>2013-05-26T10:42:12Z</time></trkpt>
<trkpt lat="55.514524000" lon="-3.279768000"><ele>575.1</ele><time>2013-05-26T10:42:23Z</time></trkpt>
<trkpt lat="55.514591000" lon="-3.279890000"><ele>576.9</ele><time>2013-05-26T10:42:35Z</time></trkpt>
<trkpt lat="55.514677000" lon="-3.279942000"><ele>578.7</ele><time>2013-05-26T10:42:50Z</time></trkpt>
<trkpt lat="55.514749000" lon="-3.280039000"><ele>580.5</ele><time>2013-05-26T10:43:02Z</time></trkpt>
<trkpt lat="55.514813000" lon="-3.280156000"><ele>582.4</ele><time>2013-05-26T10:43:14Z</time></trkpt>
<trkpt lat="55.514879000" lon="-3.280267000"><ele>583.8</ele><time>2013-05-26T10:43:29Z</time></trkpt>
<trkpt lat="55.514941000" lon="-3.280388000"><ele>585.3</ele><time>2013-05-26T10:43:46Z</time></trkpt>
<trkpt lat="55.515026000" lon="-3.280461000"><ele>586.7</ele><time>2013-05-26T10:44:31Z</time></trkpt>
<trkpt lat="55.515088000" lon="-3.280577000"><ele>588.3</ele><time>2013-05-26T10:45:18Z</time></trkpt>
<trkpt lat="55.515147000" lon="-3.280716000"><ele>589.8</ele><time>2013-05-26T10:45:34Z</time></trkpt>
<trkpt lat="55.515191000" lon="-3.280870000"><ele>592.3</ele><time>2013-05-26T10:45:46Z</time></trkpt>
<trkpt lat="55.515257000" lon="-3.280980000"><ele>594.7</ele><time>2013-05-26T10:45:56Z</time></trkpt>
<trkpt lat="55.515311000" lon="-3.281116000"><ele>596.4</ele><time>2013-05-26T10:46:07Z</time></trkpt>
<trkpt lat="55.515374000" lon="-3.281229000"><ele>598.0</ele><time>2013-05-26T10:46:19Z</time></trkpt>
<trkpt lat="55.515441000" lon="-3.281336000"><ele>599.6</ele><time>2013-05-26T10:46:42Z</time></trkpt>
<trkpt lat="55.515513000" lon="-3.281440000"><ele>601.2</ele><time>2013-05-26T10:46:54Z</time></trkpt>
<trkpt lat="55.515581000" lon="-3.281558000"><ele>602.7</ele><time>2013-05-26T10:47:18Z</time></trkpt>
<trkpt lat="55.515661000" lon="-3.281652000"><ele>604.3</ele><time>2013-05-26T10:47:26Z</time></trkpt>
<trkpt lat="55.515726000" lon="-3.281777000"><ele>605.8</ele><time>2013-05-26T10:47:32Z</time></trkpt>
<trkpt lat="55.515798000" lon="-3.281881000"><ele>606.6</ele><time>2013-05-26T10:47:42Z</time></trkpt>
<trkpt lat="55.515854000" lon="-3.282006000"><ele>607.5</ele><time>2013-05-26T10:47:51Z</time></trkpt>
<trkpt lat="55.515838000" lon="-3.282163000"><ele>607.4</ele><time>2013-05-26T10:48:11Z</time></trkpt>
<trkpt lat="55.515775000" lon="-3.282283000"><ele>607.3</ele><time>2013-05-26T10:48:20Z</time></trkpt>
<trkpt lat="55.515866000" lon="-3.282293000"><ele>607.1</ele><time>2013-05-26T10:49:04Z</time></trkpt>
<trkpt lat="55.515975000" lon="-3.282320000"><ele>606.9</ele><time>2013-05-26T10:49:32Z</time></trkpt>
<trkpt lat="55.516068000" lon="-3.282344000"><ele>606.7</ele><time>2013-05-26T10:49:42Z</time></trkpt>
<trkpt lat="55.516155000" lon="-3.282410000"><ele>606.6</ele><time>2013-05-26T10:49:50Z</time></trkpt>
<trkpt lat="55.516233000" lon="-3.282509000"><ele>606.8</ele><time>2013-05-26T10:49:56Z</time></trkpt>
<trkpt lat="55.516326000" lon="-3.282554000"><ele>607.0</ele><time>2013-05-26T10:50:06Z</time></trkpt>
<trkpt lat="55.516415000" lon="-3.282586000"><ele>607.2</ele><time>2013-05-26T10:50:14Z</time></trkpt>
<trkpt lat="55.516505000" lon="-3.282642000"><ele>607.4</ele><time>2013-05-26T10:50:22Z</time></trkpt>
<trkpt lat="55.516579000" lon="-3.282745000"><ele>607.5</ele><time>2013-05-26T10:50:30Z</time></trkpt>
<trkpt lat="55.516641000" lon="-3.282878000"><ele>607.7</ele><time>2013-05-26T10:50:40Z</time></trkpt>
<trkpt lat="55.516692000" lon="-3.283022000"><ele>607.6</ele><time>2013-05-26T10:50:48Z</time></trkpt>
<trkpt lat="55.516757000" lon="-3.283147000"><ele>607.6</ele><time>2013-05-26T10:51:42Z</time></trkpt>
<trkpt lat="55.516809000" lon="-3.283293000"><ele>607.6</ele><time>2013-05-26T10:51:50Z</time></trkpt>
<trkpt lat="55.516868000" lon="-3.283434000"><ele>607.6</ele><time>2013-05-26T10:51:58Z</time></trkpt>
<trkpt lat="55.516913000" lon="-3.283574000"><ele>607.6</ele><time>2013-05-26T10:52:06Z</time></trkpt>
<trkpt lat="55.516932000" lon="-3.283747000"><ele>607.4</ele><time>2013-05-26T10:52:14Z</time></trkpt>
<trkpt lat="55.516982000" lon="-3.283893000"><ele>606.8</ele><time>2013-05-26T10:52:23Z</time></trkpt>
<trkpt lat="55.516996000" lon="-3.284052000"><ele>606.6</ele><time>2013-05-26T10:52:31Z</time></trkpt>
<trkpt lat="55.517070000" lon="-3.284155000"><ele>606.5</ele><time>2013-05-26T10:52:42Z</time></trkpt>
<trkpt lat="55.517043000" lon="-3.284312000"><ele>606.3</ele><time>2013-05-26T10:53:14Z</time></trkpt>
<trkpt lat="55.517040000" lon="-3.284475000"><ele>606.1</ele><time>2013-05-26T10:53:38Z</time></trkpt>
<trkpt lat="55.517101000" lon="-3.284640000"><ele>606.2</ele><time>2013-05-26T10:53:54Z</time></trkpt>
<trkpt lat="55.517139000" lon="-3.284794000"><ele>606.3</ele><time>2013-05-26T10:54:06Z</time></trkpt>
<trkpt lat="55.517196000" lon="-3.284921000"><ele>606.5</ele><time>2013-05-26T10:54:16Z</time></trkpt>
<trkpt lat="55.517259000" lon="-3.285039000"><ele>606.6</ele><time>2013-05-26T10:54:46Z</time></trkpt>
<trkpt lat="55.517314000" lon="-3.285169000"><ele>606.8</ele><time>2013-05-26T10:54:56Z</time></trkpt>
<trkpt lat="55.517404000" lon="-3.285226000"><ele>607.0</ele><time>2013-05-26T10:55:14Z</time></trkpt>
<trkpt lat="55.517489000" lon="-3.285297000"><ele>607.5</ele><time>2013-05-26T10:55:22Z</time></trkpt>
<trkpt lat="55.517560000" lon="-3.285407000"><ele>607.9</ele><time>2013-05-26T10:55:28Z</time></trkpt>
<trkpt lat="55.517647000" lon="-3.285478000"><ele>608.4</ele><time>2013-05-26T10:55:46Z</time></trkpt>
<trkpt lat="55.517741000" lon="-3.285514000"><ele>608.8</ele><time>2013-05-26T10:55:54Z</time></trkpt>
<trkpt lat="55.517831000" lon="-3.285564000"><ele>609.8</ele><time>2013-05-26T10:56:00Z</time></trkpt>
<trkpt lat="55.517910000" lon="-3.285657000"><ele>610.8</ele><time>2013-05-26T10:56:09Z</time></trkpt>
<trkpt lat="55.517976000" lon="-3.285767000"><ele>611.8</ele><time>2013-05-26T10:56:18Z</time></trkpt>
<trkpt lat="55.518016000" lon="-3.285910000"><ele>612.7</ele><time>2013-05-26T10:56:26Z</time></trkpt>
<trkpt lat="55.518032000" lon="-3.286075000"><ele>613.6</ele><time>2013-05-26T10:56:34Z</time></trkpt>
<trkpt lat="55.518072000" lon="-3.286235000"><ele>614.5</ele><time>2013-05-26T10:56:46Z</time></trkpt>
<trkpt lat="55.518099000" lon="-3.286397000"><ele>615.5</ele><time>2013-05-26T10:56:58Z</time></trkpt>
<trkpt lat="55.518105000" lon="-3.286568000"><ele>616.7</ele><time>2013-05-26T10:57:08Z</time></trkpt>
<trkpt lat="55.518194000" lon="-3.286675000"><ele>617.6</ele><time>2013-05-26T10:57:22Z</time></trkpt>
<trkpt lat="55.518258000" lon="-3.286793000"><ele>618.5</ele><time>2013-05-26T10:57:31Z</time></trkpt>
<trkpt lat="55.518317000" lon="-3.286921000"><ele>619.5</ele><time>2013-05-26T10:57:40Z</time></trkpt>
<trkpt lat="55.518387000" lon="-3.287031000"><ele>619.8</ele><time>2013-05-26T10:57:51Z</time></trkpt>
<trkpt lat="55.518453000" lon="-3.287147000"><ele>620.2</ele><time>2013-05-26T10:58:02Z</time></trkpt>
<trkpt lat="55.518512000" lon="-3.287267000"><ele>622.5</ele><time>2013-05-26T10:58:14Z</time></trkpt>
<trkpt lat="55.518579000" lon="-3.287388000"><ele>624.7</ele><time>2013-05-26T10:58:26Z</time></trkpt>
<trkpt lat="55.518623000" lon="-3.287533000"><ele>627.0</ele><time>2013-05-26T10:58:37Z</time></trkpt>
<trkpt lat="55.518686000" lon="-3.287651000"><ele>629.3</ele><time>2013-05-26T10:58:48Z</time></trkpt>
<trkpt lat="55.518742000" lon="-3.287779000"><ele>631.5</ele><time>2013-05-26T10:59:06Z</time></trkpt>
<trkpt lat="55.518805000" lon="-3.287906000"><ele>633.5</ele><time>2013-05-26T10:59:18Z</time></trkpt>
<trkpt lat="55.518878000" lon="-3.288015000"><ele>635.4</ele><time>2013-05-26T11:00:19Z</time></trkpt>
<trkpt lat="55.518942000" lon="-3.288143000"><ele>638.5</ele><time>2013-05-26T11:00:31Z</time></trkpt>
<trkpt lat="55.519004000" lon="-3.288269000"><ele>641.5</ele><time>2013-05-26T11:00:40Z</time></trkpt>
<trkpt lat="55.519060000" lon="-3.288406000"><ele>644.6</ele><time>2013-05-26T11:00:52Z</time></trkpt>
<trkpt lat="55.519115000" lon="-3.288535000"><ele>647.7</ele><time>2013-05-26T11:01:08Z</time></trkpt>
<trkpt lat="55.519162000" lon="-3.288670000"><ele>648.9</ele><time>2013-05-26T11:01:38Z</time></trkpt>
<trkpt lat="55.519247000" lon="-3.288794000"><ele>650.1</ele><time>2013-05-26T11:02:26Z</time></trkpt>
<trkpt lat="55.519315000" lon="-3.288911000"><ele>652.5</ele><time>2013-05-26T11:02:39Z</time></trkpt>
<trkpt lat="55.519388000" lon="-3.289031000"><ele>656.6</ele><time>2013-05-26T11:03:24Z</time></trkpt>
<trkpt lat="55.519447000" lon="-3.289158000"><ele>660.8</ele><time>2013-05-26T11:03:46Z</time></trkpt>
<trkpt lat="55.519515000" lon="-3.289270000"><ele>665.0</ele><time>2013-05-26T11:04:23Z</time></trkpt>
<trkpt lat="55.519570000" lon="-3.289404000"><ele>669.2</ele><time>2013-05-26T11:04:40Z</time></trkpt>
<trkpt lat="55.519636000" lon="-3.289515000"><ele>672.2</ele><time>2013-05-26T11:04:54Z</time></trkpt>
<trkpt lat="55.519697000" lon="-3.289633000"><ele>675.2</ele><time>2013-05-26T11:05:32Z</time></trkpt>
<trkpt lat="55.519769000" lon="-3.289737000"><ele>678.2</ele><time>2013-05-26T11:06:02Z</time></trkpt>
<trkpt lat="55.519838000" lon="-3.289871000"><ele>682.1</ele><time>2013-05-26T11:06:35Z</time></trkpt>
<trkpt lat="55.519914000" lon="-3.289974000"><ele>686.0</ele><time>2013-05-26T11:07:08Z</time></trkpt>
<trkpt lat="55.519973000" lon="-3.290101000"><ele>689.9</ele><time>2013-05-26T11:07:23Z</time></trkpt>
<trkpt lat="55.520036000" lon="-3.290224000"><ele>692.6</ele><time>2013-05-26T11:07:55Z</time></trkpt>
<trkpt lat="55.520117000" lon="-3.290301000"><ele>693.5</ele><time>2013-05-26T11:08:18Z</time></trkpt>
<trkpt lat="55.520184000" lon="-3.290417000"><ele>696.0</ele><time>2013-05-26T11:08:36Z</time></trkpt>
<trkpt lat="55.520263000" lon="-3.290502000"><ele>699.4</ele><time>2013-05-26T11:08:55Z</time></trkpt>
<trkpt lat="55.520302000" lon="-3.290663000"><ele>702.7</ele><time>2013-05-26T11:09:46Z</time></trkpt>
<trkpt lat="55.520368000" lon="-3.290783000"><ele>706.1</ele><time>2013-05-26T11:10:02Z</time></trkpt>
<trkpt lat="55.520437000" lon="-3.290895000"><ele>709.5</ele><time>2013-05-26T11:10:18Z</time></trkpt>
<trkpt lat="55.520513000" lon="-3.290983000"><ele>712.8</ele><time>2013-05-26T11:10:32Z</time></trkpt>
<trkpt lat="55.520574000" lon="-3.291144000"><ele>715.3</ele><time>2013-05-26T11:11:20Z</time></trkpt>
<trkpt lat="55.520636000" lon="-3.291268000"><ele>717.7</ele><time>2013-05-26T11:11:34Z</time></trkpt>
<trkpt lat="55.520703000" lon="-3.291378000"><ele>720.2</ele><time>2013-05-26T11:11:50Z</time></trkpt>
<trkpt lat="55.520777000" lon="-3.291487000"><ele>722.5</ele><time>2013-05-26T11:12:03Z</time></trkpt>
<trkpt lat="55.520863000" lon="-3.291585000"><ele>724.9</ele><time>2013-05-26T11:12:34Z</time></trkpt>
<trkpt lat="55.520914000" lon="-3.291733000"><ele>725.7</ele><time>2013-05-26T11:12:44Z</time></trkpt>
<trkpt lat="55.520984000" lon="-3.291850000"><ele>725.6</ele><time>2013-05-26T11:12:59Z</time></trkpt>
<trkpt lat="55.521053000" lon="-3.291954000"><ele>725.5</ele><time>2013-05-26T11:13:07Z</time></trkpt>
<trkpt lat="55.521132000" lon="-3.292058000"><ele>725.5</ele><time>2013-05-26T11:13:16Z</time></trkpt>
<trkpt lat="55.521201000" lon="-3.292179000"><ele>725.2</ele><time>2013-05-26T11:13:26Z</time></trkpt>
<trkpt lat="55.521243000" lon="-3.292331000"><ele>724.9</ele><time>2013-05-26T11:13:35Z</time></trkpt>
<trkpt lat="55.521241000" lon="-3.292495000"><ele>724.6</ele><time>2013-05-26T11:21:06Z</time></trkpt>
<trkpt lat="55.521323000" lon="-3.292593000"><ele>724.4</ele><time>2013-05-26T11:21:16Z</time></trkpt>
<trkpt lat="55.521403000" lon="-3.292679000"><ele>724.1</ele><time>2013-05-26T11:21:24Z</time></trkpt>
<trkpt lat="55.521436000" lon="-3.292849000"><ele>723.9</ele><time>2013-05-26T11:21:34Z</time></trkpt>
<trkpt lat="55.521453000" lon="-3.293019000"><ele>722.9</ele><time>2013-05-26T11:21:42Z</time></trkpt>
<trkpt lat="55.521493000" lon="-3.293183000"><ele>721.9</ele><time>2013-05-26T11:21:51Z</time></trkpt>
<trkpt lat="55.521536000" lon="-3.293331000"><ele>720.9</ele><time>2013-05-26T11:21:58Z</time></trkpt>
<trkpt lat="55.521576000" lon="-3.293485000"><ele>719.9</ele><time>2013-05-26T11:22:06Z</time></trkpt>
<trkpt lat="55.521633000" lon="-3.293615000"><ele>718.9</ele><time>2013-05-26T11:22:14Z</time></trkpt>
<trkpt lat="55.521690000" lon="-3.293759000"><ele>718.1</ele><time>2013-05-26T11:22:22Z</time></trkpt>
<trkpt lat="55.521750000" lon="-3.293889000"><ele>717.3</ele><time>2013-05-26T11:22:30Z</time></trkpt>
<trkpt lat="55.521805000" lon="-3.294017000"><ele>716.2</ele><time>2013-05-26T11:22:38Z</time></trkpt>
<trkpt lat="55.521864000" lon="-3.294151000"><ele>715.1</ele><time>2013-05-26T11:22:46Z</time></trkpt>
<trkpt lat="55.521939000" lon="-3.294251000"><ele>714.0</ele><time>2013-05-26T11:22:54Z</time></trkpt>
<trkpt lat="55.522008000" lon="-3.294373000"><ele>712.9</ele><time>2013-05-26T11:23:03Z</time></trkpt>
<trkpt lat="55.522070000" lon="-3.294507000"><ele>712.6</ele><time>2013-05-26T11:23:12Z</time></trkpt>
<trkpt lat="55.522127000" lon="-3.294637000"><ele>712.4</ele><time>2013-05-26T11:23:19Z</time></trkpt>
<trkpt lat="55.522162000" lon="-3.294801000"><ele>712.1</ele><time>2013-05-26T11:23:27Z</time></trkpt>
<trkpt lat="55.522181000" lon="-3.294972000"><ele>711.2</ele><time>2013-05-26T11:23:35Z</time></trkpt>
<trkpt lat="55.522266000" lon="-3.295067000"><ele>710.3</ele><time>2013-05-26T11:23:43Z</time></trkpt>
<trkpt lat="55.522354000" lon="-3.295129000"><ele>709.4</ele><time>2013-05-26T11:23:51Z</time></trkpt>
<trkpt lat="55.522434000" lon="-3.295203000"><ele>708.5</ele><time>2013-05-26T11:23:58Z</time></trkpt>
<trkpt lat="55.522506000" lon="-3.295351000"><ele>707.8</ele><time>2013-05-26T11:24:10Z</time></trkpt>
<trkpt lat="55.522591000" lon="-3.295431000"><ele>708.1</ele><time>2013-05-26T11:24:18Z</time></trkpt>
<trkpt lat="55.522662000" lon="-3.295532000"><ele>708.4</ele><time>2013-05-26T11:24:23Z</time></trkpt>
<trkpt lat="55.522735000" lon="-3.295625000"><ele>708.6</ele><time>2013-05-26T11:24:30Z</time></trkpt>
<trkpt lat="55.522821000" lon="-3.295704000"><ele>708.9</ele><time>2013-05-26T11:24:38Z</time></trkpt>
<trkpt lat="55.522903000" lon="-3.295785000"><ele>709.2</ele><time>2013-05-26T11:24:46Z</time></trkpt>
<trkpt lat="55.522985000" lon="-3.295857000"><ele>709.5</ele><time>2013-05-26T11:24:52Z</time></trkpt>
<trkpt lat="55.523063000" lon="-3.295939000"><ele>710.4</ele><time>2013-05-26T11:25:00Z</time></trkpt>
<trkpt lat="55.523133000" lon="-3.296045000"><ele>711.3</ele><time>2013-05-26T11:25:12Z</time></trkpt>
<trkpt lat="55.523219000" lon="-3.296138000"><ele>712.2</ele><time>2013-05-26T11:25:19Z</time></trkpt>
<trkpt lat="55.523299000" lon="-3.296234000"><ele>713.1</ele><time>2013-05-26T11:25:26Z</time></trkpt>
<trkpt lat="55.523376000" lon="-3.296345000"><ele>714.9</ele><time>2013-05-26T11:25:34Z</time></trkpt>
<trkpt lat="55.523437000" lon="-3.296468000"><ele>715.8</ele><time>2013-05-26T11:25:42Z</time></trkpt>
<trkpt lat="55.523521000" lon="-3.296533000"><ele>716.7</ele><time>2013-05-26T11:25:52Z</time></trkpt>
<trkpt lat="55.523609000" lon="-3.296616000"><ele>717.6</ele><time>2013-05-26T11:25:59Z</time></trkpt>
<trkpt lat="55.523692000" lon="-3.296694000"><ele>718.5</ele><time>2013-05-26T11:26:10Z</time></trkpt>
<trkpt lat="55.523769000" lon="-3.296797000"><ele>719.5</ele><time>2013-05-26T11:26:16Z</time></trkpt>
<trkpt lat="55.523830000" lon="-3.296925000"><ele>720.4</ele><time>2013-05-26T11:26:22Z</time></trkpt>
<trkpt lat="55.523873000" lon="-3.297070000"><ele>721.3</ele><time>2013-05-26T11:26:30Z</time></trkpt>
<trkpt lat="55.523935000" lon="-3.297200000"><ele>722.2</ele><time>2013-05-26T11:26:38Z</time></trkpt>
<trkpt lat="55.524008000" lon="-3.297316000"><ele>723.1</ele><time>2013-05-26T11:26:46Z</time></trkpt>
<trkpt lat="55.524081000" lon="-3.297412000"><ele>724.0</ele><time>2013-05-26T11:26:55Z</time></trkpt>
<trkpt lat="55.524163000" lon="-3.297517000"><ele>724.0</ele><time>2013-05-26T11:27:06Z</time></trkpt>
<trkpt lat="55.524256000" lon="-3.297591000"><ele>724.0</ele><time>2013-05-26T11:27:11Z</time></trkpt>
<trkpt lat="55.524334000" lon="-3.297677000"><ele>725.2</ele><time>2013-05-26T11:27:20Z</time></trkpt>
<trkpt lat="55.524414000" lon="-3.297758000"><ele>726.4</ele><time>2013-05-26T11:27:30Z</time></trkpt>
<trkpt lat="55.524474000" lon="-3.297890000"><ele>727.5</ele><time>2013-05-26T11:27:41Z</time></trkpt>
<trkpt lat="55.524543000" lon="-3.298006000"><ele>728.7</ele><time>2013-05-26T11:27:50Z</time></trkpt>
<trkpt lat="55.524610000" lon="-3.298128000"><ele>729.9</ele><time>2013-05-26T11:28:00Z</time></trkpt>
<trkpt lat="55.524678000" lon="-3.298253000"><ele>731.2</ele><time>2013-05-26T11:28:11Z</time></trkpt>
<trkpt lat="55.524758000" lon="-3.298353000"><ele>732.5</ele><time>2013-05-26T11:28:20Z</time></trkpt>
<trkpt lat="55.524849000" lon="-3.298421000"><ele>733.7</ele><time>2013-05-26T11:28:30Z</time></trkpt>
<trkpt lat="55.524933000" lon="-3.298496000"><ele>735.0</ele><time>2013-05-26T11:28:44Z</time></trkpt>
<trkpt lat="55.525025000" lon="-3.298578000"><ele>736.3</ele><time>2013-05-26T11:28:54Z</time></trkpt>
<trkpt lat="55.525105000" lon="-3.298678000"><ele>737.5</ele><time>2013-05-26T11:29:03Z</time></trkpt>
<trkpt lat="55.525175000" lon="-3.298792000"><ele>737.6</ele><time>2013-05-26T11:29:14Z</time></trkpt>
<trkpt lat="55.525262000" lon="-3.298882000"><ele>737.7</ele><time>2013-05-26T11:29:22Z</time></trkpt>
<trkpt lat="55.525343000" lon="-3.298953000"><ele>737.8</ele><time>2013-05-26T11:29:30Z</time></trkpt>
<trkpt lat="55.525443000" lon="-3.299027000"><ele>737.9</ele><time>2013-05-26T11:29:42Z</time></trkpt>
<trkpt lat="55.525463000" lon="-3.299189000"><ele>738.0</ele><time>2013-05-26T11:29:54Z</time></trkpt>
<trkpt lat="55.525424000" lon="-3.299353000"><ele>738.0</ele><time>2013-05-26T11:30:02Z</time></trkpt>
<trkpt lat="55.525392000" lon="-3.299514000"><ele>738.0</ele><time>2013-05-26T11:30:11Z</time></trkpt>
<trkpt lat="55.525343000" lon="-3.299655000"><ele>738.3</ele><time>2013-05-26T11:30:22Z</time></trkpt>
<trkpt lat="55.525341000" lon="-3.299815000"><ele>738.5</ele><time>2013-05-26T11:30:34Z</time></trkpt>
<trkpt lat="55.525321000" lon="-3.299979000"><ele>738.8</ele><time>2013-05-26T11:30:42Z</time></trkpt>
<trkpt lat="55.525269000" lon="-3.300117000"><ele>739.1</ele><time>2013-05-26T11:30:52Z</time></trkpt>
<trkpt lat="55.525242000" lon="-3.300276000"><ele>739.4</ele><time>2013-05-26T11:31:03Z</time></trkpt>
<trkpt lat="55.525247000" lon="-3.300435000"><ele>739.8</ele><time>2013-05-26T11:31:12Z</time></trkpt>
<trkpt lat="55.525221000" lon="-3.300594000"><ele>740.3</ele><time>2013-05-26T11:31:22Z</time></trkpt>
<trkpt lat="55.525175000" lon="-3.300734000"><ele>740.7</ele><time>2013-05-26T11:31:30Z</time></trkpt>
<trkpt lat="55.525165000" lon="-3.300901000"><ele>741.2</ele><time>2013-05-26T11:31:42Z</time></trkpt>
<trkpt lat="55.525176000" lon="-3.301068000"><ele>741.6</ele><time>2013-05-26T11:31:52Z</time></trkpt>
<trkpt lat="55.525153000" lon="-3.301227000"><ele>742.1</ele><time>2013-05-26T11:32:03Z</time></trkpt>
<trkpt lat="55.525113000" lon="-3.301376000"><ele>743.2</ele><time>2013-05-26T11:32:12Z</time></trkpt>
<trkpt lat="55.525048000" lon="-3.301501000"><ele>744.3</ele><time>2013-05-26T11:32:23Z</time></trkpt>
<trkpt lat="55.524985000" lon="-3.301621000"><ele>745.4</ele><time>2013-05-26T11:32:34Z</time></trkpt>
<trkpt lat="55.524918000" lon="-3.301742000"><ele>746.5</ele><time>2013-05-26T11:32:45Z</time></trkpt>
<trkpt lat="55.524848000" lon="-3.301860000"><ele>747.5</ele><time>2013-05-26T11:32:54Z</time></trkpt>
<trkpt lat="55.524778000" lon="-3.301975000"><ele>748.5</ele><time>2013-05-26T11:33:03Z</time></trkpt>
<trkpt lat="55.524701000" lon="-3.302057000"><ele>750.3</ele><time>2013-05-26T11:33:13Z</time></trkpt>
<trkpt lat="55.524728000" lon="-3.302211000"><ele>752.1</ele><time>2013-05-26T11:33:32Z</time></trkpt>
<trkpt lat="55.524781000" lon="-3.302339000"><ele>753.9</ele><time>2013-05-26T11:33:42Z</time></trkpt>
<trkpt lat="55.524813000" lon="-3.302489000"><ele>755.2</ele><time>2013-05-26T11:33:50Z</time></trkpt>
<trkpt lat="55.524811000" lon="-3.302661000"><ele>756.5</ele><time>2013-05-26T11:34:02Z</time></trkpt>
<trkpt lat="55.524776000" lon="-3.302818000"><ele>756.8</ele><time>2013-05-26T11:34:14Z</time></trkpt>
<trkpt lat="55.524727000" lon="-3.302960000"><ele>757.2</ele><time>2013-05-26T11:34:25Z</time></trkpt>
<trkpt lat="55.524690000" lon="-3.303120000"><ele>757.5</ele><time>2013-05-26T11:34:38Z</time></trkpt>
<trkpt lat="55.524640000" lon="-3.303269000"><ele>758.7</ele><time>2013-05-26T11:34:48Z</time></trkpt>
<trkpt lat="55.524579000" lon="-3.303394000"><ele>759.9</ele><time>2013-05-26T11:34:59Z</time></trkpt>
<trkpt lat="55.524517000" lon="-3.303538000"><ele>761.1</ele><time>2013-05-26T11:35:08Z</time></trkpt>
<trkpt lat="55.524456000" lon="-3.303671000"><ele>761.4</ele><time>2013-05-26T11:35:18Z</time></trkpt>
<trkpt lat="55.524362000" lon="-3.303733000"><ele>761.6</ele><time>2013-05-26T11:35:43Z</time></trkpt>
<trkpt lat="55.524283000" lon="-3.303830000"><ele>761.9</ele><time>2013-05-26T11:35:50Z</time></trkpt>
<trkpt lat="55.524204000" lon="-3.303925000"><ele>762.7</ele><time>2013-05-26T11:35:58Z</time></trkpt>
<trkpt lat="55.524143000" lon="-3.304067000"><ele>764.4</ele><time>2013-05-26T11:36:08Z</time></trkpt>
<trkpt lat="55.524070000" lon="-3.304176000"><ele>766.2</ele><time>2013-05-26T11:36:15Z</time></trkpt>
<trkpt lat="55.524001000" lon="-3.304297000"><ele>768.0</ele><time>2013-05-26T11:36:22Z</time></trkpt>
<trkpt lat="55.523935000" lon="-3.304431000"><ele>769.8</ele><time>2013-05-26T11:36:30Z</time></trkpt>
<trkpt lat="55.523871000" lon="-3.304546000"><ele>770.8</ele><time>2013-05-26T11:36:38Z</time></trkpt>
<trkpt lat="55.523801000" lon="-3.304663000"><ele>771.8</ele><time>2013-05-26T11:36:50Z</time></trkpt>
<trkpt lat="55.523711000" lon="-3.304714000"><ele>772.8</ele><time>2013-05-26T11:36:58Z</time></trkpt>
<trkpt lat="55.523634000" lon="-3.304805000"><ele>773.8</ele><time>2013-05-26T11:37:05Z</time></trkpt>
<trkpt lat="55.523554000" lon="-3.304911000"><ele>774.8</ele><time>2013-05-26T11:37:30Z</time></trkpt>
<trkpt lat="55.523466000" lon="-3.304958000"><ele>776.0</ele><time>2013-05-26T11:37:38Z</time></trkpt>
<trkpt lat="55.523378000" lon="-3.305057000"><ele>777.2</ele><time>2013-05-26T11:37:45Z</time></trkpt>
<trkpt lat="55.523288000" lon="-3.305136000"><ele>777.7</ele><time>2013-05-26T11:37:52Z</time></trkpt>
<trkpt lat="55.523217000" lon="-3.305254000"><ele>778.1</ele><time>2013-05-26T11:38:02Z</time></trkpt>
<trkpt lat="55.523143000" lon="-3.305354000"><ele>778.5</ele><time>2013-05-26T11:38:10Z</time></trkpt>
<trkpt lat="55.523077000" lon="-3.305465000"><ele>778.8</ele><time>2013-05-26T11:38:22Z</time></trkpt>
<trkpt lat="55.523005000" lon="-3.305567000"><ele>779.2</ele><time>2013-05-26T11:38:30Z</time></trkpt>
<trkpt lat="55.522929000" lon="-3.305651000"><ele>779.5</ele><time>2013-05-26T11:38:36Z</time></trkpt>
<trkpt lat="55.522838000" lon="-3.305707000"><ele>779.9</ele><time>2013-05-26T11:38:50Z</time></trkpt>
<trkpt lat="55.522739000" lon="-3.305770000"><ele>780.3</ele><time>2013-05-26T11:38:58Z</time></trkpt>
<trkpt lat="55.522645000" lon="-3.305827000"><ele>780.6</ele><time>2013-05-26T11:39:06Z</time></trkpt>
<trkpt lat="55.522551000" lon="-3.305853000"><ele>780.6</ele><time>2013-05-26T11:39:12Z</time></trkpt>
<trkpt lat="55.522460000" lon="-3.305904000"><ele>780.6</ele><time>2013-05-26T11:39:20Z</time></trkpt>
<trkpt lat="55.522363000" lon="-3.305927000"><ele>780.5</ele><time>2013-05-26T11:39:28Z</time></trkpt>
<trkpt lat="55.522286000" lon="-3.306034000"><ele>780.6</ele><time>2013-05-26T11:39:36Z</time></trkpt>
<trkpt lat="55.522183000" lon="-3.306020000"><ele>780.8</ele><time>2013-05-26T11:40:14Z</time></trkpt>
<trkpt lat="55.522088000" lon="-3.306059000"><ele>781.0</ele><time>2013-05-26T11:40:22Z</time></trkpt>
<trkpt lat="55.522007000" lon="-3.306132000"><ele>781.2</ele><time>2013-05-26T11:40:35Z</time></trkpt>
<trkpt lat="55.521914000" lon="-3.306200000"><ele>781.4</ele><time>2013-05-26T11:40:42Z</time></trkpt>
<trkpt lat="55.521850000" lon="-3.306338000"><ele>781.5</ele><time>2013-05-26T11:40:50Z</time></trkpt>
<trkpt lat="55.521760000" lon="-3.306379000"><ele>781.7</ele><time>2013-05-26T11:40:56Z</time></trkpt>
<trkpt lat="55.521664000" lon="-3.306390000"><ele>781.7</ele><time>2013-05-26T11:41:02Z</time></trkpt>
<trkpt lat="55.521562000" lon="-3.306404000"><ele>781.9</ele><time>2013-05-26T11:41:10Z</time></trkpt>
<trkpt lat="55.521469000" lon="-3.306460000"><ele>782.1</ele><time>2013-05-26T11:41:16Z</time></trkpt>
<trkpt lat="55.521390000" lon="-3.306552000"><ele>782.3</ele><time>2013-05-26T11:41:22Z</time></trkpt>
<trkpt lat="55.521307000" lon="-3.306647000"><ele>781.9</ele><time>2013-05-26T11:41:30Z</time></trkpt>
<trkpt lat="55.521238000" lon="-3.306775000"><ele>781.5</ele><time>2013-05-26T11:41:38Z</time></trkpt>
<trkpt lat="55.521156000" lon="-3.306872000"><ele>781.2</ele><time>2013-05-26T11:41:44Z</time></trkpt>
<trkpt lat="55.521063000" lon="-3.306916000"><ele>780.8</ele><time>2013-05-26T11:41:51Z</time></trkpt>
<trkpt lat="55.520978000" lon="-3.306965000"><ele>780.5</ele><time>2013-05-26T11:41:58Z</time></trkpt>
<trkpt lat="55.520887000" lon="-3.307042000"><ele>780.5</ele><time>2013-05-26T11:42:04Z</time></trkpt>
<trkpt lat="55.520794000" lon="-3.307085000"><ele>780.5</ele><time>2013-05-26T11:42:11Z</time></trkpt>
<trkpt lat="55.520706000" lon="-3.307144000"><ele>780.6</ele><time>2013-05-26T11:42:18Z</time></trkpt>
<trkpt lat="55.520623000" lon="-3.307206000"><ele>780.8</ele><time>2013-05-26T11:42:24Z</time></trkpt>
<trkpt lat="55.520539000" lon="-3.307259000"><ele>781.0</ele><time>2013-05-26T11:42:31Z</time></trkpt>
<trkpt lat="55.520443000" lon="-3.307326000"><ele>781.2</ele><time>2013-05-26T11:42:39Z</time></trkpt>
<trkpt lat="55.520367000" lon="-3.307424000"><ele>781.5</ele><time>2013-05-26T11:42:47Z</time></trkpt>
<trkpt lat="55.520270000" lon="-3.307446000"><ele>781.9</ele><time>2013-05-26T11:42:54Z</time></trkpt>
<trkpt lat="55.520172000" lon="-3.307518000"><ele>782.5</ele><time>2013-05-26T11:43:02Z</time></trkpt>
<trkpt lat="55.520083000" lon="-3.307600000"><ele>782.9</ele><time>2013-05-26T11:43:10Z</time></trkpt>
<trkpt lat="55.519983000" lon="-3.307641000"><ele>783.4</ele><time>2013-05-26T11:43:16Z</time></trkpt>
<trkpt lat="55.519895000" lon="-3.307705000"><ele>783.5</ele><time>2013-05-26T11:43:25Z</time></trkpt>
<trkpt lat="55.519815000" lon="-3.307797000"><ele>783.5</ele><time>2013-05-26T11:43:35Z</time></trkpt>
<trkpt lat="55.519731000" lon="-3.307888000"><ele>783.6</ele><time>2013-05-26T11:43:42Z</time></trkpt>
<trkpt lat="55.519640000" lon="-3.307918000"><ele>783.7</ele><time>2013-05-26T11:43:47Z</time></trkpt>
<trkpt lat="55.519548000" lon="-3.307983000"><ele>783.8</ele><time>2013-05-26T11:43:55Z</time></trkpt>
<trkpt lat="55.519463000" lon="-3.308089000"><ele>783.9</ele><time>2013-05-26T11:44:00Z</time></trkpt>
<trkpt lat="55.519375000" lon="-3.308156000"><ele>783.8</ele><time>2013-05-26T11:44:09Z</time></trkpt>
<trkpt lat="55.519277000" lon="-3.308198000"><ele>783.7</ele><time>2013-05-26T11:44:18Z</time></trkpt>
<trkpt lat="55.519213000" lon="-3.308319000"><ele>783.5</ele><time>2013-05-26T11:44:26Z</time></trkpt>
<trkpt lat="55.519282000" lon="-3.308446000"><ele>783.3</ele><time>2013-05-26T11:44:39Z</time></trkpt>
<trkpt lat="55.519339000" lon="-3.308591000"><ele>783.1</ele><time>2013-05-26T11:44:47Z</time></trkpt>
<trkpt lat="55.519388000" lon="-3.308738000"><ele>782.9</ele><time>2013-05-26T11:44:55Z</time></trkpt>
<trkpt lat="55.519439000" lon="-3.308878000"><ele>782.7</ele><time>2013-05-26T11:45:04Z</time></trkpt>
<trkpt lat="55.519478000" lon="-3.309022000"><ele>782.4</ele><time>2013-05-26T11:45:13Z</time></trkpt>
<trkpt lat="55.519392000" lon="-3.309094000"><ele>782.0</ele><time>2013-05-26T11:46:15Z</time></trkpt>
<trkpt lat="55.519301000" lon="-3.309139000"><ele>781.6</ele><time>2013-05-26T11:46:28Z</time></trkpt>
<trkpt lat="55.519259000" lon="-3.309310000"><ele>781.3</ele><time>2013-05-26T11:46:35Z</time></trkpt>
<trkpt lat="55.519214000" lon="-3.309451000"><ele>781.1</ele><time>2013-05-26T11:46:41Z</time></trkpt>
<trkpt lat="55.519176000" lon="-3.309603000"><ele>780.2</ele><time>2013-05-26T11:46:47Z</time></trkpt>
<trkpt lat="55.519145000" lon="-3.309775000"><ele>779.3</ele><time>2013-05-26T11:47:03Z</time></trkpt>
<trkpt lat="55.519095000" lon="-3.309916000"><ele>778.4</ele><time>2013-05-26T11:47:10Z</time></trkpt>
<trkpt lat="55.519045000" lon="-3.310071000"><ele>776.9</ele><time>2013-05-26T11:47:16Z</time></trkpt>
<trkpt lat="55.519011000" lon="-3.310237000"><ele>775.5</ele><time>2013-05-26T11:47:23Z</time></trkpt>
<trkpt lat="55.518943000" lon="-3.310369000"><ele>774.0</ele><time>2013-05-26T11:47:32Z</time></trkpt>
<trkpt lat="55.518860000" lon="-3.310442000"><ele>772.7</ele><time>2013-05-26T11:47:40Z</time></trkpt>
<trkpt lat="55.518767000" lon="-3.310461000"><ele>771.0</ele><time>2013-05-26T11:47:49Z</time></trkpt>
<trkpt lat="55.518695000" lon="-3.310584000"><ele>769.3</ele><time>2013-05-26T11:47:58Z</time></trkpt>
<trkpt lat="55.518661000" lon="-3.310738000"><ele>767.5</ele><time>2013-05-26T11:48:06Z</time></trkpt>
<trkpt lat="55.518633000" lon="-3.310904000"><ele>765.8</ele><time>2013-05-26T11:48:13Z</time></trkpt>
<trkpt lat="55.518592000" lon="-3.311070000"><ele>764.8</ele><time>2013-05-26T11:48:22Z</time></trkpt>
<trkpt lat="55.518550000" lon="-3.311235000"><ele>763.8</ele><time>2013-05-26T11:48:28Z</time></trkpt>
<trkpt lat="55.518490000" lon="-3.311354000"><ele>762.5</ele><time>2013-05-26T11:48:35Z</time></trkpt>
<trkpt lat="55.518423000" lon="-3.311463000"><ele>761.6</ele><time>2013-05-26T11:48:56Z</time></trkpt>
<trkpt lat="55.518384000" lon="-3.311626000"><ele>760.8</ele><time>2013-05-26T11:49:03Z</time></trkpt>
<trkpt lat="55.518332000" lon="-3.311760000"><ele>760.0</ele><time>2013-05-26T11:49:10Z</time></trkpt>
<trkpt lat="55.518279000" lon="-3.311899000"><ele>759.2</ele><time>2013-05-26T11:49:16Z</time></trkpt>
<trkpt lat="55.518214000" lon="-3.312041000"><ele>758.5</ele><time>2013-05-26T11:49:25Z</time></trkpt>
<trkpt lat="55.518159000" lon="-3.312182000"><ele>757.9</ele><time>2013-05-26T11:49:31Z</time></trkpt>
<trkpt lat="55.518124000" lon="-3.312357000"><ele>757.1</ele><time>2013-05-26T11:49:39Z</time></trkpt>
<trkpt lat="55.518098000" lon="-3.312519000"><ele>756.3</ele><time>2013-05-26T11:49:47Z</time></trkpt>
<trkpt lat="55.518059000" lon="-3.312684000"><ele>755.5</ele><time>2013-05-26T11:49:54Z</time></trkpt>
<trkpt lat="55.517995000" lon="-3.312836000"><ele>754.6</ele><time>2013-05-26T11:50:00Z</time></trkpt>
<trkpt lat="55.517948000" lon="-3.312981000"><ele>754.2</ele><time>2013-05-26T11:50:07Z</time></trkpt>
<trkpt lat="55.517897000" lon="-3.313138000"><ele>753.6</ele><time>2013-05-26T11:50:14Z</time></trkpt>
<trkpt lat="55.517858000" lon="-3.313285000"><ele>753.1</ele><time>2013-05-26T11:50:22Z</time></trkpt>
<trkpt lat="55.517812000" lon="-3.313423000"><ele>752.5</ele><time>2013-05-26T11:50:29Z</time></trkpt>
<trkpt lat="55.517757000" lon="-3.313578000"><ele>752.0</ele><time>2013-05-26T11:50:35Z</time></trkpt>
<trkpt lat="55.517689000" lon="-3.313691000"><ele>751.7</ele><time>2013-05-26T11:50:42Z</time></trkpt>
<trkpt lat="55.517625000" lon="-3.313819000"><ele>751.5</ele><time>2013-05-26T11:50:50Z</time></trkpt>
<trkpt lat="55.517565000" lon="-3.313948000"><ele>751.4</ele><time>2013-05-26T11:50:58Z</time></trkpt>
<trkpt lat="55.517531000" lon="-3.314109000"><ele>751.3</ele><time>2013-05-26T11:51:04Z</time></trkpt>
<trkpt lat="55.517486000" lon="-3.314264000"><ele>751.2</ele><time>2013-05-26T11:51:11Z</time></trkpt>
<trkpt lat="55.517412000" lon="-3.314373000"><ele>751.1</ele><time>2013-05-26T11:51:18Z</time></trkpt>
<trkpt lat="55.517375000" lon="-3.314520000"><ele>751.1</ele><time>2013-05-26T11:51:24Z</time></trkpt>
<trkpt lat="55.517289000" lon="-3.314595000"><ele>751.2</ele><time>2013-05-26T11:51:33Z</time></trkpt>
<trkpt lat="55.517236000" lon="-3.314744000"><ele>751.3</ele><time>2013-05-26T11:51:43Z</time></trkpt>
<trkpt lat="55.517177000" lon="-3.314874000"><ele>751.7</ele><time>2013-05-26T11:51:54Z</time></trkpt>
<trkpt lat="55.517120000" lon="-3.315011000"><ele>752.2</ele><time>2013-05-26T11:52:02Z</time></trkpt>
<trkpt lat="55.517057000" lon="-3.315139000"><ele>752.6</ele><time>2013-05-26T11:52:10Z</time></trkpt>
<trkpt lat="55.516985000" lon="-3.315251000"><ele>753.1</ele><time>2013-05-26T11:52:18Z</time></trkpt>
<trkpt lat="55.516909000" lon="-3.315358000"><ele>753.5</ele><time>2013-05-26T11:52:27Z</time></trkpt>
<trkpt lat="55.516837000" lon="-3.315477000"><ele>754.0</ele><time>2013-05-26T11:52:35Z</time></trkpt>
<trkpt lat="55.516762000" lon="-3.315590000"><ele>754.5</ele><time>2013-05-26T11:52:43Z</time></trkpt>
<trkpt lat="55.516693000" lon="-3.315699000"><ele>755.2</ele><time>2013-05-26T11:52:50Z</time></trkpt>
<trkpt lat="55.516621000" lon="-3.315798000"><ele>755.9</ele><time>2013-05-26T11:52:58Z</time></trkpt>
<trkpt lat="55.516570000" lon="-3.315930000"><ele>756.6</ele><time>2013-05-26T11:55:58Z</time></trkpt>
<trkpt lat="55.516507000" lon="-3.316073000"><ele>757.4</ele><time>2013-05-26T11:56:06Z</time></trkpt>
<trkpt lat="55.516433000" lon="-3.316196000"><ele>757.7</ele><time>2013-05-26T11:56:12Z</time></trkpt>
<trkpt lat="55.516364000" lon="-3.316328000"><ele>758.1</ele><time>2013-05-26T11:56:20Z</time></trkpt>
<trkpt lat="55.516283000" lon="-3.316425000"><ele>758.5</ele><time>2013-05-26T11:56:26Z</time></trkpt>
<trkpt lat="55.516217000" lon="-3.316549000"><ele>759.1</ele><time>2013-05-26T11:56:34Z</time></trkpt>
<trkpt lat="55.516171000" lon="-3.316690000"><ele>759.7</ele><time>2013-05-26T11:56:44Z</time></trkpt>
<trkpt lat="55.516091000" lon="-3.316793000"><ele>760.4</ele><time>2013-05-26T11:56:50Z</time></trkpt>
<trkpt lat="55.516016000" lon="-3.316896000"><ele>761.0</ele><time>2013-05-26T11:56:58Z</time></trkpt>
<trkpt lat="55.515953000" lon="-3.317013000"><ele>761.4</ele><time>2013-05-26T11:57:06Z</time></trkpt>
<trkpt lat="55.515939000" lon="-3.317193000"><ele>761.6</ele><time>2013-05-26T11:57:14Z</time></trkpt>
<trkpt lat="55.515846000" lon="-3.317275000"><ele>761.9</ele><time>2013-05-26T11:57:20Z</time></trkpt>
<trkpt lat="55.515753000" lon="-3.317326000"><ele>762.2</ele><time>2013-05-26T11:57:26Z</time></trkpt>
<trkpt lat="55.515660000" lon="-3.317388000"><ele>762.5</ele><time>2013-05-26T11:57:31Z</time></trkpt>
<trkpt lat="55.515579000" lon="-3.317492000"><ele>763.2</ele><time>2013-05-26T11:57:38Z</time></trkpt>
<trkpt lat="55.515494000" lon="-3.317548000"><ele>763.9</ele><time>2013-05-26T11:57:43Z</time></trkpt>
<trkpt lat="55.515410000" lon="-3.317626000"><ele>764.4</ele><time>2013-05-26T11:57:50Z</time></trkpt>
<trkpt lat="55.515327000" lon="-3.317709000"><ele>764.8</ele><time>2013-05-26T11:57:58Z</time></trkpt>
<trkpt lat="55.515235000" lon="-3.317791000"><ele>765.3</ele><time>2013-05-26T11:58:06Z</time></trkpt>
<trkpt lat="55.515150000" lon="-3.317858000"><ele>765.7</ele><time>2013-05-26T11:58:10Z</time></trkpt>
<trkpt lat="55.515060000" lon="-3.317890000"><ele>766.3</ele><time>2013-05-26T11:58:18Z</time></trkpt>
<trkpt lat="55.514958000" lon="-3.317930000"><ele>766.8</ele><time>2013-05-26T11:58:26Z</time></trkpt>
<trkpt lat="55.514855000" lon="-3.317942000"><ele>767.4</ele><time>2013-05-26T11:58:34Z</time></trkpt>
<trkpt lat="55.514767000" lon="-3.317988000"><ele>767.9</ele><time>2013-05-26T11:58:39Z</time></trkpt>
<trkpt lat="55.514671000" lon="-3.318018000"><ele>768.5</ele><time>2013-05-26T11:58:48Z</time></trkpt>
<trkpt lat="55.514575000" lon="-3.318018000"><ele>768.5</ele><time>2013-05-26T11:58:56Z</time></trkpt>
<trkpt lat="55.514482000" lon="-3.318018000"><ele>768.6</ele><time>2013-05-26T11:59:02Z</time></trkpt>
<trkpt lat="55.514388000" lon="-3.318058000"><ele>768.7</ele><time>2013-05-26T11:59:09Z</time></trkpt>
<trkpt lat="55.514296000" lon="-3.318077000"><ele>768.8</ele><time>2013-05-26T11:59:17Z</time></trkpt>
<trkpt lat="55.514195000" lon="-3.318108000"><ele>769.4</ele><time>2013-05-26T11:59:28Z</time></trkpt>
<trkpt lat="55.514102000" lon="-3.318115000"><ele>769.9</ele><time>2013-05-26T11:59:35Z</time></trkpt>
<trkpt lat="55.514008000" lon="-3.318162000"><ele>770.4</ele><time>2013-05-26T11:59:42Z</time></trkpt>
<trkpt lat="55.513911000" lon="-3.318152000"><ele>770.8</ele><time>2013-05-26T11:59:50Z</time></trkpt>
<trkpt lat="55.513819000" lon="-3.318133000"><ele>771.3</ele><time>2013-05-26T11:59:55Z</time></trkpt>
<trkpt lat="55.513730000" lon="-3.318102000"><ele>771.7</ele><time>2013-05-26T12:00:02Z</time></trkpt>
<trkpt lat="55.513638000" lon="-3.318101000"><ele>772.2</ele><time>2013-05-26T12:00:10Z</time></trkpt>
<trkpt lat="55.513546000" lon="-3.318076000"><ele>772.6</ele><time>2013-05-26T12:00:16Z</time></trkpt>
<trkpt lat="55.513449000" lon="-3.318057000"><ele>773.1</ele><time>2013-05-26T12:00:24Z</time></trkpt>
<trkpt lat="55.513347000" lon="-3.318041000"><ele>774.6</ele><time>2013-05-26T12:00:34Z</time></trkpt>
<trkpt lat="55.513253000" lon="-3.318030000"><ele>776.2</ele><time>2013-05-26T12:00:42Z</time></trkpt>
<trkpt lat="55.513161000" lon="-3.317989000"><ele>777.3</ele><time>2013-05-26T12:00:52Z</time></trkpt>
<trkpt lat="55.513061000" lon="-3.317977000"><ele>778.2</ele><time>2013-05-26T12:01:07Z</time></trkpt>
<trkpt lat="55.512965000" lon="-3.317951000"><ele>779.1</ele><time>2013-05-26T12:01:16Z</time></trkpt>
<trkpt lat="55.512866000" lon="-3.317948000"><ele>780.0</ele><time>2013-05-26T12:01:26Z</time></trkpt>
<trkpt lat="55.512784000" lon="-3.317882000"><ele>780.9</ele><time>2013-05-26T12:01:38Z</time></trkpt>
<trkpt lat="55.512691000" lon="-3.317875000"><ele>781.8</ele><time>2013-05-26T12:01:50Z</time></trkpt>
<trkpt lat="55.512598000" lon="-3.317847000"><ele>782.7</ele><time>2013-05-26T12:02:02Z</time></trkpt>
<trkpt lat="55.512504000" lon="-3.317840000"><ele>785.5</ele><time>2013-05-26T12:02:12Z</time></trkpt>
<trkpt lat="55.512411000" lon="-3.317838000"><ele>788.2</ele><time>2013-05-26T12:02:23Z</time></trkpt>
<trkpt lat="55.512321000" lon="-3.317829000"><ele>789.8</ele><time>2013-05-26T12:02:32Z</time></trkpt>
<trkpt lat="55.512231000" lon="-3.317800000"><ele>791.5</ele><time>2013-05-26T12:02:46Z</time></trkpt>
<trkpt lat="55.512137000" lon="-3.317810000"><ele>793.1</ele><time>2013-05-26T12:02:57Z</time></trkpt>
<trkpt lat="55.512048000" lon="-3.317836000"><ele>794.9</ele><time>2013-05-26T12:03:08Z</time></trkpt>
<trkpt lat="55.511958000" lon="-3.317846000"><ele>796.7</ele><time>2013-05-26T12:03:22Z</time></trkpt>
<trkpt lat="55.511876000" lon="-3.317781000"><ele>798.5</ele><time>2013-05-26T12:04:14Z</time></trkpt>
<trkpt lat="55.511783000" lon="-3.317776000"><ele>800.4</ele><time>2013-05-26T12:04:26Z</time></trkpt>
<trkpt lat="55.511688000" lon="-3.317757000"><ele>803.4</ele><time>2013-05-26T12:04:36Z</time></trkpt>
<trkpt lat="55.511596000" lon="-3.317727000"><ele>806.4</ele><time>2013-05-26T12:04:51Z</time></trkpt>
<trkpt lat="55.511501000" lon="-3.317709000"><ele>807.5</ele><time>2013-05-26T12:04:59Z</time></trkpt>
<trkpt lat="55.511425000" lon="-3.317616000"><ele>808.7</ele><time>2013-05-26T12:05:26Z</time></trkpt>
<trkpt lat="55.511331000" lon="-3.317618000"><ele>809.9</ele><time>2013-05-26T12:05:36Z</time></trkpt>
<trkpt lat="55.511232000" lon="-3.317626000"><ele>811.1</ele><time>2013-05-26T12:05:42Z</time></trkpt>
<trkpt lat="55.511139000" lon="-3.317615000"><ele>812.3</ele><time>2013-05-26T12:05:52Z</time></trkpt>
<trkpt lat="55.511041000" lon="-3.317575000"><ele>813.5</ele><time>2013-05-26T12:06:00Z</time></trkpt>
<trkpt lat="55.510955000" lon="-3.317518000"><ele>814.6</ele><time>2013-05-26T12:06:07Z</time></trkpt>
<trkpt lat="55.510879000" lon="-3.317423000"><ele>816.5</ele><time>2013-05-26T12:06:19Z</time></trkpt>
<trkpt lat="55.510803000" lon="-3.317332000"><ele>818.5</ele><time>2013-05-26T12:06:28Z</time></trkpt>
<trkpt lat="55.510706000" lon="-3.317244000"><ele>819.2</ele><time>2013-05-26T12:06:37Z</time></trkpt>
<trkpt lat="55.510609000" lon="-3.317268000"><ele>819.9</ele><time>2013-05-26T12:06:42Z</time></trkpt>
<trkpt lat="55.510509000" lon="-3.317274000"><ele>820.6</ele><time>2013-05-26T12:06:54Z</time></trkpt>
<trkpt lat="55.510414000" lon="-3.317312000"><ele>821.4</ele><time>2013-05-26T12:07:03Z</time></trkpt>
<trkpt lat="55.510320000" lon="-3.317357000"><ele>822.1</ele><time>2013-05-26T12:07:10Z</time></trkpt>
<trkpt lat="55.510227000" lon="-3.317387000"><ele>822.8</ele><time>2013-05-26T12:07:18Z</time></trkpt>
<trkpt lat="55.510130000" lon="-3.317427000"><ele>823.5</ele><time>2013-05-26T12:07:26Z</time></trkpt>
<trkpt lat="55.510037000" lon="-3.317460000"><ele>824.3</ele><time>2013-05-26T12:07:42Z</time></trkpt>
<trkpt lat="55.509953000" lon="-3.317527000"><ele>825.0</ele><time>2013-05-26T12:07:51Z</time></trkpt>
<trkpt lat="55.509866000" lon="-3.317577000"><ele>825.2</ele><time>2013-05-26T12:07:58Z</time></trkpt>
<trkpt lat="55.509774000" lon="-3.317638000"><ele>825.4</ele><time>2013-05-26T12:08:06Z</time></trkpt>
<trkpt lat="55.509687000" lon="-3.317703000"><ele>825.5</ele><time>2013-05-26T12:08:12Z</time></trkpt>
<trkpt lat="55.509594000" lon="-3.317765000"><ele>825.7</ele><time>2013-05-26T12:08:19Z</time></trkpt>
<trkpt lat="55.509507000" lon="-3.317831000"><ele>825.9</ele><time>2013-05-26T12:08:27Z</time></trkpt>
<trkpt lat="55.509438000" lon="-3.317945000"><ele>826.0</ele><time>2013-05-26T12:08:35Z</time></trkpt>
<trkpt lat="55.509380000" lon="-3.318075000"><ele>826.1</ele><time>2013-05-26T12:08:43Z</time></trkpt>
<trkpt lat="55.509320000" lon="-3.318210000"><ele>826.2</ele><time>2013-05-26T12:08:54Z</time></trkpt>
<trkpt lat="55.509272000" lon="-3.318359000"><ele>826.3</ele><time>2013-05-26T12:23:07Z</time></trkpt>
<trkpt lat="55.509214000" lon="-3.318557000"><ele>826.4</ele><time>2013-05-26T12:23:16Z</time></trkpt>
<trkpt lat="55.509183000" lon="-3.318730000"><ele>826.4</ele><time>2013-05-26T12:23:24Z</time></trkpt>
<trkpt lat="55.509158000" lon="-3.318892000"><ele>826.2</ele><time>2013-05-26T12:23:29Z</time></trkpt>
<trkpt lat="55.509127000" lon="-3.319072000"><ele>826.0</ele><time>2013-05-26T12:23:37Z</time></trkpt>
<trkpt lat="55.509091000" lon="-3.319238000"><ele>825.8</ele><time>2013-05-26T12:23:42Z</time></trkpt>
<trkpt lat="55.509055000" lon="-3.319401000"><ele>825.6</ele><time>2013-05-26T12:23:49Z</time></trkpt>
<trkpt lat="55.509009000" lon="-3.319544000"><ele>824.8</ele><time>2013-05-26T12:23:54Z</time></trkpt>
<trkpt lat="55.508966000" lon="-3.319690000"><ele>824.1</ele><time>2013-05-26T12:24:00Z</time></trkpt>
<trkpt lat="55.508957000" lon="-3.319871000"><ele>823.4</ele><time>2013-05-26T12:24:06Z</time></trkpt>
<trkpt lat="55.508969000" lon="-3.320032000"><ele>822.6</ele><time>2013-05-26T12:24:11Z</time></trkpt>
<trkpt lat="55.508925000" lon="-3.320201000"><ele>821.9</ele><time>2013-05-26T12:24:25Z</time></trkpt>
<trkpt lat="55.508889000" lon="-3.320372000"><ele>820.5</ele><time>2013-05-26T12:24:28Z</time></trkpt>
<trkpt lat="55.508887000" lon="-3.320536000"><ele>819.3</ele><time>2013-05-26T12:24:39Z</time></trkpt>
<trkpt lat="55.508894000" lon="-3.320722000"><ele>818.0</ele><time>2013-05-26T12:24:46Z</time></trkpt>
<trkpt lat="55.508893000" lon="-3.320892000"><ele>816.7</ele><time>2013-05-26T12:24:50Z</time></trkpt>
<trkpt lat="55.508877000" lon="-3.321061000"><ele>815.5</ele><time>2013-05-26T12:25:02Z</time></trkpt>
<trkpt lat="55.508861000" lon="-3.321240000"><ele>813.4</ele><time>2013-05-26T12:25:07Z</time></trkpt>
<trkpt lat="55.508843000" lon="-3.321396000"><ele>811.9</ele><time>2013-05-26T12:25:16Z</time></trkpt>
<trkpt lat="55.508819000" lon="-3.321550000"><ele>810.5</ele><time>2013-05-26T12:25:22Z</time></trkpt>
<trkpt lat="55.508801000" lon="-3.321774000"><ele>809.0</ele><time>2013-05-26T12:25:33Z</time></trkpt>
<trkpt lat="55.508784000" lon="-3.321958000"><ele>806.8</ele><time>2013-05-26T12:25:38Z</time></trkpt>
<trkpt lat="55.508819000" lon="-3.322117000"><ele>804.6</ele><time>2013-05-26T12:25:46Z</time></trkpt>
<trkpt lat="55.508796000" lon="-3.322294000"><ele>803.1</ele><time>2013-05-26T12:25:52Z</time></trkpt>
<trkpt lat="55.508856000" lon="-3.322496000"><ele>801.5</ele><time>2013-05-26T12:26:06Z</time></trkpt>
<trkpt lat="55.508875000" lon="-3.322675000"><ele>800.0</ele><time>2013-05-26T12:26:11Z</time></trkpt>
<trkpt lat="55.508867000" lon="-3.322835000"><ele>797.8</ele><time>2013-05-26T12:26:19Z</time></trkpt>
<trkpt lat="55.508837000" lon="-3.322994000"><ele>795.6</ele><time>2013-05-26T12:26:26Z</time></trkpt>
<trkpt lat="55.508843000" lon="-3.323175000"><ele>794.3</ele><time>2013-05-26T12:26:32Z</time></trkpt>
<trkpt lat="55.508838000" lon="-3.323354000"><ele>792.9</ele><time>2013-05-26T12:26:39Z</time></trkpt>
<trkpt lat="55.508832000" lon="-3.323551000"><ele>791.5</ele><time>2013-05-26T12:26:50Z</time></trkpt>
<trkpt lat="55.508832000" lon="-3.323759000"><ele>789.5</ele><time>2013-05-26T12:27:02Z</time></trkpt>
<trkpt lat="55.508852000" lon="-3.323931000"><ele>788.3</ele><time>2013-05-26T12:27:09Z</time></trkpt>
<trkpt lat="55.508846000" lon="-3.324100000"><ele>787.0</ele><time>2013-05-26T12:27:28Z</time></trkpt>
<trkpt lat="55.508865000" lon="-3.324280000"><ele>785.7</ele><time>2013-05-26T12:27:36Z</time></trkpt>
<trkpt lat="55.508874000" lon="-3.324445000"><ele>784.5</ele><time>2013-05-26T12:27:42Z</time></trkpt>
<trkpt lat="55.508933000" lon="-3.324601000"><ele>783.2</ele><time>2013-05-26T12:27:49Z</time></trkpt>
<trkpt lat="55.508997000" lon="-3.324719000"><ele>782.0</ele><time>2013-05-26T12:27:54Z</time></trkpt>
<trkpt lat="55.509028000" lon="-3.324872000"><ele>780.8</ele><time>2013-05-26T12:28:02Z</time></trkpt>
<trkpt lat="55.509046000" lon="-3.325037000"><ele>779.6</ele><time>2013-05-26T12:28:09Z</time></trkpt>
<trkpt lat="55.509083000" lon="-3.325182000"><ele>778.5</ele><time>2013-05-26T12:28:15Z</time></trkpt>
<trkpt lat="55.509114000" lon="-3.325346000"><ele>777.3</ele><time>2013-05-26T12:28:25Z</time></trkpt>
<trkpt lat="55.509128000" lon="-3.325541000"><ele>776.2</ele><time>2013-05-26T12:28:29Z</time></trkpt>
<trkpt lat="55.509182000" lon="-3.325696000"><ele>775.1</ele><time>2013-05-26T12:28:34Z</time></trkpt>
<trkpt lat="55.509232000" lon="-3.325843000"><ele>774.0</ele><time>2013-05-26T12:28:40Z</time></trkpt>
<trkpt lat="55.509309000" lon="-3.325959000"><ele>772.9</ele><time>2013-05-26T12:28:47Z</time></trkpt>
<trkpt lat="55.509362000" lon="-3.326109000"><ele>771.8</ele><time>2013-05-26T12:28:55Z</time></trkpt>
<trkpt lat="55.509431000" lon="-3.326218000"><ele>770.5</ele><time>2013-05-26T12:29:03Z</time></trkpt>
<trkpt lat="55.509522000" lon="-3.326239000"><ele>769.8</ele><time>2013-05-26T12:29:14Z</time></trkpt>
<trkpt lat="55.509561000" lon="-3.326385000"><ele>768.6</ele><time>2013-05-26T12:29:20Z</time></trkpt>
<trkpt lat="55.509581000" lon="-3.326552000"><ele>767.5</ele><time>2013-05-26T12:29:25Z</time></trkpt>
<trkpt lat="55.509613000" lon="-3.326712000"><ele>766.3</ele><time>2013-05-26T12:29:30Z</time></trkpt>
<trkpt lat="55.509672000" lon="-3.326833000"><ele>765.1</ele><time>2013-05-26T12:29:36Z</time></trkpt>
<trkpt lat="55.509747000" lon="-3.326941000"><ele>764.5</ele><time>2013-05-26T12:29:44Z</time></trkpt>
<trkpt lat="55.509807000" lon="-3.327078000"><ele>763.8</ele><time>2013-05-26T12:29:52Z</time></trkpt>
<trkpt lat="55.509868000" lon="-3.327226000"><ele>763.2</ele><time>2013-05-26T12:30:00Z</time></trkpt>
<trkpt lat="55.509908000" lon="-3.327396000"><ele>762.2</ele><time>2013-05-26T12:30:06Z</time></trkpt>
<trkpt lat="55.509953000" lon="-3.327567000"><ele>761.2</ele><time>2013-05-26T12:30:11Z</time></trkpt>
<trkpt lat="55.509980000" lon="-3.327719000"><ele>760.4</ele><time>2013-05-26T12:30:16Z</time></trkpt>
<trkpt lat="55.510068000" lon="-3.327806000"><ele>758.7</ele><time>2013-05-26T12:30:23Z</time></trkpt>
<trkpt lat="55.510167000" lon="-3.327838000"><ele>757.5</ele><time>2013-05-26T12:30:32Z</time></trkpt>
<trkpt lat="55.510247000" lon="-3.327927000"><ele>756.4</ele><time>2013-05-26T12:30:39Z</time></trkpt>
<trkpt lat="55.510345000" lon="-3.327981000"><ele>755.2</ele><time>2013-05-26T12:30:46Z</time></trkpt>
<trkpt lat="55.510431000" lon="-3.328062000"><ele>754.0</ele><time>2013-05-26T12:31:02Z</time></trkpt>
<trkpt lat="55.510506000" lon="-3.328171000"><ele>752.8</ele><time>2013-05-26T12:31:08Z</time></trkpt>
<trkpt lat="55.510608000" lon="-3.328206000"><ele>751.6</ele><time>2013-05-26T12:31:16Z</time></trkpt>
<trkpt lat="55.510703000" lon="-3.328296000"><ele>750.5</ele><time>2013-05-26T12:31:23Z</time></trkpt>
<trkpt lat="55.510800000" lon="-3.328289000"><ele>749.6</ele><time>2013-05-26T12:31:30Z</time></trkpt>
<trkpt lat="55.510896000" lon="-3.328267000"><ele>747.2</ele><time>2013-05-26T12:31:38Z</time></trkpt>
<trkpt lat="55.510990000" lon="-3.328320000"><ele>744.4</ele><time>2013-05-26T12:31:46Z</time></trkpt>
<trkpt lat="55.511049000" lon="-3.328451000"><ele>742.4</ele><time>2013-05-26T12:31:52Z</time></trkpt>
<trkpt lat="55.511118000" lon="-3.328561000"><ele>740.4</ele><time>2013-05-26T12:31:57Z</time></trkpt>
<trkpt lat="55.511213000" lon="-3.328572000"><ele>738.4</ele><time>2013-05-26T12:32:03Z</time></trkpt>
<trkpt lat="55.511308000" lon="-3.328600000"><ele>736.4</ele><time>2013-05-26T12:32:12Z</time></trkpt>
<trkpt lat="55.511367000" lon="-3.328740000"><ele>734.4</ele><time>2013-05-26T12:32:18Z</time></trkpt>
<trkpt lat="55.511436000" lon="-3.328846000"><ele>732.4</ele><time>2013-05-26T12:32:26Z</time></trkpt>
<trkpt lat="55.511523000" lon="-3.328947000"><ele>730.4</ele><time>2013-05-26T12:32:34Z</time></trkpt>
<trkpt lat="55.511605000" lon="-3.329054000"><ele>728.4</ele><time>2013-05-26T12:32:38Z</time></trkpt>
<trkpt lat="55.511696000" lon="-3.329056000"><ele>726.4</ele><time>2013-05-26T12:32:44Z</time></trkpt>
<trkpt lat="55.511794000" lon="-3.329089000"><ele>724.0</ele><time>2013-05-26T12:32:50Z</time></trkpt>
<trkpt lat="55.511852000" lon="-3.329246000"><ele>722.0</ele><time>2013-05-26T12:32:58Z</time></trkpt>
<trkpt lat="55.511914000" lon="-3.329376000"><ele>720.0</ele><time>2013-05-26T12:33:03Z</time></trkpt>
<trkpt lat="55.511998000" lon="-3.329454000"><ele>718.0</ele><time>2013-05-26T12:33:12Z</time></trkpt>
<trkpt lat="55.512092000" lon="-3.329475000"><ele>716.0</ele><time>2013-05-26T12:33:21Z</time></trkpt>
<trkpt lat="55.512195000" lon="-3.329503000"><ele>714.0</ele><time>2013-05-26T12:33:26Z</time></trkpt>
<trkpt lat="55.512286000" lon="-3.329599000"><ele>712.0</ele><time>2013-05-26T12:33:34Z</time></trkpt>
<trkpt lat="55.512379000" lon="-3.329657000"><ele>710.0</ele><time>2013-05-26T12:33:41Z</time></trkpt>
<trkpt lat="55.512477000" lon="-3.329690000"><ele>708.0</ele><time>2013-05-26T12:33:51Z</time></trkpt>
<trkpt lat="55.512567000" lon="-3.329711000"><ele>705.0</ele><time>2013-05-26T12:33:58Z</time></trkpt>
<trkpt lat="55.512650000" lon="-3.329796000"><ele>702.0</ele><time>2013-05-26T12:34:05Z</time></trkpt>
<trkpt lat="55.512744000" lon="-3.329856000"><ele>701.0</ele><time>2013-05-26T12:34:11Z</time></trkpt>
<trkpt lat="55.512828000" lon="-3.329921000"><ele>700.0</ele><time>2013-05-26T12:34:16Z</time></trkpt>
<trkpt lat="55.512925000" lon="-3.329896000"><ele>699.0</ele><time>2013-05-26T12:34:23Z</time></trkpt>
<trkpt lat="55.513023000" lon="-3.329957000"><ele>698.0</ele><time>2013-05-26T12:34:30Z</time></trkpt>
<trkpt lat="55.513124000" lon="-3.329984000"><ele>696.5</ele><time>2013-05-26T12:34:37Z</time></trkpt>
<trkpt lat="55.513222000" lon="-3.329979000"><ele>695.1</ele><time>2013-05-26T12:34:45Z</time></trkpt>
<trkpt lat="55.513308000" lon="-3.330051000"><ele>693.6</ele><time>2013-05-26T12:34:52Z</time></trkpt>
<trkpt lat="55.513393000" lon="-3.330143000"><ele>691.3</ele><time>2013-05-26T12:34:58Z</time></trkpt>
<trkpt lat="55.513473000" lon="-3.330238000"><ele>688.9</ele><time>2013-05-26T12:35:06Z</time></trkpt>
<trkpt lat="55.513546000" lon="-3.330349000"><ele>687.5</ele><time>2013-05-26T12:35:13Z</time></trkpt>
<trkpt lat="55.513624000" lon="-3.330442000"><ele>686.2</ele><time>2013-05-26T12:35:19Z</time></trkpt>
<trkpt lat="55.513701000" lon="-3.330560000"><ele>684.5</ele><time>2013-05-26T12:35:27Z</time></trkpt>
<trkpt lat="55.513755000" lon="-3.330703000"><ele>682.9</ele><time>2013-05-26T12:35:33Z</time></trkpt>
<trkpt lat="55.513827000" lon="-3.330801000"><ele>681.3</ele><time>2013-05-26T12:35:39Z</time></trkpt>
<trkpt lat="55.513907000" lon="-3.330911000"><ele>679.6</ele><time>2013-05-26T12:35:46Z</time></trkpt>
<trkpt lat="55.513997000" lon="-3.331043000"><ele>678.5</ele><time>2013-05-26T12:36:04Z</time></trkpt>
<trkpt lat="55.514070000" lon="-3.331150000"><ele>677.3</ele><time>2013-05-26T12:36:11Z</time></trkpt>
<trkpt lat="55.514147000" lon="-3.331250000"><ele>676.1</ele><time>2013-05-26T12:36:18Z</time></trkpt>
<trkpt lat="55.514250000" lon="-3.331277000"><ele>675.8</ele><time>2013-05-26T12:36:24Z</time></trkpt>
<trkpt lat="55.514324000" lon="-3.331371000"><ele>674.1</ele><time>2013-05-26T12:36:34Z</time></trkpt>
<trkpt lat="55.514380000" lon="-3.331507000"><ele>672.4</ele><time>2013-05-26T12:36:40Z</time></trkpt>
<trkpt lat="55.514458000" lon="-3.331621000"><ele>670.6</ele><time>2013-05-26T12:36:47Z</time></trkpt>
<trkpt lat="55.514519000" lon="-3.331745000"><ele>669.2</ele><time>2013-05-26T12:36:54Z</time></trkpt>
<trkpt lat="55.514598000" lon="-3.331885000"><ele>667.7</ele><time>2013-05-26T12:37:01Z</time></trkpt>
<trkpt lat="55.514665000" lon="-3.332008000"><ele>666.3</ele><time>2013-05-26T12:37:09Z</time></trkpt>
<trkpt lat="55.514767000" lon="-3.332056000"><ele>664.8</ele><time>2013-05-26T12:37:15Z</time></trkpt>
<trkpt lat="55.514859000" lon="-3.332107000"><ele>663.4</ele><time>2013-05-26T12:37:22Z</time></trkpt>
<trkpt lat="55.514942000" lon="-3.332192000"><ele>661.9</ele><time>2013-05-26T12:37:40Z</time></trkpt>
<trkpt lat="55.515031000" lon="-3.332289000"><ele>660.5</ele><time>2013-05-26T12:37:47Z</time></trkpt>
<trkpt lat="55.515111000" lon="-3.332376000"><ele>658.0</ele><time>2013-05-26T12:37:52Z</time></trkpt>
<trkpt lat="55.515189000" lon="-3.332462000"><ele>657.0</ele><time>2013-05-26T12:37:59Z</time></trkpt>
<trkpt lat="55.515279000" lon="-3.332530000"><ele>656.0</ele><time>2013-05-26T12:38:03Z</time></trkpt>
<trkpt lat="55.515349000" lon="-3.332640000"><ele>655.0</ele><time>2013-05-26T12:38:10Z</time></trkpt>
<trkpt lat="55.515431000" lon="-3.332723000"><ele>654.0</ele><time>2013-05-26T12:38:19Z</time></trkpt>
<trkpt lat="55.515527000" lon="-3.332791000"><ele>653.0</ele><time>2013-05-26T12:38:26Z</time></trkpt>
<trkpt lat="55.515613000" lon="-3.332895000"><ele>652.0</ele><time>2013-05-26T12:38:32Z</time></trkpt>
<trkpt lat="55.515696000" lon="-3.333013000"><ele>651.0</ele><time>2013-05-26T12:38:39Z</time></trkpt>
<trkpt lat="55.515750000" lon="-3.333146000"><ele>650.0</ele><time>2013-05-26T12:38:46Z</time></trkpt>
<trkpt lat="55.515831000" lon="-3.333232000"><ele>649.0</ele><time>2013-05-26T12:38:52Z</time></trkpt>
<trkpt lat="55.515918000" lon="-3.333330000"><ele>647.1</ele><time>2013-05-26T12:38:58Z</time></trkpt>
<trkpt lat="55.515981000" lon="-3.333477000"><ele>646.2</ele><time>2013-05-26T12:39:04Z</time></trkpt>
<trkpt lat="55.516060000" lon="-3.333584000"><ele>645.3</ele><time>2013-05-26T12:39:09Z</time></trkpt>
<trkpt lat="55.516151000" lon="-3.333637000"><ele>644.4</ele><time>2013-05-26T12:39:15Z</time></trkpt>
<trkpt lat="55.516244000" lon="-3.333666000"><ele>643.5</ele><time>2013-05-26T12:39:22Z</time></trkpt>
<trkpt lat="55.516327000" lon="-3.333756000"><ele>642.5</ele><time>2013-05-26T12:39:32Z</time></trkpt>
<trkpt lat="55.516397000" lon="-3.333877000"><ele>641.6</ele><time>2013-05-26T12:39:38Z</time></trkpt>
<trkpt lat="55.516460000" lon="-3.334012000"><ele>640.7</ele><time>2013-05-26T12:39:43Z</time></trkpt>
<trkpt lat="55.516547000" lon="-3.334083000"><ele>639.8</ele><time>2013-05-26T12:39:52Z</time></trkpt>
<trkpt lat="55.516640000" lon="-3.334093000"><ele>638.6</ele><time>2013-05-26T12:39:59Z</time></trkpt>
<trkpt lat="55.516690000" lon="-3.334254000"><ele>637.5</ele><time>2013-05-26T12:40:11Z</time></trkpt>
<trkpt lat="55.516767000" lon="-3.334346000"><ele>636.5</ele><time>2013-05-26T12:40:15Z</time></trkpt>
<trkpt lat="55.516855000" lon="-3.334406000"><ele>635.6</ele><time>2013-05-26T12:40:23Z</time></trkpt>
<trkpt lat="55.516922000" lon="-3.334521000"><ele>634.7</ele><time>2013-05-26T12:40:28Z</time></trkpt>
<trkpt lat="55.516995000" lon="-3.334661000"><ele>633.8</ele><time>2013-05-26T12:40:36Z</time></trkpt>
<trkpt lat="55.517038000" lon="-3.334816000"><ele>632.9</ele><time>2013-05-26T12:40:41Z</time></trkpt>
<trkpt lat="55.517111000" lon="-3.334935000"><ele>631.5</ele><time>2013-05-26T12:40:48Z</time></trkpt>
<trkpt lat="55.517192000" lon="-3.335053000"><ele>630.2</ele><time>2013-05-26T12:40:52Z</time></trkpt>
<trkpt lat="55.517287000" lon="-3.335111000"><ele>628.8</ele><time>2013-05-26T12:41:00Z</time></trkpt>
<trkpt lat="55.517360000" lon="-3.335222000"><ele>627.5</ele><time>2013-05-26T12:41:10Z</time></trkpt>
<trkpt lat="55.517421000" lon="-3.335367000"><ele>626.4</ele><time>2013-05-26T12:41:15Z</time></trkpt>
<trkpt lat="55.517477000" lon="-3.335495000"><ele>624.9</ele><time>2013-05-26T12:41:24Z</time></trkpt>
<trkpt lat="55.517514000" lon="-3.335664000"><ele>624.1</ele><time>2013-05-26T12:41:32Z</time></trkpt>
<trkpt lat="55.517528000" lon="-3.335822000"><ele>623.3</ele><time>2013-05-26T12:41:36Z</time></trkpt>
<trkpt lat="55.517575000" lon="-3.335977000"><ele>622.5</ele><time>2013-05-26T12:41:48Z</time></trkpt>
<trkpt lat="55.517649000" lon="-3.336069000"><ele>621.6</ele><time>2013-05-26T12:42:04Z</time></trkpt>
<trkpt lat="55.517659000" lon="-3.336239000"><ele>620.2</ele><time>2013-05-26T12:42:10Z</time></trkpt>
<trkpt lat="55.517689000" lon="-3.336415000"><ele>619.2</ele><time>2013-05-26T12:42:17Z</time></trkpt>
<trkpt lat="55.517713000" lon="-3.336601000"><ele>618.2</ele><time>2013-05-26T12:42:23Z</time></trkpt>
<trkpt lat="55.517759000" lon="-3.336752000"><ele>617.2</ele><time>2013-05-26T12:42:28Z</time></trkpt>
<trkpt lat="55.517789000" lon="-3.336910000"><ele>616.2</ele><time>2013-05-26T12:42:34Z</time></trkpt>
<trkpt lat="55.517797000" lon="-3.337087000"><ele>614.1</ele><time>2013-05-26T12:42:43Z</time></trkpt>
<trkpt lat="55.517808000" lon="-3.337268000"><ele>612.4</ele><time>2013-05-26T12:42:48Z</time></trkpt>
<trkpt lat="55.517863000" lon="-3.337409000"><ele>610.6</ele><time>2013-05-26T12:42:55Z</time></trkpt>
<trkpt lat="55.517892000" lon="-3.337563000"><ele>608.9</ele><time>2013-05-26T12:43:02Z</time></trkpt>
<trkpt lat="55.517922000" lon="-3.337722000"><ele>607.2</ele><time>2013-05-26T12:43:11Z</time></trkpt>
<trkpt lat="55.517946000" lon="-3.337885000"><ele>605.1</ele><time>2013-05-26T12:43:17Z</time></trkpt>
<trkpt lat="55.518003000" lon="-3.338016000"><ele>603.6</ele><time>2013-05-26T12:43:32Z</time></trkpt>
<trkpt lat="55.518034000" lon="-3.338171000"><ele>602.2</ele><time>2013-05-26T12:43:38Z</time></trkpt>
<trkpt lat="55.518067000" lon="-3.338343000"><ele>600.7</ele><time>2013-05-26T12:43:43Z</time></trkpt>
<trkpt lat="55.518081000" lon="-3.338515000"><ele>599.3</ele><time>2013-05-26T12:43:47Z</time></trkpt>
<trkpt lat="55.518094000" lon="-3.338692000"><ele>597.5</ele><time>2013-05-26T12:43:55Z</time></trkpt>
<trkpt lat="55.518132000" lon="-3.338855000"><ele>596.7</ele><time>2013-05-26T12:44:03Z</time></trkpt>
<trkpt lat="55.518166000" lon="-3.339027000"><ele>596.0</ele><time>2013-05-26T12:44:12Z</time></trkpt>
<trkpt lat="55.518210000" lon="-3.339174000"><ele>595.3</ele><time>2013-05-26T12:44:23Z</time></trkpt>
<trkpt lat="55.518233000" lon="-3.339334000"><ele>594.5</ele><time>2013-05-26T12:44:28Z</time></trkpt>
<trkpt lat="55.518245000" lon="-3.339500000"><ele>593.5</ele><time>2013-05-26T12:44:34Z</time></trkpt>
<trkpt lat="55.518260000" lon="-3.339658000"><ele>592.9</ele><time>2013-05-26T12:44:38Z</time></trkpt>
<trkpt lat="55.518300000" lon="-3.339830000"><ele>592.3</ele><time>2013-05-26T12:44:48Z</time></trkpt>
<trkpt lat="55.518308000" lon="-3.340028000"><ele>591.6</ele><time>2013-05-26T12:44:51Z</time></trkpt>
<trkpt lat="55.518323000" lon="-3.340238000"><ele>591.0</ele><time>2013-05-26T12:45:01Z</time></trkpt>
<trkpt lat="55.518381000" lon="-3.340371000"><ele>590.1</ele><time>2013-05-26T12:45:07Z</time></trkpt>
<trkpt lat="55.518416000" lon="-3.340538000"><ele>589.5</ele><time>2013-05-26T12:45:14Z</time></trkpt>
<trkpt lat="55.518450000" lon="-3.340702000"><ele>589.0</ele><time>2013-05-26T12:45:22Z</time></trkpt>
<trkpt lat="55.518479000" lon="-3.340865000"><ele>588.5</ele><time>2013-05-26T12:45:30Z</time></trkpt>
<trkpt lat="55.518518000" lon="-3.341032000"><ele>587.9</ele><time>2013-05-26T12:45:35Z</time></trkpt>
<trkpt lat="55.518546000" lon="-3.341196000"><ele>587.2</ele><time>2013-05-26T12:45:43Z</time></trkpt>
<trkpt lat="55.518596000" lon="-3.341352000"><ele>586.8</ele><time>2013-05-26T12:45:48Z</time></trkpt>
<trkpt lat="55.518645000" lon="-3.341488000"><ele>586.5</ele><time>2013-05-26T12:46:00Z</time></trkpt>
<trkpt lat="55.518649000" lon="-3.341700000"><ele>586.1</ele><time>2013-05-26T12:46:03Z</time></trkpt>
<trkpt lat="55.518673000" lon="-3.341865000"><ele>585.7</ele><time>2013-05-26T12:46:18Z</time></trkpt>
<trkpt lat="55.518722000" lon="-3.342011000"><ele>585.4</ele><time>2013-05-26T12:46:26Z</time></trkpt>
<trkpt lat="55.518804000" lon="-3.342075000"><ele>585.3</ele><time>2013-05-26T12:46:32Z</time></trkpt>
<trkpt lat="55.518776000" lon="-3.342234000"><ele>585.2</ele><time>2013-05-26T12:46:44Z</time></trkpt>
<trkpt lat="55.518798000" lon="-3.342398000"><ele>585.1</ele><time>2013-05-26T12:46:51Z</time></trkpt>
<trkpt lat="55.518809000" lon="-3.342559000"><ele>585.0</ele><time>2013-05-26T12:46:58Z</time></trkpt>
<trkpt lat="55.518830000" lon="-3.342724000"><ele>584.9</ele><time>2013-05-26T12:47:06Z</time></trkpt>
<trkpt lat="55.518851000" lon="-3.342881000"><ele>585.0</ele><time>2013-05-26T12:47:14Z</time></trkpt>
<trkpt lat="55.518880000" lon="-3.343032000"><ele>585.0</ele><time>2013-05-26T12:47:20Z</time></trkpt>
<trkpt lat="55.518903000" lon="-3.343191000"><ele>585.0</ele><time>2013-05-26T12:47:34Z</time></trkpt>
<trkpt lat="55.518981000" lon="-3.343309000"><ele>585.0</ele><time>2013-05-26T12:47:42Z</time></trkpt>
<trkpt lat="55.519062000" lon="-3.343412000"><ele>585.1</ele><time>2013-05-26T12:47:50Z</time></trkpt>
<trkpt lat="55.519139000" lon="-3.343506000"><ele>585.2</ele><time>2013-05-26T12:47:58Z</time></trkpt>
<trkpt lat="55.519236000" lon="-3.343526000"><ele>585.5</ele><time>2013-05-26T12:48:06Z</time></trkpt>
<trkpt lat="55.519319000" lon="-3.343638000"><ele>585.9</ele><time>2013-05-26T12:48:15Z</time></trkpt>
<trkpt lat="55.519404000" lon="-3.343735000"><ele>586.3</ele><time>2013-05-26T12:48:23Z</time></trkpt>
<trkpt lat="55.519494000" lon="-3.343793000"><ele>586.6</ele><time>2013-05-26T12:48:30Z</time></trkpt>
<trkpt lat="55.519592000" lon="-3.343818000"><ele>587.0</ele><time>2013-05-26T12:48:36Z</time></trkpt>
<trkpt lat="55.519681000" lon="-3.343877000"><ele>587.4</ele><time>2013-05-26T12:48:48Z</time></trkpt>
<trkpt lat="55.519756000" lon="-3.343987000"><ele>587.7</ele><time>2013-05-26T12:48:58Z</time></trkpt>
<trkpt lat="55.519837000" lon="-3.344068000"><ele>588.1</ele><time>2013-05-26T12:49:10Z</time></trkpt>
<trkpt lat="55.519932000" lon="-3.344141000"><ele>588.5</ele><time>2013-05-26T12:49:29Z</time></trkpt>
<trkpt lat="55.520011000" lon="-3.344238000"><ele>588.7</ele><time>2013-05-26T12:49:34Z</time></trkpt>
<trkpt lat="55.520102000" lon="-3.344301000"><ele>589.1</ele><time>2013-05-26T12:49:43Z</time></trkpt>
<trkpt lat="55.520197000" lon="-3.344319000"><ele>589.7</ele><time>2013-05-26T12:49:51Z</time></trkpt>
<trkpt lat="55.520287000" lon="-3.344346000"><ele>590.4</ele><time>2013-05-26T12:49:59Z</time></trkpt>
<trkpt lat="55.520374000" lon="-3.344393000"><ele>591.0</ele><time>2013-05-26T12:50:07Z</time></trkpt>
<trkpt lat="55.520464000" lon="-3.344462000"><ele>591.6</ele><time>2013-05-26T12:50:16Z</time></trkpt>
<trkpt lat="55.520535000" lon="-3.344562000"><ele>592.3</ele><time>2013-05-26T12:50:26Z</time></trkpt>
<trkpt lat="55.520610000" lon="-3.344665000"><ele>592.9</ele><time>2013-05-26T12:50:34Z</time></trkpt>
<trkpt lat="55.520689000" lon="-3.344752000"><ele>593.5</ele><time>2013-05-26T12:50:44Z</time></trkpt>
<trkpt lat="55.520766000" lon="-3.344849000"><ele>594.2</ele><time>2013-05-26T12:50:51Z</time></trkpt>
<trkpt lat="55.520847000" lon="-3.344943000"><ele>595.1</ele><time>2013-05-26T12:50:58Z</time></trkpt>
<trkpt lat="55.520932000" lon="-3.345032000"><ele>596.6</ele><time>2013-05-26T12:51:10Z</time></trkpt>
<trkpt lat="55.521014000" lon="-3.345105000"><ele>598.1</ele><time>2013-05-26T12:51:19Z</time></trkpt>
<trkpt lat="55.521092000" lon="-3.345199000"><ele>599.0</ele><time>2013-05-26T12:51:27Z</time></trkpt>
<trkpt lat="55.521140000" lon="-3.345342000"><ele>599.9</ele><time>2013-05-26T12:52:39Z</time></trkpt>
<trkpt lat="55.521219000" lon="-3.345434000"><ele>600.8</ele><time>2013-05-26T12:52:54Z</time></trkpt>
<trkpt lat="55.521319000" lon="-3.345474000"><ele>601.7</ele><time>2013-05-26T12:53:02Z</time></trkpt>
<trkpt lat="55.521412000" lon="-3.345475000"><ele>602.6</ele><time>2013-05-26T12:53:11Z</time></trkpt>
<trkpt lat="55.521511000" lon="-3.345471000"><ele>603.5</ele><time>2013-05-26T12:53:19Z</time></trkpt>
<trkpt lat="55.521608000" lon="-3.345486000"><ele>604.5</ele><time>2013-05-26T12:53:26Z</time></trkpt>
<trkpt lat="55.521699000" lon="-3.345559000"><ele>606.1</ele><time>2013-05-26T12:53:35Z</time></trkpt>
<trkpt lat="55.521785000" lon="-3.345634000"><ele>607.5</ele><time>2013-05-26T12:53:42Z</time></trkpt>
<trkpt lat="55.521870000" lon="-3.345716000"><ele>608.2</ele><time>2013-05-26T12:53:53Z</time></trkpt>
<trkpt lat="55.521961000" lon="-3.345775000"><ele>608.9</ele><time>2013-05-26T12:54:04Z</time></trkpt>
<trkpt lat="55.522047000" lon="-3.345829000"><ele>609.6</ele><time>2013-05-26T12:54:11Z</time></trkpt>
<trkpt lat="55.522134000" lon="-3.345915000"><ele>610.8</ele><time>2013-05-26T12:54:19Z</time></trkpt>
<trkpt lat="55.522220000" lon="-3.345963000"><ele>612.0</ele><time>2013-05-26T12:54:28Z</time></trkpt>
<trkpt lat="55.522311000" lon="-3.346044000"><ele>613.2</ele><time>2013-05-26T12:54:38Z</time></trkpt>
<trkpt lat="55.522397000" lon="-3.346101000"><ele>614.4</ele><time>2013-05-26T12:54:56Z</time></trkpt>
<trkpt lat="55.522478000" lon="-3.346203000"><ele>615.5</ele><time>2013-05-26T12:55:06Z</time></trkpt>
<trkpt lat="55.522562000" lon="-3.346286000"><ele>617.5</ele><time>2013-05-26T12:55:12Z</time></trkpt>
<trkpt lat="55.522646000" lon="-3.346348000"><ele>618.6</ele><time>2013-05-26T12:55:20Z</time></trkpt>
<trkpt lat="55.522720000" lon="-3.346446000"><ele>619.8</ele><time>2013-05-26T12:55:30Z</time></trkpt>
<trkpt lat="55.522810000" lon="-3.346492000"><ele>621.0</ele><time>2013-05-26T12:55:40Z</time></trkpt>
<trkpt lat="55.522894000" lon="-3.346554000"><ele>622.2</ele><time>2013-05-26T12:55:49Z</time></trkpt>
<trkpt lat="55.522953000" lon="-3.346690000"><ele>623.4</ele><time>2013-05-26T12:55:58Z</time></trkpt>
<trkpt lat="55.523028000" lon="-3.346779000"><ele>624.0</ele><time>2013-05-26T12:56:06Z</time></trkpt>
<trkpt lat="55.523125000" lon="-3.346816000"><ele>624.6</ele><time>2013-05-26T12:56:15Z</time></trkpt>
<trkpt lat="55.523218000" lon="-3.346867000"><ele>625.3</ele><time>2013-05-26T12:56:26Z</time></trkpt>
<trkpt lat="55.523312000" lon="-3.346934000"><ele>625.9</ele><time>2013-05-26T12:56:37Z</time></trkpt>
<trkpt lat="55.523403000" lon="-3.346969000"><ele>627.2</ele><time>2013-05-26T12:56:46Z</time></trkpt>
<trkpt lat="55.523489000" lon="-3.347043000"><ele>627.7</ele><time>2013-05-26T12:56:59Z</time></trkpt>
<trkpt lat="55.523569000" lon="-3.347152000"><ele>628.3</ele><time>2013-05-26T12:57:07Z</time></trkpt>
<trkpt lat="55.523650000" lon="-3.347259000"><ele>628.8</ele><time>2013-05-26T12:57:18Z</time></trkpt>
<trkpt lat="55.523738000" lon="-3.347313000"><ele>629.4</ele><time>2013-05-26T12:57:26Z</time></trkpt>
<trkpt lat="55.523831000" lon="-3.347380000"><ele>629.9</ele><time>2013-05-26T12:57:34Z</time></trkpt>
<trkpt lat="55.523918000" lon="-3.347428000"><ele>630.5</ele><time>2013-05-26T12:57:41Z</time></trkpt>
<trkpt lat="55.524006000" lon="-3.347502000"><ele>631.1</ele><time>2013-05-26T12:57:49Z</time></trkpt>
<trkpt lat="55.524100000" lon="-3.347565000"><ele>631.8</ele><time>2013-05-26T12:57:56Z</time></trkpt>
<trkpt lat="55.524196000" lon="-3.347618000"><ele>632.5</ele><time>2013-05-26T12:58:04Z</time></trkpt>
<trkpt lat="55.524280000" lon="-3.347678000"><ele>633.3</ele><time>2013-05-26T12:58:13Z</time></trkpt>
<trkpt lat="55.524377000" lon="-3.347703000"><ele>633.4</ele><time>2013-05-26T12:58:21Z</time></trkpt>
<trkpt lat="55.524461000" lon="-3.347779000"><ele>633.4</ele><time>2013-05-26T12:58:29Z</time></trkpt>
<trkpt lat="55.524545000" lon="-3.347855000"><ele>633.4</ele><time>2013-05-26T12:58:36Z</time></trkpt>
<trkpt lat="55.524502000" lon="-3.348000000"><ele>633.4</ele><time>2013-05-26T12:59:21Z</time></trkpt>
<trkpt lat="55.524415000" lon="-3.348041000"><ele>633.4</ele><time>2013-05-26T12:59:28Z</time></trkpt>
<trkpt lat="55.524342000" lon="-3.347947000"><ele>633.4</ele><time>2013-05-26T12:59:43Z</time></trkpt>
<trkpt lat="55.524298000" lon="-3.347795000"><ele>633.5</ele><time>2013-05-26T12:59:50Z</time></trkpt>
<trkpt lat="55.524299000" lon="-3.347634000"><ele>633.5</ele><time>2013-05-26T12:59:58Z</time></trkpt>
<trkpt lat="55.524356000" lon="-3.347503000"><ele>633.5</ele><time>2013-05-26T13:00:06Z</time></trkpt>
<trkpt lat="55.524363000" lon="-3.347684000"><ele>633.4</ele><time>2013-05-26T13:00:59Z</time></trkpt>
<trkpt lat="55.524391000" lon="-3.347842000"><ele>633.3</ele><time>2013-05-26T13:01:08Z</time></trkpt>
<trkpt lat="55.524443000" lon="-3.347984000"><ele>633.2</ele><time>2013-05-26T13:01:17Z</time></trkpt>
<trkpt lat="55.524350000" lon="-3.347944000"><ele>633.2</ele><time>2013-05-26T13:05:59Z</time></trkpt>
<trkpt lat="55.524343000" lon="-3.347781000"><ele>633.2</ele><time>2013-05-26T13:06:08Z</time></trkpt>
<trkpt lat="55.524257000" lon="-3.347679000"><ele>633.2</ele><time>2013-05-26T13:06:16Z</time></trkpt>
<trkpt lat="55.524177000" lon="-3.347585000"><ele>632.5</ele><time>2013-05-26T13:06:43Z</time></trkpt>
<trkpt lat="55.524079000" lon="-3.347524000"><ele>631.9</ele><time>2013-05-26T13:06:50Z</time></trkpt>
<trkpt lat="55.523986000" lon="-3.347453000"><ele>631.2</ele><time>2013-05-26T13:06:56Z</time></trkpt>
<trkpt lat="55.523886000" lon="-3.347400000"><ele>630.5</ele><time>2013-05-26T13:07:10Z</time></trkpt>
<trkpt lat="55.523789000" lon="-3.347324000"><ele>629.9</ele><time>2013-05-26T13:07:15Z</time></trkpt>
<trkpt lat="55.523692000" lon="-3.347261000"><ele>629.4</ele><time>2013-05-26T13:07:23Z</time></trkpt>
<trkpt lat="55.523606000" lon="-3.347204000"><ele>628.8</ele><time>2013-05-26T13:07:27Z</time></trkpt>
<trkpt lat="55.523504000" lon="-3.347150000"><ele>628.3</ele><time>2013-05-26T13:07:32Z</time></trkpt>
<trkpt lat="55.523411000" lon="-3.347076000"><ele>627.7</ele><time>2013-05-26T13:07:39Z</time></trkpt>
<trkpt lat="55.523341000" lon="-3.346946000"><ele>626.5</ele><time>2013-05-26T13:07:50Z</time></trkpt>
<trkpt lat="55.523276000" lon="-3.346830000"><ele>625.2</ele><time>2013-05-26T13:07:56Z</time></trkpt>
<trkpt lat="55.523188000" lon="-3.346780000"><ele>624.5</ele><time>2013-05-26T13:08:03Z</time></trkpt>
<trkpt lat="55.523090000" lon="-3.346737000"><ele>623.9</ele><time>2013-05-26T13:08:11Z</time></trkpt>
<trkpt lat="55.522992000" lon="-3.346731000"><ele>623.3</ele><time>2013-05-26T13:08:32Z</time></trkpt>
<trkpt lat="55.522908000" lon="-3.346623000"><ele>622.6</ele><time>2013-05-26T13:08:37Z</time></trkpt>
<trkpt lat="55.522822000" lon="-3.346532000"><ele>621.5</ele><time>2013-05-26T13:08:43Z</time></trkpt>
<trkpt lat="55.522733000" lon="-3.346471000"><ele>620.3</ele><time>2013-05-26T13:08:53Z</time></trkpt>
<trkpt lat="55.522654000" lon="-3.346361000"><ele>619.1</ele><time>2013-05-26T13:09:02Z</time></trkpt>
<trkpt lat="55.522559000" lon="-3.346319000"><ele>617.9</ele><time>2013-05-26T13:09:08Z</time></trkpt>
<trkpt lat="55.522465000" lon="-3.346257000"><ele>616.0</ele><time>2013-05-26T13:09:16Z</time></trkpt>
<trkpt lat="55.522388000" lon="-3.346158000"><ele>614.8</ele><time>2013-05-26T13:09:22Z</time></trkpt>
<trkpt lat="55.522309000" lon="-3.346078000"><ele>613.6</ele><time>2013-05-26T13:09:30Z</time></trkpt>
<trkpt lat="55.522233000" lon="-3.345986000"><ele>612.5</ele><time>2013-05-26T13:09:40Z</time></trkpt>
<trkpt lat="55.522134000" lon="-3.345917000"><ele>611.3</ele><time>2013-05-26T13:09:46Z</time></trkpt>
<trkpt lat="55.522035000" lon="-3.345886000"><ele>610.1</ele><time>2013-05-26T13:09:49Z</time></trkpt>
<trkpt lat="55.521941000" lon="-3.345825000"><ele>608.9</ele><time>2013-05-26T13:09:54Z</time></trkpt>
<trkpt lat="55.521854000" lon="-3.345746000"><ele>608.2</ele><time>2013-05-26T13:10:00Z</time></trkpt>
<trkpt lat="55.521790000" lon="-3.345635000"><ele>607.5</ele><time>2013-05-26T13:10:08Z</time></trkpt>
<trkpt lat="55.521712000" lon="-3.345540000"><ele>606.1</ele><time>2013-05-26T13:10:17Z</time></trkpt>
<trkpt lat="55.521620000" lon="-3.345523000"><ele>604.7</ele><time>2013-05-26T13:10:25Z</time></trkpt>
<trkpt lat="55.521538000" lon="-3.345460000"><ele>604.1</ele><time>2013-05-26T13:10:31Z</time></trkpt>
<trkpt lat="55.521443000" lon="-3.345460000"><ele>603.5</ele><time>2013-05-26T13:10:37Z</time></trkpt>
<trkpt lat="55.521345000" lon="-3.345473000"><ele>602.8</ele><time>2013-05-26T13:10:44Z</time></trkpt>
<trkpt lat="55.521251000" lon="-3.345482000"><ele>602.2</ele><time>2013-05-26T13:10:51Z</time></trkpt>
<trkpt lat="55.521161000" lon="-3.345423000"><ele>601.5</ele><time>2013-05-26T13:10:57Z</time></trkpt>
<trkpt lat="55.521059000" lon="-3.345388000"><ele>600.9</ele><time>2013-05-26T13:11:05Z</time></trkpt>
<trkpt lat="55.520975000" lon="-3.345479000"><ele>600.3</ele><time>2013-05-26T13:11:11Z</time></trkpt>
<trkpt lat="55.520899000" lon="-3.345580000"><ele>599.1</ele><time>2013-05-26T13:11:18Z</time></trkpt>
<trkpt lat="55.520819000" lon="-3.345695000"><ele>597.9</ele><time>2013-05-26T13:11:25Z</time></trkpt>
<trkpt lat="55.520727000" lon="-3.345772000"><ele>597.5</ele><time>2013-05-26T13:11:31Z</time></trkpt>
<trkpt lat="55.520642000" lon="-3.345869000"><ele>597.0</ele><time>2013-05-26T13:11:39Z</time></trkpt>
<trkpt lat="55.520552000" lon="-3.345942000"><ele>596.5</ele><time>2013-05-26T13:11:44Z</time></trkpt>
<trkpt lat="55.520462000" lon="-3.346036000"><ele>596.1</ele><time>2013-05-26T13:11:50Z</time></trkpt>
<trkpt lat="55.520387000" lon="-3.346150000"><ele>595.6</ele><time>2013-05-26T13:12:14Z</time></trkpt>
<trkpt lat="55.520290000" lon="-3.346227000"><ele>595.2</ele><time>2013-05-26T13:12:20Z</time></trkpt>
<trkpt lat="55.520204000" lon="-3.346276000"><ele>594.7</ele><time>2013-05-26T13:12:25Z</time></trkpt>
<trkpt lat="55.520117000" lon="-3.346344000"><ele>593.3</ele><time>2013-05-26T13:12:31Z</time></trkpt>
<trkpt lat="55.520032000" lon="-3.346407000"><ele>591.8</ele><time>2013-05-26T13:12:38Z</time></trkpt>
<trkpt lat="55.519944000" lon="-3.346475000"><ele>590.9</ele><time>2013-05-26T13:12:53Z</time></trkpt>
<trkpt lat="55.519840000" lon="-3.346464000"><ele>590.0</ele><time>2013-05-26T13:12:59Z</time></trkpt>
<trkpt lat="55.519732000" lon="-3.346416000"><ele>589.0</ele><time>2013-05-26T13:13:08Z</time></trkpt>
<trkpt lat="55.519640000" lon="-3.346379000"><ele>588.0</ele><time>2013-05-26T13:13:13Z</time></trkpt>
<trkpt lat="55.519549000" lon="-3.346359000"><ele>587.0</ele><time>2013-05-26T13:13:18Z</time></trkpt>
<trkpt lat="55.519449000" lon="-3.346342000"><ele>586.1</ele><time>2013-05-26T13:13:24Z</time></trkpt>
<trkpt lat="55.519347000" lon="-3.346348000"><ele>585.2</ele><time>2013-05-26T13:13:29Z</time></trkpt>
<trkpt lat="55.519260000" lon="-3.346300000"><ele>584.3</ele><time>2013-05-26T13:13:39Z</time></trkpt>
<trkpt lat="55.519167000" lon="-3.346295000"><ele>583.4</ele><time>2013-05-26T13:13:43Z</time></trkpt>
<trkpt lat="55.519069000" lon="-3.346270000"><ele>583.5</ele><time>2013-05-26T13:13:48Z</time></trkpt>
<trkpt lat="55.518967000" lon="-3.346197000"><ele>583.5</ele><time>2013-05-26T13:13:54Z</time></trkpt>
<trkpt lat="55.518878000" lon="-3.346117000"><ele>583.8</ele><time>2013-05-26T13:14:00Z</time></trkpt>
<trkpt lat="55.518819000" lon="-3.345961000"><ele>584.1</ele><time>2013-05-26T13:14:08Z</time></trkpt>
<trkpt lat="55.518849000" lon="-3.345752000"><ele>584.4</ele><time>2013-05-26T13:14:27Z</time></trkpt>
<trkpt lat="55.518847000" lon="-3.345593000"><ele>584.6</ele><time>2013-05-26T13:14:33Z</time></trkpt>
<trkpt lat="55.518846000" lon="-3.345413000"><ele>584.9</ele><time>2013-05-26T13:14:41Z</time></trkpt>
<trkpt lat="55.518854000" lon="-3.345236000"><ele>585.1</ele><time>2013-05-26T13:14:49Z</time></trkpt>
<trkpt lat="55.518832000" lon="-3.345042000"><ele>585.3</ele><time>2013-05-26T13:15:04Z</time></trkpt>
<trkpt lat="55.518837000" lon="-3.344864000"><ele>585.5</ele><time>2013-05-26T13:15:10Z</time></trkpt>
<trkpt lat="55.518795000" lon="-3.344710000"><ele>585.6</ele><time>2013-05-26T13:15:18Z</time></trkpt>
<trkpt lat="55.518846000" lon="-3.344559000"><ele>585.8</ele><time>2013-05-26T13:15:25Z</time></trkpt>
<trkpt lat="55.518915000" lon="-3.344448000"><ele>585.9</ele><time>2013-05-26T13:15:32Z</time></trkpt>
<trkpt lat="55.518846000" lon="-3.344335000"><ele>585.8</ele><time>2013-05-26T13:15:46Z</time></trkpt>
<trkpt lat="55.518879000" lon="-3.344175000"><ele>585.7</ele><time>2013-05-26T13:15:58Z</time></trkpt>
<trkpt lat="55.518860000" lon="-3.344015000"><ele>585.6</ele><time>2013-05-26T13:16:04Z</time></trkpt>
<trkpt lat="55.518859000" lon="-3.343840000"><ele>585.5</ele><time>2013-05-26T13:16:14Z</time></trkpt>
<trkpt lat="55.518903000" lon="-3.343672000"><ele>585.5</ele><time>2013-05-26T13:16:21Z</time></trkpt>
<trkpt lat="55.518967000" lon="-3.343532000"><ele>585.4</ele><time>2013-05-26T13:16:29Z</time></trkpt>
<trkpt lat="55.519012000" lon="-3.343389000"><ele>585.2</ele><time>2013-05-26T13:16:42Z</time></trkpt>
<trkpt lat="55.518930000" lon="-3.343299000"><ele>585.0</ele><time>2013-05-26T13:16:54Z</time></trkpt>
<trkpt lat="55.518839000" lon="-3.343236000"><ele>584.8</ele><time>2013-05-26T13:16:59Z</time></trkpt>
<trkpt lat="55.518787000" lon="-3.343086000"><ele>584.6</ele><time>2013-05-26T13:17:06Z</time></trkpt>
<trkpt lat="55.518772000" lon="-3.342923000"><ele>584.5</ele><time>2013-05-26T13:17:16Z</time></trkpt>
<trkpt lat="55.518721000" lon="-3.342757000"><ele>584.6</ele><time>2013-05-26T13:17:23Z</time></trkpt>
<trkpt lat="55.518696000" lon="-3.342579000"><ele>584.7</ele><time>2013-05-26T13:17:37Z</time></trkpt>
<trkpt lat="55.518674000" lon="-3.342394000"><ele>584.8</ele><time>2013-05-26T13:17:43Z</time></trkpt>
<trkpt lat="55.518639000" lon="-3.342221000"><ele>584.9</ele><time>2013-05-26T13:17:56Z</time></trkpt>
<trkpt lat="55.518622000" lon="-3.342054000"><ele>585.0</ele><time>2013-05-26T13:18:05Z</time></trkpt>
<trkpt lat="55.518609000" lon="-3.341884000"><ele>585.4</ele><time>2013-05-26T13:18:13Z</time></trkpt>
<trkpt lat="55.518600000" lon="-3.341720000"><ele>585.8</ele><time>2013-05-26T13:18:20Z</time></trkpt>
<trkpt lat="55.518579000" lon="-3.341559000"><ele>586.3</ele><time>2013-05-26T13:18:28Z</time></trkpt>
<trkpt lat="55.518557000" lon="-3.341393000"><ele>586.7</ele><time>2013-05-26T13:18:36Z</time></trkpt>
<trkpt lat="55.518508000" lon="-3.341222000"><ele>587.2</ele><time>2013-05-26T13:18:41Z</time></trkpt>
<trkpt lat="55.518504000" lon="-3.341059000"><ele>587.6</ele><time>2013-05-26T13:18:48Z</time></trkpt>
<trkpt lat="55.518469000" lon="-3.340903000"><ele>588.2</ele><time>2013-05-26T13:18:57Z</time></trkpt>
<trkpt lat="55.518408000" lon="-3.340778000"><ele>588.7</ele><time>2013-05-26T13:19:05Z</time></trkpt>
<trkpt lat="55.518347000" lon="-3.340660000"><ele>589.3</ele><time>2013-05-26T13:19:10Z</time></trkpt>
<trkpt lat="55.518324000" lon="-3.340499000"><ele>589.8</ele><time>2013-05-26T13:19:23Z</time></trkpt>
<trkpt lat="55.518316000" lon="-3.340338000"><ele>590.4</ele><time>2013-05-26T13:19:29Z</time></trkpt>
<trkpt lat="55.518265000" lon="-3.340131000"><ele>591.0</ele><time>2013-05-26T13:19:49Z</time></trkpt>
<trkpt lat="55.518258000" lon="-3.339959000"><ele>591.6</ele><time>2013-05-26T13:19:56Z</time></trkpt>
<trkpt lat="55.518219000" lon="-3.339812000"><ele>592.3</ele><time>2013-05-26T13:20:04Z</time></trkpt>
<trkpt lat="55.518209000" lon="-3.339650000"><ele>592.9</ele><time>2013-05-26T13:20:11Z</time></trkpt>
<trkpt lat="55.518159000" lon="-3.339507000"><ele>593.5</ele><time>2013-05-26T13:20:23Z</time></trkpt>
<trkpt lat="55.518100000" lon="-3.339372000"><ele>594.5</ele><time>2013-05-26T13:20:30Z</time></trkpt>
<trkpt lat="55.518098000" lon="-3.339209000"><ele>595.3</ele><time>2013-05-26T13:20:37Z</time></trkpt>
<trkpt lat="55.518082000" lon="-3.339021000"><ele>596.0</ele><time>2013-05-26T13:20:57Z</time></trkpt>
<trkpt lat="55.518043000" lon="-3.338841000"><ele>596.7</ele><time>2013-05-26T13:21:13Z</time></trkpt>
<trkpt lat="55.518011000" lon="-3.338685000"><ele>598.0</ele><time>2013-05-26T13:21:20Z</time></trkpt>
<trkpt lat="55.518007000" lon="-3.338510000"><ele>599.8</ele><time>2013-05-26T13:21:29Z</time></trkpt>
<trkpt lat="55.517985000" lon="-3.338351000"><ele>601.3</ele><time>2013-05-26T13:21:37Z</time></trkpt>
<trkpt lat="55.517980000" lon="-3.338177000"><ele>602.7</ele><time>2013-05-26T13:21:45Z</time></trkpt>
<trkpt lat="55.517956000" lon="-3.338017000"><ele>604.2</ele><time>2013-05-26T13:21:54Z</time></trkpt>
<trkpt lat="55.517902000" lon="-3.337872000"><ele>605.6</ele><time>2013-05-26T13:22:01Z</time></trkpt>
<trkpt lat="55.517877000" lon="-3.337710000"><ele>607.7</ele><time>2013-05-26T13:22:08Z</time></trkpt>
<trkpt lat="55.517803000" lon="-3.337610000"><ele>609.5</ele><time>2013-05-26T13:22:27Z</time></trkpt>
<trkpt lat="55.517789000" lon="-3.337453000"><ele>611.2</ele><time>2013-05-26T13:22:49Z</time></trkpt>
<trkpt lat="55.517747000" lon="-3.337305000"><ele>612.9</ele><time>2013-05-26T13:23:03Z</time></trkpt>
<trkpt lat="55.517718000" lon="-3.337139000"><ele>614.6</ele><time>2013-05-26T13:23:22Z</time></trkpt>
<trkpt lat="55.517684000" lon="-3.336991000"><ele>615.8</ele><time>2013-05-26T13:23:31Z</time></trkpt>
<trkpt lat="55.517641000" lon="-3.336843000"><ele>616.8</ele><time>2013-05-26T13:23:44Z</time></trkpt>
<trkpt lat="55.517599000" lon="-3.336680000"><ele>617.8</ele><time>2013-05-26T13:23:57Z</time></trkpt>
<trkpt lat="55.517619000" lon="-3.336510000"><ele>618.8</ele><time>2013-05-26T13:24:03Z</time></trkpt>
<trkpt lat="55.517619000" lon="-3.336349000"><ele>619.8</ele><time>2013-05-26T13:24:11Z</time></trkpt>
<trkpt lat="55.517544000" lon="-3.336257000"><ele>620.8</ele><time>2013-05-26T13:24:30Z</time></trkpt>
<trkpt lat="55.517533000" lon="-3.336064000"><ele>621.6</ele><time>2013-05-26T13:24:35Z</time></trkpt>
<trkpt lat="55.517523000" lon="-3.335902000"><ele>622.5</ele><time>2013-05-26T13:24:42Z</time></trkpt>
<trkpt lat="55.517511000" lon="-3.335741000"><ele>623.3</ele><time>2013-05-26T13:24:52Z</time></trkpt>
<trkpt lat="55.517463000" lon="-3.335592000"><ele>624.1</ele><time>2013-05-26T13:25:02Z</time></trkpt>
<trkpt lat="55.517442000" lon="-3.335430000"><ele>625.5</ele><time>2013-05-26T13:25:09Z</time></trkpt>
<trkpt lat="55.517359000" lon="-3.335329000"><ele>627.0</ele><time>2013-05-26T13:25:18Z</time></trkpt>
<trkpt lat="55.517332000" lon="-3.335175000"><ele>628.1</ele><time>2013-05-26T13:25:31Z</time></trkpt>
<trkpt lat="55.517242000" lon="-3.335125000"><ele>629.2</ele><time>2013-05-26T13:25:41Z</time></trkpt>
<trkpt lat="55.517173000" lon="-3.335016000"><ele>630.5</ele><time>2013-05-26T13:25:50Z</time></trkpt>
<trkpt lat="55.517087000" lon="-3.334931000"><ele>631.9</ele><time>2013-05-26T13:25:59Z</time></trkpt>
<trkpt lat="55.517019000" lon="-3.334827000"><ele>633.3</ele><time>2013-05-26T13:26:08Z</time></trkpt>
<trkpt lat="55.516940000" lon="-3.334740000"><ele>634.2</ele><time>2013-05-26T13:26:18Z</time></trkpt>
<trkpt lat="55.516866000" lon="-3.334635000"><ele>635.1</ele><time>2013-05-26T13:26:30Z</time></trkpt>
<trkpt lat="55.516794000" lon="-3.334514000"><ele>636.0</ele><time>2013-05-26T13:26:40Z</time></trkpt>
<trkpt lat="55.516717000" lon="-3.334411000"><ele>636.9</ele><time>2013-05-26T13:26:50Z</time></trkpt>
<trkpt lat="55.516645000" lon="-3.334290000"><ele>637.6</ele><time>2013-05-26T13:26:59Z</time></trkpt>
<trkpt lat="55.516575000" lon="-3.334189000"><ele>638.4</ele><time>2013-05-26T13:27:10Z</time></trkpt>
<trkpt lat="55.516500000" lon="-3.334094000"><ele>639.5</ele><time>2013-05-26T13:27:22Z</time></trkpt>
<trkpt lat="55.516410000" lon="-3.334044000"><ele>640.7</ele><time>2013-05-26T13:28:08Z</time></trkpt>
<trkpt lat="55.516327000" lon="-3.333968000"><ele>641.6</ele><time>2013-05-26T13:28:16Z</time></trkpt>
<trkpt lat="55.516240000" lon="-3.333899000"><ele>642.5</ele><time>2013-05-26T13:28:25Z</time></trkpt>
<trkpt lat="55.516181000" lon="-3.333778000"><ele>643.5</ele><time>2013-05-26T13:28:32Z</time></trkpt>
<trkpt lat="55.516103000" lon="-3.333691000"><ele>644.4</ele><time>2013-05-26T13:28:43Z</time></trkpt>
<trkpt lat="55.516037000" lon="-3.333576000"><ele>645.3</ele><time>2013-05-26T13:28:52Z</time></trkpt>
<trkpt lat="55.515965000" lon="-3.333475000"><ele>646.2</ele><time>2013-05-26T13:29:00Z</time></trkpt>
<trkpt lat="55.515883000" lon="-3.333401000"><ele>647.1</ele><time>2013-05-26T13:29:11Z</time></trkpt>
<trkpt lat="55.515805000" lon="-3.333311000"><ele>648.2</ele><time>2013-05-26T13:29:21Z</time></trkpt>
<trkpt lat="55.515731000" lon="-3.333220000"><ele>649.6</ele><time>2013-05-26T13:29:30Z</time></trkpt>
<trkpt lat="55.515656000" lon="-3.333128000"><ele>650.6</ele><time>2013-05-26T13:29:38Z</time></trkpt>
<trkpt lat="55.515578000" lon="-3.333046000"><ele>651.6</ele><time>2013-05-26T13:29:46Z</time></trkpt>
<trkpt lat="55.515502000" lon="-3.332940000"><ele>652.6</ele><time>2013-05-26T13:29:57Z</time></trkpt>
<trkpt lat="55.515429000" lon="-3.332838000"><ele>653.6</ele><time>2013-05-26T13:30:26Z</time></trkpt>
<trkpt lat="55.515355000" lon="-3.332729000"><ele>654.6</ele><time>2013-05-26T13:30:33Z</time></trkpt>
<trkpt lat="55.515268000" lon="-3.332656000"><ele>655.6</ele><time>2013-05-26T13:30:45Z</time></trkpt>
<trkpt lat="55.515209000" lon="-3.332534000"><ele>656.6</ele><time>2013-05-26T13:30:56Z</time></trkpt>
<trkpt lat="55.515130000" lon="-3.332455000"><ele>657.6</ele><time>2013-05-26T13:31:04Z</time></trkpt>
<trkpt lat="55.515050000" lon="-3.332368000"><ele>659.0</ele><time>2013-05-26T13:31:12Z</time></trkpt>
<trkpt lat="55.514978000" lon="-3.332252000"><ele>660.8</ele><time>2013-05-26T13:31:22Z</time></trkpt>
<trkpt lat="55.514899000" lon="-3.332174000"><ele>662.3</ele><time>2013-05-26T13:31:31Z</time></trkpt>
<trkpt lat="55.514832000" lon="-3.332050000"><ele>663.7</ele><time>2013-05-26T13:31:43Z</time></trkpt>
<trkpt lat="55.514740000" lon="-3.331972000"><ele>665.2</ele><time>2013-05-26T13:31:54Z</time></trkpt>
<trkpt lat="55.514658000" lon="-3.331885000"><ele>666.6</ele><time>2013-05-26T13:32:04Z</time></trkpt>
<trkpt lat="55.514579000" lon="-3.331796000"><ele>668.1</ele><time>2013-05-26T13:32:17Z</time></trkpt>
<trkpt lat="55.514517000" lon="-3.331662000"><ele>669.5</ele><time>2013-05-26T13:32:26Z</time></trkpt>
<trkpt lat="55.514441000" lon="-3.331566000"><ele>671.0</ele><time>2013-05-26T13:32:37Z</time></trkpt>
<trkpt lat="55.514353000" lon="-3.331518000"><ele>672.7</ele><time>2013-05-26T13:32:47Z</time></trkpt>
<trkpt lat="55.514265000" lon="-3.331431000"><ele>674.5</ele><time>2013-05-26T13:32:58Z</time></trkpt>
<trkpt lat="55.514180000" lon="-3.331335000"><ele>675.8</ele><time>2013-05-26T13:33:05Z</time></trkpt>
<trkpt lat="55.514105000" lon="-3.331235000"><ele>677.0</ele><time>2013-05-26T13:33:38Z</time></trkpt>
<trkpt lat="55.514022000" lon="-3.331168000"><ele>678.2</ele><time>2013-05-26T13:33:47Z</time></trkpt>
<trkpt lat="55.513939000" lon="-3.331082000"><ele>679.4</ele><time>2013-05-26T13:33:58Z</time></trkpt>
<trkpt lat="55.513869000" lon="-3.330971000"><ele>680.5</ele><time>2013-05-26T13:34:10Z</time></trkpt>
<trkpt lat="55.513789000" lon="-3.330875000"><ele>681.7</ele><time>2013-05-26T13:34:20Z</time></trkpt>
<trkpt lat="55.513721000" lon="-3.330765000"><ele>683.4</ele><time>2013-05-26T13:34:31Z</time></trkpt>
<trkpt lat="55.513657000" lon="-3.330649000"><ele>685.0</ele><time>2013-05-26T13:34:39Z</time></trkpt>
<trkpt lat="55.513592000" lon="-3.330535000"><ele>686.6</ele><time>2013-05-26T13:34:50Z</time></trkpt>
<trkpt lat="55.513507000" lon="-3.330450000"><ele>688.0</ele><time>2013-05-26T13:35:01Z</time></trkpt>
<trkpt lat="55.513428000" lon="-3.330344000"><ele>689.4</ele><time>2013-05-26T13:35:11Z</time></trkpt>
<trkpt lat="55.513338000" lon="-3.330261000"><ele>691.7</ele><time>2013-05-26T13:35:19Z</time></trkpt>
<trkpt lat="55.513251000" lon="-3.330212000"><ele>693.2</ele><time>2013-05-26T13:35:31Z</time></trkpt>
<trkpt lat="55.513163000" lon="-3.330153000"><ele>694.6</ele><time>2013-05-26T13:35:46Z</time></trkpt>
<trkpt lat="55.513076000" lon="-3.330107000"><ele>696.1</ele><time>2013-05-26T13:35:56Z</time></trkpt>
<trkpt lat="55.512985000" lon="-3.330059000"><ele>697.5</ele><time>2013-05-26T13:36:18Z</time></trkpt>
<trkpt lat="55.512891000" lon="-3.330045000"><ele>699.0</ele><time>2013-05-26T13:36:29Z</time></trkpt>
<trkpt lat="55.512796000" lon="-3.330007000"><ele>700.0</ele><time>2013-05-26T13:36:40Z</time></trkpt>
<trkpt lat="55.512702000" lon="-3.329980000"><ele>701.0</ele><time>2013-05-26T13:36:54Z</time></trkpt>
<trkpt lat="55.512611000" lon="-3.329937000"><ele>702.0</ele><time>2013-05-26T13:37:18Z</time></trkpt>
<trkpt lat="55.512523000" lon="-3.329892000"><ele>704.7</ele><time>2013-05-26T13:37:35Z</time></trkpt>
<trkpt lat="55.512428000" lon="-3.329855000"><ele>707.5</ele><time>2013-05-26T13:37:48Z</time></trkpt>
<trkpt lat="55.512337000" lon="-3.329806000"><ele>709.2</ele><time>2013-05-26T13:38:01Z</time></trkpt>
<trkpt lat="55.512245000" lon="-3.329739000"><ele>711.2</ele><time>2013-05-26T13:38:23Z</time></trkpt>
<trkpt lat="55.512163000" lon="-3.329671000"><ele>713.2</ele><time>2013-05-26T13:38:33Z</time></trkpt>
<trkpt lat="55.512073000" lon="-3.329627000"><ele>715.2</ele><time>2013-05-26T13:38:46Z</time></trkpt>
<trkpt lat="55.511979000" lon="-3.329593000"><ele>717.2</ele><time>2013-05-26T13:39:03Z</time></trkpt>
<trkpt lat="55.511883000" lon="-3.329573000"><ele>719.2</ele><time>2013-05-26T13:39:57Z</time></trkpt>
<trkpt lat="55.511819000" lon="-3.329456000"><ele>721.2</ele><time>2013-05-26T13:40:09Z</time></trkpt>
<trkpt lat="55.511735000" lon="-3.329383000"><ele>723.2</ele><time>2013-05-26T13:40:23Z</time></trkpt>
<trkpt lat="55.511645000" lon="-3.329323000"><ele>726.6</ele><time>2013-05-26T13:40:35Z</time></trkpt>
<trkpt lat="55.511562000" lon="-3.329261000"><ele>728.4</ele><time>2013-05-26T13:40:46Z</time></trkpt>
<trkpt lat="55.511480000" lon="-3.329195000"><ele>730.1</ele><time>2013-05-26T13:41:04Z</time></trkpt>
<trkpt lat="55.511389000" lon="-3.329164000"><ele>731.8</ele><time>2013-05-26T13:41:21Z</time></trkpt>
<trkpt lat="55.511302000" lon="-3.329100000"><ele>733.3</ele><time>2013-05-26T13:41:34Z</time></trkpt>
<trkpt lat="55.511214000" lon="-3.329008000"><ele>735.3</ele><time>2013-05-26T13:41:44Z</time></trkpt>
<trkpt lat="55.511141000" lon="-3.328905000"><ele>737.3</ele><time>2013-05-26T13:41:55Z</time></trkpt>
<trkpt lat="55.511054000" lon="-3.328820000"><ele>739.3</ele><time>2013-05-26T13:42:29Z</time></trkpt>
<trkpt lat="55.510968000" lon="-3.328762000"><ele>741.3</ele><time>2013-05-26T13:42:51Z</time></trkpt>
<trkpt lat="55.510889000" lon="-3.328686000"><ele>744.1</ele><time>2013-05-26T13:43:05Z</time></trkpt>
<trkpt lat="55.510803000" lon="-3.328629000"><ele>746.9</ele><time>2013-05-26T13:43:19Z</time></trkpt>
<trkpt lat="55.510715000" lon="-3.328588000"><ele>748.3</ele><time>2013-05-26T13:43:32Z</time></trkpt>
<trkpt lat="55.510627000" lon="-3.328535000"><ele>749.6</ele><time>2013-05-26T13:43:43Z</time></trkpt>
<trkpt lat="55.510546000" lon="-3.328460000"><ele>751.0</ele><time>2013-05-26T13:43:55Z</time></trkpt>
<trkpt lat="55.510454000" lon="-3.328407000"><ele>752.4</ele><time>2013-05-26T13:44:07Z</time></trkpt>
<trkpt lat="55.510369000" lon="-3.328334000"><ele>753.7</ele><time>2013-05-26T13:44:34Z</time></trkpt>
<trkpt lat="55.510278000" lon="-3.328283000"><ele>754.9</ele><time>2013-05-26T13:44:46Z</time></trkpt>
<trkpt lat="55.510195000" lon="-3.328208000"><ele>756.1</ele><time>2013-05-26T13:44:56Z</time></trkpt>
<trkpt lat="55.510120000" lon="-3.328104000"><ele>757.3</ele><time>2013-05-26T13:45:05Z</time></trkpt>
<trkpt lat="55.510036000" lon="-3.328009000"><ele>758.5</ele><time>2013-05-26T13:45:18Z</time></trkpt>
<trkpt lat="55.509959000" lon="-3.327903000"><ele>759.0</ele><time>2013-05-26T13:45:29Z</time></trkpt>
<trkpt lat="55.509913000" lon="-3.327751000"><ele>759.5</ele><time>2013-05-26T13:45:38Z</time></trkpt>
<trkpt lat="55.509859000" lon="-3.327620000"><ele>760.1</ele><time>2013-05-26T13:45:49Z</time></trkpt>
<trkpt lat="55.509807000" lon="-3.327473000"><ele>760.6</ele><time>2013-05-26T13:45:58Z</time></trkpt>
<trkpt lat="55.509734000" lon="-3.327361000"><ele>761.2</ele><time>2013-05-26T13:46:08Z</time></trkpt>
<trkpt lat="55.509642000" lon="-3.327339000"><ele>762.2</ele><time>2013-05-26T13:46:17Z</time></trkpt>
<trkpt lat="55.509550000" lon="-3.327380000"><ele>763.2</ele><time>2013-05-26T13:46:25Z</time></trkpt>
<trkpt lat="55.509454000" lon="-3.327349000"><ele>763.8</ele><time>2013-05-26T13:46:34Z</time></trkpt>
<trkpt lat="55.509361000" lon="-3.327294000"><ele>764.5</ele><time>2013-05-26T13:46:44Z</time></trkpt>
<trkpt lat="55.509298000" lon="-3.327169000"><ele>765.1</ele><time>2013-05-26T13:46:51Z</time></trkpt>
<trkpt lat="55.509254000" lon="-3.327024000"><ele>765.7</ele><time>2013-05-26T13:47:00Z</time></trkpt>
<trkpt lat="55.509187000" lon="-3.326912000"><ele>766.2</ele><time>2013-05-26T13:47:07Z</time></trkpt>
<trkpt lat="55.509123000" lon="-3.326781000"><ele>765.9</ele><time>2013-05-26T13:47:27Z</time></trkpt>
<trkpt lat="55.509045000" lon="-3.326693000"><ele>765.6</ele><time>2013-05-26T13:47:36Z</time></trkpt>
<trkpt lat="55.508961000" lon="-3.326633000"><ele>765.4</ele><time>2013-05-26T13:47:44Z</time></trkpt>
<trkpt lat="55.508877000" lon="-3.326552000"><ele>765.6</ele><time>2013-05-26T13:47:56Z</time></trkpt>
<trkpt lat="55.508806000" lon="-3.326450000"><ele>765.5</ele><time>2013-05-26T13:48:06Z</time></trkpt>
<trkpt lat="55.508721000" lon="-3.326391000"><ele>765.3</ele><time>2013-05-26T13:48:16Z</time></trkpt>
<trkpt lat="55.508639000" lon="-3.326295000"><ele>765.1</ele><time>2013-05-26T13:48:26Z</time></trkpt>
<trkpt lat="55.508555000" lon="-3.326220000"><ele>764.9</ele><time>2013-05-26T13:48:34Z</time></trkpt>
<trkpt lat="55.508480000" lon="-3.326131000"><ele>764.7</ele><time>2013-05-26T13:48:42Z</time></trkpt>
<trkpt lat="55.508442000" lon="-3.325981000"><ele>764.5</ele><time>2013-05-26T13:48:50Z</time></trkpt>
<trkpt lat="55.508355000" lon="-3.325914000"><ele>765.0</ele><time>2013-05-26T13:48:57Z</time></trkpt>
<trkpt lat="55.508259000" lon="-3.325878000"><ele>766.2</ele><time>2013-05-26T13:49:05Z</time></trkpt>
<trkpt lat="55.508186000" lon="-3.325770000"><ele>766.6</ele><time>2013-05-26T13:52:48Z</time></trkpt>
<trkpt lat="55.508179000" lon="-3.325611000"><ele>767.1</ele><time>2013-05-26T13:52:55Z</time></trkpt>
<trkpt lat="55.508118000" lon="-3.325482000"><ele>767.0</ele><time>2013-05-26T13:53:02Z</time></trkpt>
<trkpt lat="55.508047000" lon="-3.325368000"><ele>766.9</ele><time>2013-05-26T13:53:10Z</time></trkpt>
<trkpt lat="55.507959000" lon="-3.325304000"><ele>766.8</ele><time>2013-05-26T13:53:22Z</time></trkpt>
<trkpt lat="55.507864000" lon="-3.325214000"><ele>767.6</ele><time>2013-05-26T13:53:32Z</time></trkpt>
<trkpt lat="55.507793000" lon="-3.325083000"><ele>768.5</ele><time>2013-05-26T13:53:39Z</time></trkpt>
<trkpt lat="55.507751000" lon="-3.324927000"><ele>769.3</ele><time>2013-05-26T13:53:46Z</time></trkpt>
<trkpt lat="55.507674000" lon="-3.324824000"><ele>770.1</ele><time>2013-05-26T13:53:55Z</time></trkpt>
<trkpt lat="55.507599000" lon="-3.324721000"><ele>770.3</ele><time>2013-05-26T13:54:10Z</time></trkpt>
<trkpt lat="55.507565000" lon="-3.324554000"><ele>770.5</ele><time>2013-05-26T13:54:17Z</time></trkpt>
<trkpt lat="55.507506000" lon="-3.324428000"><ele>771.4</ele><time>2013-05-26T13:54:24Z</time></trkpt>
<trkpt lat="55.507427000" lon="-3.324333000"><ele>773.3</ele><time>2013-05-26T13:54:33Z</time></trkpt>
<trkpt lat="55.507351000" lon="-3.324246000"><ele>775.2</ele><time>2013-05-26T13:54:45Z</time></trkpt>
<trkpt lat="55.507291000" lon="-3.324119000"><ele>776.2</ele><time>2013-05-26T13:54:53Z</time></trkpt>
<trkpt lat="55.507267000" lon="-3.323963000"><ele>777.2</ele><time>2013-05-26T13:54:59Z</time></trkpt>
<trkpt lat="55.507192000" lon="-3.323843000"><ele>777.3</ele><time>2013-05-26T13:55:09Z</time></trkpt>
<trkpt lat="55.507199000" lon="-3.323677000"><ele>777.4</ele><time>2013-05-26T13:55:16Z</time></trkpt>
<trkpt lat="55.507149000" lon="-3.323534000"><ele>777.5</ele><time>2013-05-26T13:55:22Z</time></trkpt>
<trkpt lat="55.507087000" lon="-3.323415000"><ele>777.5</ele><time>2013-05-26T13:55:30Z</time></trkpt>
<trkpt lat="55.506998000" lon="-3.323381000"><ele>777.6</ele><time>2013-05-26T13:55:37Z</time></trkpt>
<trkpt lat="55.506900000" lon="-3.323372000"><ele>778.5</ele><time>2013-05-26T13:55:47Z</time></trkpt>
<trkpt lat="55.506834000" lon="-3.323242000"><ele>778.6</ele><time>2013-05-26T13:55:55Z</time></trkpt>
<trkpt lat="55.506789000" lon="-3.323093000"><ele>778.5</ele><time>2013-05-26T13:56:04Z</time></trkpt>
<trkpt lat="55.506729000" lon="-3.322956000"><ele>778.5</ele><time>2013-05-26T13:56:16Z</time></trkpt>
<trkpt lat="55.506644000" lon="-3.322864000"><ele>779.3</ele><time>2013-05-26T13:56:24Z</time></trkpt>
<trkpt lat="55.506579000" lon="-3.322723000"><ele>780.1</ele><time>2013-05-26T13:56:31Z</time></trkpt>
<trkpt lat="55.506492000" lon="-3.322802000"><ele>779.5</ele><time>2013-05-26T13:56:49Z</time></trkpt>
<trkpt lat="55.506419000" lon="-3.322701000"><ele>779.0</ele><time>2013-05-26T13:56:57Z</time></trkpt>
<trkpt lat="55.506375000" lon="-3.322560000"><ele>778.5</ele><time>2013-05-26T13:57:06Z</time></trkpt>
<trkpt lat="55.506400000" lon="-3.322405000"><ele>777.9</ele><time>2013-05-26T13:57:13Z</time></trkpt>
<trkpt lat="55.506329000" lon="-3.322300000"><ele>777.4</ele><time>2013-05-26T13:57:19Z</time></trkpt>
<trkpt lat="55.506254000" lon="-3.322194000"><ele>777.0</ele><time>2013-05-26T13:57:27Z</time></trkpt>
<trkpt lat="55.506162000" lon="-3.322132000"><ele>777.5</ele><time>2013-05-26T13:57:39Z</time></trkpt>
<trkpt lat="55.506062000" lon="-3.322062000"><ele>777.1</ele><time>2013-05-26T13:57:45Z</time></trkpt>
<trkpt lat="55.505969000" lon="-3.322034000"><ele>776.7</ele><time>2013-05-26T13:57:50Z</time></trkpt>
<trkpt lat="55.505872000" lon="-3.321996000"><ele>776.4</ele><time>2013-05-26T13:57:59Z</time></trkpt>
<trkpt lat="55.505791000" lon="-3.321913000"><ele>774.5</ele><time>2013-05-26T13:58:05Z</time></trkpt>
<trkpt lat="55.505733000" lon="-3.321755000"><ele>773.9</ele><time>2013-05-26T13:58:10Z</time></trkpt>
<trkpt lat="55.505645000" lon="-3.321717000"><ele>773.4</ele><time>2013-05-26T13:58:20Z</time></trkpt>
<trkpt lat="55.505557000" lon="-3.321645000"><ele>772.8</ele><time>2013-05-26T13:58:31Z</time></trkpt>
<trkpt lat="55.505489000" lon="-3.321513000"><ele>773.2</ele><time>2013-05-26T13:58:38Z</time></trkpt>
<trkpt lat="55.505421000" lon="-3.321407000"><ele>773.5</ele><time>2013-05-26T13:58:46Z</time></trkpt>
<trkpt lat="55.505355000" lon="-3.321282000"><ele>772.9</ele><time>2013-05-26T13:58:51Z</time></trkpt>
<trkpt lat="55.505279000" lon="-3.321196000"><ele>772.3</ele><time>2013-05-26T13:58:57Z</time></trkpt>
<trkpt lat="55.505185000" lon="-3.321144000"><ele>771.6</ele><time>2013-05-26T13:59:05Z</time></trkpt>
<trkpt lat="55.505092000" lon="-3.321141000"><ele>771.0</ele><time>2013-05-26T13:59:12Z</time></trkpt>
<trkpt lat="55.504990000" lon="-3.321141000"><ele>768.8</ele><time>2013-05-26T13:59:16Z</time></trkpt>
<trkpt lat="55.504921000" lon="-3.321027000"><ele>768.2</ele><time>2013-05-26T13:59:26Z</time></trkpt>
<trkpt lat="55.504853000" lon="-3.320899000"><ele>767.5</ele><time>2013-05-26T13:59:35Z</time></trkpt>
<trkpt lat="55.504763000" lon="-3.320827000"><ele>766.9</ele><time>2013-05-26T13:59:44Z</time></trkpt>
<trkpt lat="55.504672000" lon="-3.320756000"><ele>767.2</ele><time>2013-05-26T13:59:53Z</time></trkpt>
<trkpt lat="55.504571000" lon="-3.320758000"><ele>766.5</ele><time>2013-05-26T14:00:02Z</time></trkpt>
<trkpt lat="55.504530000" lon="-3.320589000"><ele>765.9</ele><time>2013-05-26T14:00:10Z</time></trkpt>
<trkpt lat="55.504458000" lon="-3.320484000"><ele>765.3</ele><time>2013-05-26T14:00:15Z</time></trkpt>
<trkpt lat="55.504407000" lon="-3.320334000"><ele>764.6</ele><time>2013-05-26T14:00:23Z</time></trkpt>
<trkpt lat="55.504388000" lon="-3.320158000"><ele>764.0</ele><time>2013-05-26T14:00:28Z</time></trkpt>
<trkpt lat="55.504310000" lon="-3.320066000"><ele>763.4</ele><time>2013-05-26T14:00:34Z</time></trkpt>
<trkpt lat="55.504247000" lon="-3.319924000"><ele>764.3</ele><time>2013-05-26T14:00:49Z</time></trkpt>
<trkpt lat="55.504193000" lon="-3.319780000"><ele>765.7</ele><time>2013-05-26T14:00:56Z</time></trkpt>
<trkpt lat="55.504133000" lon="-3.319655000"><ele>765.5</ele><time>2013-05-26T14:01:01Z</time></trkpt>
<trkpt lat="55.504054000" lon="-3.319542000"><ele>765.2</ele><time>2013-05-26T14:01:08Z</time></trkpt>
<trkpt lat="55.503972000" lon="-3.319627000"><ele>764.0</ele><time>2013-05-26T14:01:16Z</time></trkpt>
<trkpt lat="55.503886000" lon="-3.319549000"><ele>762.8</ele><time>2013-05-26T14:01:22Z</time></trkpt>
<trkpt lat="55.503821000" lon="-3.319432000"><ele>761.6</ele><time>2013-05-26T14:01:29Z</time></trkpt>
<trkpt lat="55.503726000" lon="-3.319409000"><ele>760.5</ele><time>2013-05-26T14:01:38Z</time></trkpt>
<trkpt lat="55.503695000" lon="-3.319252000"><ele>759.3</ele><time>2013-05-26T14:01:45Z</time></trkpt>
<trkpt lat="55.503614000" lon="-3.319156000"><ele>759.0</ele><time>2013-05-26T14:02:02Z</time></trkpt>
<trkpt lat="55.503551000" lon="-3.319019000"><ele>758.7</ele><time>2013-05-26T14:02:07Z</time></trkpt>
<trkpt lat="55.503478000" lon="-3.318913000"><ele>758.5</ele><time>2013-05-26T14:02:14Z</time></trkpt>
<trkpt lat="55.503446000" lon="-3.318759000"><ele>757.6</ele><time>2013-05-26T14:02:30Z</time></trkpt>
<trkpt lat="55.503364000" lon="-3.318693000"><ele>758.5</ele><time>2013-05-26T14:02:34Z</time></trkpt>
<trkpt lat="55.503303000" lon="-3.318570000"><ele>759.5</ele><time>2013-05-26T14:02:40Z</time></trkpt>
<trkpt lat="55.503264000" lon="-3.318419000"><ele>758.8</ele><time>2013-05-26T14:02:46Z</time></trkpt>
<trkpt lat="55.503163000" lon="-3.318454000"><ele>758.2</ele><time>2013-05-26T14:03:00Z</time></trkpt>
<trkpt lat="55.503063000" lon="-3.318404000"><ele>757.5</ele><time>2013-05-26T14:03:07Z</time></trkpt>
<trkpt lat="55.502999000" lon="-3.318271000"><ele>757.7</ele><time>2013-05-26T14:03:14Z</time></trkpt>
<trkpt lat="55.502944000" lon="-3.318145000"><ele>757.9</ele><time>2013-05-26T14:03:21Z</time></trkpt>
<trkpt lat="55.502850000" lon="-3.318078000"><ele>757.2</ele><time>2013-05-26T14:03:28Z</time></trkpt>
<trkpt lat="55.502758000" lon="-3.318042000"><ele>756.5</ele><time>2013-05-26T14:03:42Z</time></trkpt>
<trkpt lat="55.502691000" lon="-3.317920000"><ele>755.7</ele><time>2013-05-26T14:03:50Z</time></trkpt>
<trkpt lat="55.502663000" lon="-3.317748000"><ele>755.0</ele><time>2013-05-26T14:03:58Z</time></trkpt>
<trkpt lat="55.502573000" lon="-3.317671000"><ele>754.3</ele><time>2013-05-26T14:04:04Z</time></trkpt>
<trkpt lat="55.502474000" lon="-3.317620000"><ele>753.5</ele><time>2013-05-26T14:04:09Z</time></trkpt>
<trkpt lat="55.502384000" lon="-3.317568000"><ele>754.4</ele><time>2013-05-26T14:04:16Z</time></trkpt>
<trkpt lat="55.502296000" lon="-3.317605000"><ele>753.9</ele><time>2013-05-26T14:04:26Z</time></trkpt>
<trkpt lat="55.502242000" lon="-3.317450000"><ele>753.5</ele><time>2013-05-26T14:04:36Z</time></trkpt>
<trkpt lat="55.502262000" lon="-3.317278000"><ele>752.2</ele><time>2013-05-26T14:04:44Z</time></trkpt>
<trkpt lat="55.502202000" lon="-3.317157000"><ele>750.9</ele><time>2013-05-26T14:04:48Z</time></trkpt>
<trkpt lat="55.502120000" lon="-3.317090000"><ele>749.6</ele><time>2013-05-26T14:04:54Z</time></trkpt>
<trkpt lat="55.502086000" lon="-3.316938000"><ele>748.4</ele><time>2013-05-26T14:05:00Z</time></trkpt>
<trkpt lat="55.501998000" lon="-3.316883000"><ele>746.9</ele><time>2013-05-26T14:05:12Z</time></trkpt>
<trkpt lat="55.501931000" lon="-3.316737000"><ele>745.5</ele><time>2013-05-26T14:05:19Z</time></trkpt>
<trkpt lat="55.501846000" lon="-3.316657000"><ele>744.0</ele><time>2013-05-26T14:05:28Z</time></trkpt>
<trkpt lat="55.501794000" lon="-3.316516000"><ele>742.5</ele><time>2013-05-26T14:05:36Z</time></trkpt>
<trkpt lat="55.501740000" lon="-3.316370000"><ele>741.1</ele><time>2013-05-26T14:05:49Z</time></trkpt>
<trkpt lat="55.501717000" lon="-3.316200000"><ele>740.7</ele><time>2013-05-26T14:05:56Z</time></trkpt>
<trkpt lat="55.501686000" lon="-3.316020000"><ele>740.4</ele><time>2013-05-26T14:06:05Z</time></trkpt>
<trkpt lat="55.501654000" lon="-3.315847000"><ele>740.0</ele><time>2013-05-26T14:07:00Z</time></trkpt>
<trkpt lat="55.501680000" lon="-3.315660000"><ele>739.6</ele><time>2013-05-26T14:07:08Z</time></trkpt>
<trkpt lat="55.501711000" lon="-3.315500000"><ele>739.3</ele><time>2013-05-26T14:07:11Z</time></trkpt>
<trkpt lat="55.501667000" lon="-3.315350000"><ele>738.3</ele><time>2013-05-26T14:07:18Z</time></trkpt>
<trkpt lat="55.501656000" lon="-3.315176000"><ele>737.5</ele><time>2013-05-26T14:07:30Z</time></trkpt>
<trkpt lat="55.501654000" lon="-3.315007000"><ele>736.6</ele><time>2013-05-26T14:07:40Z</time></trkpt>
<trkpt lat="55.501664000" lon="-3.314835000"><ele>735.8</ele><time>2013-05-26T14:07:51Z</time></trkpt>
<trkpt lat="55.501684000" lon="-3.314672000"><ele>735.0</ele><time>2013-05-26T14:08:03Z</time></trkpt>
<trkpt lat="55.501711000" lon="-3.314513000"><ele>733.5</ele><time>2013-05-26T14:08:19Z</time></trkpt>
<trkpt lat="55.501726000" lon="-3.314327000"><ele>732.3</ele><time>2013-05-26T14:08:25Z</time></trkpt>
<trkpt lat="55.501748000" lon="-3.314171000"><ele>731.0</ele><time>2013-05-26T14:08:33Z</time></trkpt>
<trkpt lat="55.501775000" lon="-3.314016000"><ele>729.7</ele><time>2013-05-26T14:08:46Z</time></trkpt>
<trkpt lat="55.501819000" lon="-3.313876000"><ele>728.5</ele><time>2013-05-26T14:08:55Z</time></trkpt>
<trkpt lat="55.501818000" lon="-3.313712000"><ele>727.2</ele><time>2013-05-26T14:09:22Z</time></trkpt>
<trkpt lat="55.501798000" lon="-3.313530000"><ele>726.5</ele><time>2013-05-26T14:09:31Z</time></trkpt>
<trkpt lat="55.501805000" lon="-3.313370000"><ele>725.9</ele><time>2013-05-26T14:09:40Z</time></trkpt>
<trkpt lat="55.501742000" lon="-3.313245000"><ele>723.1</ele><time>2013-05-26T14:09:49Z</time></trkpt>
<trkpt lat="55.501663000" lon="-3.313156000"><ele>720.3</ele><time>2013-05-26T14:09:56Z</time></trkpt>
<trkpt lat="55.501568000" lon="-3.313094000"><ele>717.5</ele><time>2013-05-26T14:10:04Z</time></trkpt>
<trkpt lat="55.501467000" lon="-3.313106000"><ele>715.3</ele><time>2013-05-26T14:10:12Z</time></trkpt>
<trkpt lat="55.501369000" lon="-3.313061000"><ele>713.1</ele><time>2013-05-26T14:10:23Z</time></trkpt>
<trkpt lat="55.501275000" lon="-3.313072000"><ele>710.9</ele><time>2013-05-26T14:10:44Z</time></trkpt>
<trkpt lat="55.501177000" lon="-3.313051000"><ele>708.7</ele><time>2013-05-26T14:10:54Z</time></trkpt>
<trkpt lat="55.501083000" lon="-3.313006000"><ele>706.3</ele><time>2013-05-26T14:11:02Z</time></trkpt>
<trkpt lat="55.500993000" lon="-3.313014000"><ele>703.8</ele><time>2013-05-26T14:11:12Z</time></trkpt>
<trkpt lat="55.500894000" lon="-3.312958000"><ele>699.3</ele><time>2013-05-26T14:11:19Z</time></trkpt>
<trkpt lat="55.500793000" lon="-3.312967000"><ele>694.7</ele><time>2013-05-26T14:11:24Z</time></trkpt>
<trkpt lat="55.500703000" lon="-3.312886000"><ele>692.4</ele><time>2013-05-26T14:11:36Z</time></trkpt>
<trkpt lat="55.500629000" lon="-3.312776000"><ele>690.0</ele><time>2013-05-26T14:11:45Z</time></trkpt>
<trkpt lat="55.500551000" lon="-3.312689000"><ele>687.6</ele><time>2013-05-26T14:11:57Z</time></trkpt>
<trkpt lat="55.500452000" lon="-3.312652000"><ele>685.3</ele><time>2013-05-26T14:12:04Z</time></trkpt>
<trkpt lat="55.500356000" lon="-3.312630000"><ele>682.9</ele><time>2013-05-26T14:12:17Z</time></trkpt>
<trkpt lat="55.500298000" lon="-3.312494000"><ele>680.5</ele><time>2013-05-26T14:12:29Z</time></trkpt>
<trkpt lat="55.500212000" lon="-3.312417000"><ele>678.2</ele><time>2013-05-26T14:12:37Z</time></trkpt>
<trkpt lat="55.500114000" lon="-3.312406000"><ele>676.1</ele><time>2013-05-26T14:12:43Z</time></trkpt>
<trkpt lat="55.500026000" lon="-3.312361000"><ele>672.1</ele><time>2013-05-26T14:12:51Z</time></trkpt>
<trkpt lat="55.500002000" lon="-3.312202000"><ele>670.2</ele><time>2013-05-26T14:13:01Z</time></trkpt>
<trkpt lat="55.499912000" lon="-3.312239000"><ele>668.3</ele><time>2013-05-26T14:13:10Z</time></trkpt>
<trkpt lat="55.499824000" lon="-3.312198000"><ele>665.9</ele><time>2013-05-26T14:13:19Z</time></trkpt>
<trkpt lat="55.499748000" lon="-3.312087000"><ele>663.5</ele><time>2013-05-26T14:13:26Z</time></trkpt>
<trkpt lat="55.499626000" lon="-3.312071000"><ele>661.2</ele><time>2013-05-26T14:13:38Z</time></trkpt>
<trkpt lat="55.499535000" lon="-3.312023000"><ele>658.8</ele><time>2013-05-26T14:13:43Z</time></trkpt>
<trkpt lat="55.499442000" lon="-3.311977000"><ele>656.5</ele><time>2013-05-26T14:13:50Z</time></trkpt>
<trkpt lat="55.499340000" lon="-3.311945000"><ele>654.1</ele><time>2013-05-26T14:13:58Z</time></trkpt>
<trkpt lat="55.499251000" lon="-3.311874000"><ele>651.7</ele><time>2013-05-26T14:14:12Z</time></trkpt>
<trkpt lat="55.499168000" lon="-3.311771000"><ele>649.4</ele><time>2013-05-26T14:14:20Z</time></trkpt>
<trkpt lat="55.499104000" lon="-3.311660000"><ele>647.2</ele><time>2013-05-26T14:14:27Z</time></trkpt>
<trkpt lat="55.499008000" lon="-3.311594000"><ele>645.0</ele><time>2013-05-26T14:14:34Z</time></trkpt>
<trkpt lat="55.498891000" lon="-3.311656000"><ele>642.8</ele><time>2013-05-26T14:14:47Z</time></trkpt>
<trkpt lat="55.498850000" lon="-3.311512000"><ele>641.1</ele><time>2013-05-26T14:14:49Z</time></trkpt>
<trkpt lat="55.498800000" lon="-3.311346000"><ele>639.4</ele><time>2013-05-26T14:15:00Z</time></trkpt>
<trkpt lat="55.498703000" lon="-3.311358000"><ele>637.6</ele><time>2013-05-26T14:15:06Z</time></trkpt>
<trkpt lat="55.498614000" lon="-3.311284000"><ele>635.9</ele><time>2013-05-26T14:15:12Z</time></trkpt>
<trkpt lat="55.498537000" lon="-3.311182000"><ele>634.2</ele><time>2013-05-26T14:15:18Z</time></trkpt>
<trkpt lat="55.498456000" lon="-3.311255000"><ele>632.5</ele><time>2013-05-26T14:15:26Z</time></trkpt>
<trkpt lat="55.498376000" lon="-3.311173000"><ele>630.7</ele><time>2013-05-26T14:15:39Z</time></trkpt>
<trkpt lat="55.498312000" lon="-3.311042000"><ele>627.2</ele><time>2013-05-26T14:15:48Z</time></trkpt>
<trkpt lat="55.498221000" lon="-3.311008000"><ele>625.4</ele><time>2013-05-26T14:15:55Z</time></trkpt>
<trkpt lat="55.498128000" lon="-3.311015000"><ele>623.5</ele><time>2013-05-26T14:16:09Z</time></trkpt>
<trkpt lat="55.498044000" lon="-3.310946000"><ele>621.7</ele><time>2013-05-26T14:16:16Z</time></trkpt>
<trkpt lat="55.497952000" lon="-3.310995000"><ele>619.9</ele><time>2013-05-26T14:16:22Z</time></trkpt>
<trkpt lat="55.497859000" lon="-3.310948000"><ele>618.1</ele><time>2013-05-26T14:16:37Z</time></trkpt>
<trkpt lat="55.497760000" lon="-3.310890000"><ele>616.3</ele><time>2013-05-26T14:16:42Z</time></trkpt>
<trkpt lat="55.497667000" lon="-3.310849000"><ele>614.5</ele><time>2013-05-26T14:16:56Z</time></trkpt>
<trkpt lat="55.497610000" lon="-3.310711000"><ele>612.6</ele><time>2013-05-26T14:17:17Z</time></trkpt>
<trkpt lat="55.497561000" lon="-3.310575000"><ele>610.8</ele><time>2013-05-26T14:17:23Z</time></trkpt>
<trkpt lat="55.497488000" lon="-3.310443000"><ele>609.0</ele><time>2013-05-26T14:17:31Z</time></trkpt>
<trkpt lat="55.497467000" lon="-3.310283000"><ele>608.0</ele><time>2013-05-26T14:17:38Z</time></trkpt>
<trkpt lat="55.497392000" lon="-3.310171000"><ele>607.0</ele><time>2013-05-26T14:17:44Z</time></trkpt>
<trkpt lat="55.497330000" lon="-3.310056000"><ele>606.0</ele><time>2013-05-26T14:17:54Z</time></trkpt>
<trkpt lat="55.497240000" lon="-3.309980000"><ele>605.0</ele><time>2013-05-26T14:18:02Z</time></trkpt>
<trkpt lat="55.497153000" lon="-3.309899000"><ele>604.0</ele><time>2013-05-26T14:18:10Z</time></trkpt>
<trkpt lat="55.497073000" lon="-3.309786000"><ele>603.0</ele><time>2013-05-26T14:18:16Z</time></trkpt>
<trkpt lat="55.496971000" lon="-3.309774000"><ele>602.0</ele><time>2013-05-26T14:18:22Z</time></trkpt>
<trkpt lat="55.496861000" lon="-3.309753000"><ele>601.9</ele><time>2013-05-26T14:18:35Z</time></trkpt>
<trkpt lat="55.496769000" lon="-3.309741000"><ele>601.8</ele><time>2013-05-26T14:18:40Z</time></trkpt>
<trkpt lat="55.496673000" lon="-3.309720000"><ele>601.6</ele><time>2013-05-26T14:18:47Z</time></trkpt>
<trkpt lat="55.496585000" lon="-3.309668000"><ele>601.5</ele><time>2013-05-26T14:18:54Z</time></trkpt>
<trkpt lat="55.496506000" lon="-3.309572000"><ele>602.3</ele><time>2013-05-26T14:19:02Z</time></trkpt>
<trkpt lat="55.496434000" lon="-3.309464000"><ele>603.1</ele><time>2013-05-26T14:19:14Z</time></trkpt>
<trkpt lat="55.496363000" lon="-3.309356000"><ele>603.9</ele><time>2013-05-26T14:19:21Z</time></trkpt>
<trkpt lat="55.496287000" lon="-3.309250000"><ele>605.9</ele><time>2013-05-26T14:19:28Z</time></trkpt>
<trkpt lat="55.496212000" lon="-3.309145000"><ele>607.9</ele><time>2013-05-26T14:19:42Z</time></trkpt>
<trkpt lat="55.496151000" lon="-3.309024000"><ele>609.9</ele><time>2013-05-26T14:20:16Z</time></trkpt>
<trkpt lat="55.496067000" lon="-3.308954000"><ele>611.9</ele><time>2013-05-26T14:20:34Z</time></trkpt>
<trkpt lat="55.496014000" lon="-3.308805000"><ele>613.0</ele><time>2013-05-26T14:20:42Z</time></trkpt>
<trkpt lat="55.495961000" lon="-3.308673000"><ele>614.1</ele><time>2013-05-26T14:20:47Z</time></trkpt>
<trkpt lat="55.495892000" lon="-3.308564000"><ele>615.3</ele><time>2013-05-26T14:20:57Z</time></trkpt>
<trkpt lat="55.495822000" lon="-3.308458000"><ele>616.8</ele><time>2013-05-26T14:21:12Z</time></trkpt>
<trkpt lat="55.495806000" lon="-3.308290000"><ele>618.4</ele><time>2013-05-26T14:21:21Z</time></trkpt>
<trkpt lat="55.495744000" lon="-3.308162000"><ele>619.9</ele><time>2013-05-26T14:21:31Z</time></trkpt>
<trkpt lat="55.495686000" lon="-3.308035000"><ele>621.5</ele><time>2013-05-26T14:21:41Z</time></trkpt>
<trkpt lat="55.495618000" lon="-3.307903000"><ele>621.8</ele><time>2013-05-26T14:21:53Z</time></trkpt>
<trkpt lat="55.495576000" lon="-3.307758000"><ele>622.2</ele><time>2013-05-26T14:22:07Z</time></trkpt>
<trkpt lat="55.495533000" lon="-3.307618000"><ele>623.0</ele><time>2013-05-26T14:22:14Z</time></trkpt>
<trkpt lat="55.495516000" lon="-3.307449000"><ele>623.8</ele><time>2013-05-26T14:22:35Z</time></trkpt>
<trkpt lat="55.495550000" lon="-3.307302000"><ele>624.6</ele><time>2013-05-26T14:22:45Z</time></trkpt>
<trkpt lat="55.495604000" lon="-3.307168000"><ele>625.5</ele><time>2013-05-26T14:22:54Z</time></trkpt>
<trkpt lat="55.495664000" lon="-3.307037000"><ele>626.3</ele><time>2013-05-26T14:23:06Z</time></trkpt>
<trkpt lat="55.495702000" lon="-3.306888000"><ele>626.3</ele><time>2013-05-26T14:23:20Z</time></trkpt>
<trkpt lat="55.495726000" lon="-3.306733000"><ele>626.3</ele><time>2013-05-26T14:23:28Z</time></trkpt>
<trkpt lat="55.495777000" lon="-3.306599000"><ele>626.3</ele><time>2013-05-26T14:23:37Z</time></trkpt>
<trkpt lat="55.495762000" lon="-3.306767000"><ele>625.4</ele><time>2013-05-26T14:24:26Z</time></trkpt>
<trkpt lat="55.495716000" lon="-3.306912000"><ele>624.5</ele><time>2013-05-26T14:24:35Z</time></trkpt>
<trkpt lat="55.495686000" lon="-3.307081000"><ele>623.5</ele><time>2013-05-26T14:24:44Z</time></trkpt>
<trkpt lat="55.495623000" lon="-3.307212000"><ele>622.2</ele><time>2013-05-26T14:24:59Z</time></trkpt>
<trkpt lat="55.495532000" lon="-3.307166000"><ele>620.8</ele><time>2013-05-26T14:27:26Z</time></trkpt>
<trkpt lat="55.495461000" lon="-3.307288000"><ele>620.0</ele><time>2013-05-26T14:27:37Z</time></trkpt>
<trkpt lat="55.495386000" lon="-3.307402000"><ele>619.2</ele><time>2013-05-26T14:27:47Z</time></trkpt>
<trkpt lat="55.495314000" lon="-3.307286000"><ele>618.4</ele><time>2013-05-26T14:28:13Z</time></trkpt>
<trkpt lat="55.495240000" lon="-3.307170000"><ele>618.0</ele><time>2013-05-26T14:28:21Z</time></trkpt>
<trkpt lat="55.495160000" lon="-3.307075000"><ele>617.6</ele><time>2013-05-26T14:28:28Z</time></trkpt>
<trkpt lat="55.495092000" lon="-3.306965000"><ele>617.3</ele><time>2013-05-26T14:28:43Z</time></trkpt>
<trkpt lat="55.495028000" lon="-3.306829000"><ele>616.0</ele><time>2013-05-26T14:28:54Z</time></trkpt>
<trkpt lat="55.494943000" lon="-3.306742000"><ele>614.7</ele><time>2013-05-26T14:29:02Z</time></trkpt>
<trkpt lat="55.494871000" lon="-3.306614000"><ele>613.5</ele><time>2013-05-26T14:29:12Z</time></trkpt>
<trkpt lat="55.494788000" lon="-3.306538000"><ele>612.2</ele><time>2013-05-26T14:29:22Z</time></trkpt>
<trkpt lat="55.494700000" lon="-3.306502000"><ele>610.9</ele><time>2013-05-26T14:29:34Z</time></trkpt>
<trkpt lat="55.494631000" lon="-3.306390000"><ele>609.1</ele><time>2013-05-26T14:29:41Z</time></trkpt>
<trkpt lat="55.494574000" lon="-3.306267000"><ele>607.3</ele><time>2013-05-26T14:29:48Z</time></trkpt>
<trkpt lat="55.494537000" lon="-3.306106000"><ele>605.5</ele><time>2013-05-26T14:29:53Z</time></trkpt>
<trkpt lat="55.494495000" lon="-3.305945000"><ele>603.6</ele><time>2013-05-26T14:29:59Z</time></trkpt>
<trkpt lat="55.494422000" lon="-3.305846000"><ele>601.8</ele><time>2013-05-26T14:30:05Z</time></trkpt>
<trkpt lat="55.494390000" lon="-3.305690000"><ele>600.0</ele><time>2013-05-26T14:30:12Z</time></trkpt>
<trkpt lat="55.494295000" lon="-3.305656000"><ele>600.0</ele><time>2013-05-26T14:30:23Z</time></trkpt>
<trkpt lat="55.494250000" lon="-3.305502000"><ele>600.0</ele><time>2013-05-26T14:30:31Z</time></trkpt>
<trkpt lat="55.494193000" lon="-3.305358000"><ele>600.0</ele><time>2013-05-26T14:30:39Z</time></trkpt>
<trkpt lat="55.494129000" lon="-3.305203000"><ele>599.8</ele><time>2013-05-26T14:30:48Z</time></trkpt>
<trkpt lat="55.494092000" lon="-3.305050000"><ele>599.6</ele><time>2013-05-26T14:30:55Z</time></trkpt>
<trkpt lat="55.494034000" lon="-3.304907000"><ele>599.5</ele><time>2013-05-26T14:31:02Z</time></trkpt>
<trkpt lat="55.493992000" lon="-3.304735000"><ele>599.3</ele><time>2013-05-26T14:31:08Z</time></trkpt>
<trkpt lat="55.493948000" lon="-3.304574000"><ele>599.1</ele><time>2013-05-26T14:31:14Z</time></trkpt>
<trkpt lat="55.493895000" lon="-3.304444000"><ele>596.8</ele><time>2013-05-26T14:31:21Z</time></trkpt>
<trkpt lat="55.493863000" lon="-3.304288000"><ele>594.5</ele><time>2013-05-26T14:31:27Z</time></trkpt>
<trkpt lat="55.493849000" lon="-3.304119000"><ele>592.3</ele><time>2013-05-26T14:31:39Z</time></trkpt>
<trkpt lat="55.493814000" lon="-3.303953000"><ele>590.0</ele><time>2013-05-26T14:31:47Z</time></trkpt>
<trkpt lat="55.493767000" lon="-3.303804000"><ele>587.7</ele><time>2013-05-26T14:31:53Z</time></trkpt>
<trkpt lat="55.493714000" lon="-3.303660000"><ele>585.5</ele><time>2013-05-26T14:32:03Z</time></trkpt>
<trkpt lat="55.493715000" lon="-3.303486000"><ele>583.6</ele><time>2013-05-26T14:32:09Z</time></trkpt>
<trkpt lat="55.493710000" lon="-3.303323000"><ele>581.8</ele><time>2013-05-26T14:32:14Z</time></trkpt>
<trkpt lat="55.493640000" lon="-3.303217000"><ele>580.0</ele><time>2013-05-26T14:32:25Z</time></trkpt>
<trkpt lat="55.493597000" lon="-3.303071000"><ele>578.2</ele><time>2013-05-26T14:32:36Z</time></trkpt>
<trkpt lat="55.493626000" lon="-3.302913000"><ele>576.4</ele><time>2013-05-26T14:32:41Z</time></trkpt>
<trkpt lat="55.493590000" lon="-3.302756000"><ele>576.6</ele><time>2013-05-26T14:32:56Z</time></trkpt>
<trkpt lat="55.493521000" lon="-3.302639000"><ele>577.2</ele><time>2013-05-26T14:33:05Z</time></trkpt>
<trkpt lat="55.493474000" lon="-3.302494000"><ele>577.7</ele><time>2013-05-26T14:33:11Z</time></trkpt>
<trkpt lat="55.493488000" lon="-3.302329000"><ele>578.3</ele><time>2013-05-26T14:33:18Z</time></trkpt>
<trkpt lat="55.493502000" lon="-3.302160000"><ele>578.8</ele><time>2013-05-26T14:33:25Z</time></trkpt>
<trkpt lat="55.493447000" lon="-3.302019000"><ele>579.4</ele><time>2013-05-26T14:33:33Z</time></trkpt>
<trkpt lat="55.493396000" lon="-3.301877000"><ele>579.6</ele><time>2013-05-26T14:33:40Z</time></trkpt>
<trkpt lat="55.493371000" lon="-3.301713000"><ele>580.9</ele><time>2013-05-26T14:33:46Z</time></trkpt>
<trkpt lat="55.493340000" lon="-3.301564000"><ele>582.2</ele><time>2013-05-26T14:33:57Z</time></trkpt>
<trkpt lat="55.493246000" lon="-3.301489000"><ele>583.5</ele><time>2013-05-26T14:34:08Z</time></trkpt>
<trkpt lat="55.493177000" lon="-3.301376000"><ele>584.7</ele><time>2013-05-26T14:34:14Z</time></trkpt>
<trkpt lat="55.493178000" lon="-3.301203000"><ele>584.5</ele><time>2013-05-26T14:34:22Z</time></trkpt>
<trkpt lat="55.493143000" lon="-3.301047000"><ele>584.1</ele><time>2013-05-26T14:34:39Z</time></trkpt>
<trkpt lat="55.493085000" lon="-3.300906000"><ele>585.2</ele><time>2013-05-26T14:34:48Z</time></trkpt>
<trkpt lat="55.493043000" lon="-3.300756000"><ele>586.3</ele><time>2013-05-26T14:35:07Z</time></trkpt>
<trkpt lat="55.492973000" lon="-3.300640000"><ele>587.4</ele><time>2013-05-26T14:35:28Z</time></trkpt>
<trkpt lat="55.492902000" lon="-3.300534000"><ele>588.5</ele><time>2013-05-26T14:35:38Z</time></trkpt>
<trkpt lat="55.492863000" lon="-3.300390000"><ele>589.5</ele><time>2013-05-26T14:35:54Z</time></trkpt>
<trkpt lat="55.492875000" lon="-3.300202000"><ele>590.7</ele><time>2013-05-26T14:36:11Z</time></trkpt>
<trkpt lat="55.492844000" lon="-3.300049000"><ele>592.7</ele><time>2013-05-26T14:36:35Z</time></trkpt>
<trkpt lat="55.492840000" lon="-3.299878000"><ele>594.7</ele><time>2013-05-26T14:36:52Z</time></trkpt>
<trkpt lat="55.492869000" lon="-3.299722000"><ele>596.7</ele><time>2013-05-26T14:37:03Z</time></trkpt>
<trkpt lat="55.492866000" lon="-3.299558000"><ele>600.2</ele><time>2013-05-26T14:37:39Z</time></trkpt>
<trkpt lat="55.492921000" lon="-3.299385000"><ele>604.5</ele><time>2013-05-26T14:37:58Z</time></trkpt>
<trkpt lat="55.492944000" lon="-3.299227000"><ele>607.4</ele><time>2013-05-26T14:38:08Z</time></trkpt>
<trkpt lat="55.492986000" lon="-3.299076000"><ele>610.2</ele><time>2013-05-26T14:38:18Z</time></trkpt>
<trkpt lat="55.493016000" lon="-3.298910000"><ele>613.0</ele><time>2013-05-26T14:38:30Z</time></trkpt>
<trkpt lat="55.493037000" lon="-3.298747000"><ele>615.8</ele><time>2013-05-26T14:38:40Z</time></trkpt>
<trkpt lat="55.493076000" lon="-3.298602000"><ele>618.8</ele><time>2013-05-26T14:38:53Z</time></trkpt>
<trkpt lat="55.493102000" lon="-3.298449000"><ele>620.7</ele><time>2013-05-26T14:39:06Z</time></trkpt>
<trkpt lat="55.493136000" lon="-3.298286000"><ele>621.8</ele><time>2013-05-26T14:39:23Z</time></trkpt>
<trkpt lat="55.493194000" lon="-3.298153000"><ele>622.9</ele><time>2013-05-26T14:39:32Z</time></trkpt>
<trkpt lat="55.493231000" lon="-3.297994000"><ele>624.0</ele><time>2013-05-26T14:39:43Z</time></trkpt>
<trkpt lat="55.493201000" lon="-3.297832000"><ele>625.1</ele><time>2013-05-26T14:39:53Z</time></trkpt>
<trkpt lat="55.493138000" lon="-3.297713000"><ele>625.3</ele><time>2013-05-26T14:40:03Z</time></trkpt>
<trkpt lat="55.493053000" lon="-3.297649000"><ele>625.5</ele><time>2013-05-26T14:40:13Z</time></trkpt>
<trkpt lat="55.493014000" lon="-3.297498000"><ele>625.9</ele><time>2013-05-26T14:40:23Z</time></trkpt>
<trkpt lat="55.493000000" lon="-3.297332000"><ele>626.4</ele><time>2013-05-26T14:40:32Z</time></trkpt>
<trkpt lat="55.493075000" lon="-3.297220000"><ele>626.8</ele><time>2013-05-26T14:40:39Z</time></trkpt>
<trkpt lat="55.493059000" lon="-3.297047000"><ele>627.1</ele><time>2013-05-26T14:40:50Z</time></trkpt>
<trkpt lat="55.492967000" lon="-3.297084000"><ele>627.4</ele><time>2013-05-26T14:41:09Z</time></trkpt>
<trkpt lat="55.492962000" lon="-3.296906000"><ele>627.9</ele><time>2013-05-26T14:41:12Z</time></trkpt>
<trkpt lat="55.492936000" lon="-3.296726000"><ele>628.5</ele><time>2013-05-26T14:41:18Z</time></trkpt>
<trkpt lat="55.492887000" lon="-3.296565000"><ele>629.0</ele><time>2013-05-26T14:41:23Z</time></trkpt>
<trkpt lat="55.492858000" lon="-3.296403000"><ele>629.5</ele><time>2013-05-26T14:41:38Z</time></trkpt>
<trkpt lat="55.492802000" lon="-3.296268000"><ele>630.1</ele><time>2013-05-26T14:41:47Z</time></trkpt>
<trkpt lat="55.492804000" lon="-3.296095000"><ele>630.9</ele><time>2013-05-26T14:41:55Z</time></trkpt>
<trkpt lat="55.492770000" lon="-3.295944000"><ele>631.5</ele><time>2013-05-26T14:42:04Z</time></trkpt>
<trkpt lat="55.492764000" lon="-3.295772000"><ele>632.0</ele><time>2013-05-26T14:42:11Z</time></trkpt>
<trkpt lat="55.492783000" lon="-3.295606000"><ele>632.5</ele><time>2013-05-26T14:42:17Z</time></trkpt>
<trkpt lat="55.492701000" lon="-3.295493000"><ele>633.1</ele><time>2013-05-26T14:42:22Z</time></trkpt>
<trkpt lat="55.492654000" lon="-3.295320000"><ele>633.6</ele><time>2013-05-26T14:42:33Z</time></trkpt>
<trkpt lat="55.492695000" lon="-3.295179000"><ele>633.5</ele><time>2013-05-26T14:42:44Z</time></trkpt>
<trkpt lat="55.492736000" lon="-3.295035000"><ele>633.3</ele><time>2013-05-26T14:42:51Z</time></trkpt>
<trkpt lat="55.492764000" lon="-3.294882000"><ele>633.1</ele><time>2013-05-26T14:42:57Z</time></trkpt>
<trkpt lat="55.492835000" lon="-3.294777000"><ele>632.9</ele><time>2013-05-26T14:43:14Z</time></trkpt>
<trkpt lat="55.492874000" lon="-3.294613000"><ele>632.7</ele><time>2013-05-26T14:43:26Z</time></trkpt>
<trkpt lat="55.492880000" lon="-3.294444000"><ele>631.8</ele><time>2013-05-26T14:43:38Z</time></trkpt>
<trkpt lat="55.492834000" lon="-3.294308000"><ele>630.9</ele><time>2013-05-26T14:43:45Z</time></trkpt>
<trkpt lat="55.492810000" lon="-3.294141000"><ele>630.0</ele><time>2013-05-26T14:44:04Z</time></trkpt>
<trkpt lat="55.492863000" lon="-3.294007000"><ele>629.1</ele><time>2013-05-26T14:44:32Z</time></trkpt>
<trkpt lat="55.492819000" lon="-3.293855000"><ele>628.2</ele><time>2013-05-26T14:44:54Z</time></trkpt>
<trkpt lat="55.492781000" lon="-3.293695000"><ele>627.3</ele><time>2013-05-26T14:45:03Z</time></trkpt>
<trkpt lat="55.492774000" lon="-3.293531000"><ele>625.5</ele><time>2013-05-26T14:45:22Z</time></trkpt>
<trkpt lat="55.492768000" lon="-3.293311000"><ele>623.8</ele><time>2013-05-26T14:45:58Z</time></trkpt>
<trkpt lat="55.492771000" lon="-3.293136000"><ele>622.1</ele><time>2013-05-26T14:46:05Z</time></trkpt>
<trkpt lat="55.492781000" lon="-3.292959000"><ele>620.4</ele><time>2013-05-26T14:46:15Z</time></trkpt>
<trkpt lat="55.492759000" lon="-3.292793000"><ele>618.6</ele><time>2013-05-26T14:46:26Z</time></trkpt>
<trkpt lat="55.492758000" lon="-3.292616000"><ele>616.1</ele><time>2013-05-26T14:46:35Z</time></trkpt>
<trkpt lat="55.492729000" lon="-3.292454000"><ele>613.5</ele><time>2013-05-26T14:46:44Z</time></trkpt>
<trkpt lat="55.492745000" lon="-3.292293000"><ele>611.0</ele><time>2013-05-26T14:47:10Z</time></trkpt>
<trkpt lat="55.492755000" lon="-3.292134000"><ele>608.5</ele><time>2013-05-26T14:47:19Z</time></trkpt>
<trkpt lat="55.492731000" lon="-3.291968000"><ele>605.9</ele><time>2013-05-26T14:47:29Z</time></trkpt>
<trkpt lat="55.492719000" lon="-3.291807000"><ele>601.8</ele><time>2013-05-26T14:47:42Z</time></trkpt>
<trkpt lat="55.492701000" lon="-3.291646000"><ele>599.0</ele><time>2013-05-26T14:48:04Z</time></trkpt>
<trkpt lat="55.492646000" lon="-3.291507000"><ele>596.2</ele><time>2013-05-26T14:48:26Z</time></trkpt>
<trkpt lat="55.492631000" lon="-3.291344000"><ele>593.4</ele><time>2013-05-26T14:48:40Z</time></trkpt>
<trkpt lat="55.492646000" lon="-3.291181000"><ele>590.5</ele><time>2013-05-26T14:48:51Z</time></trkpt>
<trkpt lat="55.492672000" lon="-3.291021000"><ele>586.1</ele><time>2013-05-26T14:48:59Z</time></trkpt>
<trkpt lat="55.492631000" lon="-3.290868000"><ele>582.9</ele><time>2013-05-26T14:49:09Z</time></trkpt>
<trkpt lat="55.492634000" lon="-3.290706000"><ele>579.7</ele><time>2013-05-26T14:49:32Z</time></trkpt>
<trkpt lat="55.492603000" lon="-3.290549000"><ele>576.5</ele><time>2013-05-26T14:49:49Z</time></trkpt>
<trkpt lat="55.492617000" lon="-3.290384000"><ele>573.4</ele><time>2013-05-26T14:50:04Z</time></trkpt>
<trkpt lat="55.492643000" lon="-3.290230000"><ele>568.9</ele><time>2013-05-26T14:50:18Z</time></trkpt>
<trkpt lat="55.492617000" lon="-3.290075000"><ele>566.0</ele><time>2013-05-26T14:50:33Z</time></trkpt>
<trkpt lat="55.492621000" lon="-3.289915000"><ele>563.1</ele><time>2013-05-26T14:50:47Z</time></trkpt>
<trkpt lat="55.492631000" lon="-3.289751000"><ele>560.2</ele><time>2013-05-26T14:51:06Z</time></trkpt>
<trkpt lat="55.492618000" lon="-3.289592000"><ele>557.3</ele><time>2013-05-26T14:51:20Z</time></trkpt>
<trkpt lat="55.492599000" lon="-3.289421000"><ele>554.4</ele><time>2013-05-26T14:52:12Z</time></trkpt>
<trkpt lat="55.492534000" lon="-3.289291000"><ele>552.2</ele><time>2013-05-26T14:52:19Z</time></trkpt>
<trkpt lat="55.492448000" lon="-3.289218000"><ele>550.0</ele><time>2013-05-26T14:52:41Z</time></trkpt>
<trkpt lat="55.492362000" lon="-3.289127000"><ele>547.8</ele><time>2013-05-26T14:52:51Z</time></trkpt>
<trkpt lat="55.492270000" lon="-3.289092000"><ele>545.6</ele><time>2013-05-26T14:53:01Z</time></trkpt>
<trkpt lat="55.492185000" lon="-3.289162000"><ele>542.7</ele><time>2013-05-26T14:53:19Z</time></trkpt>
<trkpt lat="55.492097000" lon="-3.289121000"><ele>541.1</ele><time>2013-05-26T14:53:28Z</time></trkpt>
<trkpt lat="55.492038000" lon="-3.288993000"><ele>539.5</ele><time>2013-05-26T14:53:41Z</time></trkpt>
<trkpt lat="55.491970000" lon="-3.288858000"><ele>537.8</ele><time>2013-05-26T14:53:51Z</time></trkpt>
<trkpt lat="55.491986000" lon="-3.288682000"><ele>536.2</ele><time>2013-05-26T14:54:04Z</time></trkpt>
<trkpt lat="55.491993000" lon="-3.288518000"><ele>533.8</ele><time>2013-05-26T14:54:09Z</time></trkpt>
<trkpt lat="55.491927000" lon="-3.288382000"><ele>531.5</ele><time>2013-05-26T14:54:17Z</time></trkpt>
<trkpt lat="55.491832000" lon="-3.288376000"><ele>530.0</ele><time>2013-05-26T14:54:26Z</time></trkpt>
<trkpt lat="55.491802000" lon="-3.288178000"><ele>528.5</ele><time>2013-05-26T14:54:39Z</time></trkpt>
<trkpt lat="55.491760000" lon="-3.287989000"><ele>527.1</ele><time>2013-05-26T14:54:54Z</time></trkpt>
<trkpt lat="55.491736000" lon="-3.287826000"><ele>525.6</ele><time>2013-05-26T14:54:59Z</time></trkpt>
<trkpt lat="55.491686000" lon="-3.287681000"><ele>524.1</ele><time>2013-05-26T14:55:04Z</time></trkpt>
<trkpt lat="55.491654000" lon="-3.287516000"><ele>522.5</ele><time>2013-05-26T14:55:10Z</time></trkpt>
<trkpt lat="55.491616000" lon="-3.287366000"><ele>521.0</ele><time>2013-05-26T14:55:22Z</time></trkpt>
<trkpt lat="55.491540000" lon="-3.287267000"><ele>519.5</ele><time>2013-05-26T14:55:36Z</time></trkpt>
<trkpt lat="55.491531000" lon="-3.287104000"><ele>517.9</ele><time>2013-05-26T14:55:43Z</time></trkpt>
<trkpt lat="55.491444000" lon="-3.287018000"><ele>517.1</ele><time>2013-05-26T14:55:50Z</time></trkpt>
<trkpt lat="55.491431000" lon="-3.286846000"><ele>514.9</ele><time>2013-05-26T14:56:08Z</time></trkpt>
<trkpt lat="55.491453000" lon="-3.286688000"><ele>511.5</ele><time>2013-05-26T14:56:21Z</time></trkpt>
<trkpt lat="55.491380000" lon="-3.286573000"><ele>508.2</ele><time>2013-05-26T14:56:29Z</time></trkpt>
<trkpt lat="55.491405000" lon="-3.286409000"><ele>504.8</ele><time>2013-05-26T14:56:48Z</time></trkpt>
<trkpt lat="55.491363000" lon="-3.286261000"><ele>501.5</ele><time>2013-05-26T14:56:55Z</time></trkpt>
<trkpt lat="55.491313000" lon="-3.286124000"><ele>498.9</ele><time>2013-05-26T14:57:02Z</time></trkpt>
<trkpt lat="55.491264000" lon="-3.285985000"><ele>495.1</ele><time>2013-05-26T14:57:25Z</time></trkpt>
<trkpt lat="55.491218000" lon="-3.285826000"><ele>491.3</ele><time>2013-05-26T14:57:33Z</time></trkpt>
<trkpt lat="55.491146000" lon="-3.285697000"><ele>487.5</ele><time>2013-05-26T14:57:45Z</time></trkpt>
<trkpt lat="55.491068000" lon="-3.285576000"><ele>483.6</ele><time>2013-05-26T14:57:53Z</time></trkpt>
<trkpt lat="55.491017000" lon="-3.285440000"><ele>479.8</ele><time>2013-05-26T14:58:03Z</time></trkpt>
<trkpt lat="55.490998000" lon="-3.285274000"><ele>477.4</ele><time>2013-05-26T14:58:13Z</time></trkpt>
<trkpt lat="55.490993000" lon="-3.285105000"><ele>476.1</ele><time>2013-05-26T14:58:19Z</time></trkpt>
<trkpt lat="55.491072000" lon="-3.285014000"><ele>474.8</ele><time>2013-05-26T14:58:26Z</time></trkpt>
<trkpt lat="55.491126000" lon="-3.284865000"><ele>473.5</ele><time>2013-05-26T14:58:35Z</time></trkpt>
<trkpt lat="55.491194000" lon="-3.284745000"><ele>472.3</ele><time>2013-05-26T14:58:44Z</time></trkpt>
<trkpt lat="55.491258000" lon="-3.284633000"><ele>471.0</ele><time>2013-05-26T14:58:52Z</time></trkpt>
<trkpt lat="55.491324000" lon="-3.284501000"><ele>471.0</ele><time>2013-05-26T14:59:01Z</time></trkpt>
<trkpt lat="55.491387000" lon="-3.284372000"><ele>471.0</ele><time>2013-05-26T14:59:22Z</time></trkpt>
<trkpt lat="55.491437000" lon="-3.284214000"><ele>469.8</ele><time>2013-05-26T14:59:40Z</time></trkpt>
<trkpt lat="55.491534000" lon="-3.284156000"><ele>468.6</ele><time>2013-05-26T14:59:46Z</time></trkpt>
<trkpt lat="55.491617000" lon="-3.284082000"><ele>467.5</ele><time>2013-05-26T14:59:50Z</time></trkpt>
<trkpt lat="55.491684000" lon="-3.283970000"><ele>466.3</ele><time>2013-05-26T14:59:53Z</time></trkpt>
<trkpt lat="55.491725000" lon="-3.283811000"><ele>465.1</ele><time>2013-05-26T14:59:58Z</time></trkpt>
<trkpt lat="55.491801000" lon="-3.283685000"><ele>463.9</ele><time>2013-05-26T15:00:15Z</time></trkpt>
<trkpt lat="55.491872000" lon="-3.283578000"><ele>461.9</ele><time>2013-05-26T15:00:19Z</time></trkpt>
<trkpt lat="55.491905000" lon="-3.283410000"><ele>459.9</ele><time>2013-05-26T15:00:45Z</time></trkpt>
<trkpt lat="55.491986000" lon="-3.283324000"><ele>457.2</ele><time>2013-05-26T15:00:50Z</time></trkpt>
<trkpt lat="55.492063000" lon="-3.283206000"><ele>454.5</ele><time>2013-05-26T15:00:59Z</time></trkpt>
<trkpt lat="55.492089000" lon="-3.283042000"><ele>451.7</ele><time>2013-05-26T15:01:10Z</time></trkpt>
<trkpt lat="55.492150000" lon="-3.282924000"><ele>450.2</ele><time>2013-05-26T15:01:16Z</time></trkpt>
<trkpt lat="55.492231000" lon="-3.282815000"><ele>448.6</ele><time>2013-05-26T15:01:28Z</time></trkpt>
<trkpt lat="55.492304000" lon="-3.282692000"><ele>447.1</ele><time>2013-05-26T15:01:36Z</time></trkpt>
<trkpt lat="55.492374000" lon="-3.282586000"><ele>445.5</ele><time>2013-05-26T15:01:43Z</time></trkpt>
<trkpt lat="55.492451000" lon="-3.282474000"><ele>444.0</ele><time>2013-05-26T15:01:51Z</time></trkpt>
<trkpt lat="55.492540000" lon="-3.282408000"><ele>441.7</ele><time>2013-05-26T15:02:03Z</time></trkpt>
<trkpt lat="55.492613000" lon="-3.282302000"><ele>440.3</ele><time>2013-05-26T15:02:10Z</time></trkpt>
<trkpt lat="55.492700000" lon="-3.282249000"><ele>438.8</ele><time>2013-05-26T15:02:19Z</time></trkpt>
<trkpt lat="55.492789000" lon="-3.282168000"><ele>438.1</ele><time>2013-05-26T15:02:27Z</time></trkpt>
<trkpt lat="55.492849000" lon="-3.282002000"><ele>437.4</ele><time>2013-05-26T15:04:27Z</time></trkpt>
<trkpt lat="55.492779000" lon="-3.281874000"><ele>436.3</ele><time>2013-05-26T15:04:54Z</time></trkpt>
<trkpt lat="55.492743000" lon="-3.281712000"><ele>435.2</ele><time>2013-05-26T15:05:10Z</time></trkpt>
<trkpt lat="55.492694000" lon="-3.281551000"><ele>434.1</ele><time>2013-05-26T15:05:17Z</time></trkpt>
<trkpt lat="55.492686000" lon="-3.281371000"><ele>433.0</ele><time>2013-05-26T15:05:23Z</time></trkpt>
<trkpt lat="55.492653000" lon="-3.281205000"><ele>431.9</ele><time>2013-05-26T15:05:30Z</time></trkpt>
<trkpt lat="55.492641000" lon="-3.281044000"><ele>430.4</ele><time>2013-05-26T15:05:47Z</time></trkpt>
<trkpt lat="55.492627000" lon="-3.280871000"><ele>429.5</ele><time>2013-05-26T15:05:59Z</time></trkpt>
<trkpt lat="55.492633000" lon="-3.280690000"><ele>428.7</ele><time>2013-05-26T15:06:08Z</time></trkpt>
<trkpt lat="55.492652000" lon="-3.280496000"><ele>427.9</ele><time>2013-05-26T15:06:14Z</time></trkpt>
<trkpt lat="55.492648000" lon="-3.280336000"><ele>426.5</ele><time>2013-05-26T15:06:21Z</time></trkpt>
<trkpt lat="55.492651000" lon="-3.280171000"><ele>425.2</ele><time>2013-05-26T15:06:30Z</time></trkpt>
<trkpt lat="55.492588000" lon="-3.280048000"><ele>424.2</ele><time>2013-05-26T15:06:39Z</time></trkpt>
<trkpt lat="55.492584000" lon="-3.279876000"><ele>423.2</ele><time>2013-05-26T15:06:48Z</time></trkpt>
<trkpt lat="55.492582000" lon="-3.279666000"><ele>422.2</ele><time>2013-05-26T15:06:59Z</time></trkpt>
<trkpt lat="55.492610000" lon="-3.279493000"><ele>420.6</ele><time>2013-05-26T15:07:06Z</time></trkpt>
<trkpt lat="55.492600000" lon="-3.279315000"><ele>419.1</ele><time>2013-05-26T15:07:14Z</time></trkpt>
<trkpt lat="55.492590000" lon="-3.279157000"><ele>418.0</ele><time>2013-05-26T15:07:21Z</time></trkpt>
<trkpt lat="55.492581000" lon="-3.278989000"><ele>416.9</ele><time>2013-05-26T15:07:30Z</time></trkpt>
<trkpt lat="55.492586000" lon="-3.278830000"><ele>415.8</ele><time>2013-05-26T15:07:42Z</time></trkpt>
<trkpt lat="55.492554000" lon="-3.278669000"><ele>414.7</ele><time>2013-05-26T15:07:51Z</time></trkpt>
<trkpt lat="55.492579000" lon="-3.278502000"><ele>412.8</ele><time>2013-05-26T15:08:00Z</time></trkpt>
<trkpt lat="55.492588000" lon="-3.278339000"><ele>410.9</ele><time>2013-05-26T15:08:09Z</time></trkpt>
<trkpt lat="55.492562000" lon="-3.278175000"><ele>409.0</ele><time>2013-05-26T15:08:17Z</time></trkpt>
<trkpt lat="55.492549000" lon="-3.278014000"><ele>407.1</ele><time>2013-05-26T15:08:28Z</time></trkpt>
<trkpt lat="55.492516000" lon="-3.277857000"><ele>405.2</ele><time>2013-05-26T15:08:37Z</time></trkpt>
<trkpt lat="55.492516000" lon="-3.277694000"><ele>402.5</ele><time>2013-05-26T15:08:48Z</time></trkpt>
<trkpt lat="55.492593000" lon="-3.277601000"><ele>399.7</ele><time>2013-05-26T15:08:58Z</time></trkpt>
<trkpt lat="55.492652000" lon="-3.277471000"><ele>397.0</ele><time>2013-05-26T15:09:12Z</time></trkpt>
<trkpt lat="55.492691000" lon="-3.277320000"><ele>394.3</ele><time>2013-05-26T15:09:21Z</time></trkpt>
<trkpt lat="55.492742000" lon="-3.277161000"><ele>391.5</ele><time>2013-05-26T15:09:28Z</time></trkpt>
<trkpt lat="55.492779000" lon="-3.277004000"><ele>387.5</ele><time>2013-05-26T15:09:34Z</time></trkpt>
<trkpt lat="55.492808000" lon="-3.276852000"><ele>384.9</ele><time>2013-05-26T15:09:46Z</time></trkpt>
<trkpt lat="55.492849000" lon="-3.276700000"><ele>382.3</ele><time>2013-05-26T15:09:58Z</time></trkpt>
<trkpt lat="55.492856000" lon="-3.276487000"><ele>379.6</ele><time>2013-05-26T15:10:37Z</time></trkpt>
<trkpt lat="55.492894000" lon="-3.276333000"><ele>377.0</ele><time>2013-05-26T15:10:47Z</time></trkpt>
<trkpt lat="55.492891000" lon="-3.276173000"><ele>374.4</ele><time>2013-05-26T15:11:00Z</time></trkpt>
<trkpt lat="55.492830000" lon="-3.276039000"><ele>371.7</ele><time>2013-05-26T15:11:16Z</time></trkpt>
<trkpt lat="55.492825000" lon="-3.275879000"><ele>369.1</ele><time>2013-05-26T15:11:25Z</time></trkpt>
<trkpt lat="55.492776000" lon="-3.275736000"><ele>367.3</ele><time>2013-05-26T15:11:44Z</time></trkpt>
<trkpt lat="55.492759000" lon="-3.275578000"><ele>365.5</ele><time>2013-05-26T15:11:55Z</time></trkpt>
<trkpt lat="55.492733000" lon="-3.275394000"><ele>363.6</ele><time>2013-05-26T15:12:27Z</time></trkpt>
<trkpt lat="55.492757000" lon="-3.275238000"><ele>363.1</ele><time>2013-05-26T15:13:19Z</time></trkpt>
<trkpt lat="55.492843000" lon="-3.275168000"><ele>361.6</ele><time>2013-05-26T15:13:29Z</time></trkpt>
<trkpt lat="55.492935000" lon="-3.275111000"><ele>360.2</ele><time>2013-05-26T15:13:39Z</time></trkpt>
<trkpt lat="55.492999000" lon="-3.274994000"><ele>358.7</ele><time>2013-05-26T15:13:49Z</time></trkpt>
<trkpt lat="55.493056000" lon="-3.274854000"><ele>357.3</ele><time>2013-05-26T15:14:01Z</time></trkpt>
<trkpt lat="55.493117000" lon="-3.274736000"><ele>355.8</ele><time>2013-05-26T15:14:12Z</time></trkpt>
<trkpt lat="55.493081000" lon="-3.274567000"><ele>355.7</ele><time>2013-05-26T15:14:49Z</time></trkpt>
<trkpt lat="55.493142000" lon="-3.274441000"><ele>355.6</ele><time>2013-05-26T15:14:55Z</time></trkpt>
<trkpt lat="55.493230000" lon="-3.274364000"><ele>354.7</ele><time>2013-05-26T15:15:02Z</time></trkpt>
<trkpt lat="55.493310000" lon="-3.274250000"><ele>353.8</ele><time>2013-05-26T15:15:10Z</time></trkpt>
<trkpt lat="55.493401000" lon="-3.274186000"><ele>352.7</ele><time>2013-05-26T15:15:17Z</time></trkpt>
<trkpt lat="55.493492000" lon="-3.274101000"><ele>350.9</ele><time>2013-05-26T15:15:23Z</time></trkpt>
<trkpt lat="55.493558000" lon="-3.273990000"><ele>350.0</ele><time>2013-05-26T15:15:31Z</time></trkpt>
<trkpt lat="55.493654000" lon="-3.273918000"><ele>349.1</ele><time>2013-05-26T15:15:39Z</time></trkpt>
<trkpt lat="55.493740000" lon="-3.273841000"><ele>348.9</ele><time>2013-05-26T15:15:46Z</time></trkpt>
<trkpt lat="55.493828000" lon="-3.273759000"><ele>348.7</ele><time>2013-05-26T15:15:51Z</time></trkpt>
<trkpt lat="55.493916000" lon="-3.273719000"><ele>348.5</ele><time>2013-05-26T15:16:00Z</time></trkpt>
<trkpt lat="55.494013000" lon="-3.273704000"><ele>348.4</ele><time>2013-05-26T15:16:10Z</time></trkpt>
<trkpt lat="55.494105000" lon="-3.273732000"><ele>348.2</ele><time>2013-05-26T15:16:18Z</time></trkpt>
<trkpt lat="55.494193000" lon="-3.273821000"><ele>348.0</ele><time>2013-05-26T15:16:30Z</time></trkpt>
<trkpt lat="55.494273000" lon="-3.273916000"><ele>347.8</ele><time>2013-05-26T15:16:36Z</time></trkpt>
<trkpt lat="55.494350000" lon="-3.273998000"><ele>347.7</ele><time>2013-05-26T15:16:41Z</time></trkpt>
<trkpt lat="55.494437000" lon="-3.274098000"><ele>348.5</ele><time>2013-05-26T15:16:47Z</time></trkpt>
<trkpt lat="55.494521000" lon="-3.274166000"><ele>349.2</ele><time>2013-05-26T15:16:54Z</time></trkpt>
<trkpt lat="55.494594000" lon="-3.274260000"><ele>349.9</ele><time>2013-05-26T15:17:00Z</time></trkpt>
<trkpt lat="55.494636000" lon="-3.274408000"><ele>349.9</ele><time>2013-05-26T15:17:08Z</time></trkpt>
<trkpt lat="55.494721000" lon="-3.274520000"><ele>349.9</ele><time>2013-05-26T15:17:14Z</time></trkpt>
<trkpt lat="55.494803000" lon="-3.274634000"><ele>349.9</ele><time>2013-05-26T15:17:20Z</time></trkpt>
<trkpt lat="55.494876000" lon="-3.274760000"><ele>349.9</ele><time>2013-05-26T15:17:26Z</time></trkpt>
<trkpt lat="55.494943000" lon="-3.274875000"><ele>349.9</ele><time>2013-05-26T15:17:33Z</time></trkpt>
<trkpt lat="55.495025000" lon="-3.274952000"><ele>349.5</ele><time>2013-05-26T15:17:39Z</time></trkpt>
<trkpt lat="55.495123000" lon="-3.275006000"><ele>349.0</ele><time>2013-05-26T15:17:48Z</time></trkpt>
<trkpt lat="55.495222000" lon="-3.275015000"><ele>349.7</ele><time>2013-05-26T15:17:54Z</time></trkpt>
<trkpt lat="55.495331000" lon="-3.274987000"><ele>350.4</ele><time>2013-05-26T15:17:59Z</time></trkpt>
<trkpt lat="55.495426000" lon="-3.274921000"><ele>351.0</ele><time>2013-05-26T15:18:05Z</time></trkpt>
<trkpt lat="55.495497000" lon="-3.274791000"><ele>350.9</ele><time>2013-05-26T15:18:13Z</time></trkpt>
<trkpt lat="55.495537000" lon="-3.274635000"><ele>350.8</ele><time>2013-05-26T15:18:21Z</time></trkpt>
<trkpt lat="55.495573000" lon="-3.274467000"><ele>350.5</ele><time>2013-05-26T15:18:30Z</time></trkpt>
<trkpt lat="55.495546000" lon="-3.274301000"><ele>350.3</ele><time>2013-05-26T15:18:38Z</time></trkpt>
<trkpt lat="55.495497000" lon="-3.274164000"><ele>350.0</ele><time>2013-05-26T15:18:45Z</time></trkpt>
<trkpt lat="55.495437000" lon="-3.274022000"><ele>349.7</ele><time>2013-05-26T15:18:53Z</time></trkpt>
<trkpt lat="55.495380000" lon="-3.273890000"><ele>349.9</ele><time>2013-05-26T15:19:00Z</time></trkpt>
<trkpt lat="55.495323000" lon="-3.273743000"><ele>350.1</ele><time>2013-05-26T15:19:07Z</time></trkpt>
<trkpt lat="55.495266000" lon="-3.273596000"><ele>349.2</ele><time>2013-05-26T15:19:14Z</time></trkpt>
<trkpt lat="55.495212000" lon="-3.273462000"><ele>348.3</ele><time>2013-05-26T15:19:20Z</time></trkpt>
<trkpt lat="55.495149000" lon="-3.273338000"><ele>348.5</ele><time>2013-05-26T15:19:26Z</time></trkpt>
<trkpt lat="55.495095000" lon="-3.273201000"><ele>349.4</ele><time>2013-05-26T15:19:33Z</time></trkpt>
<trkpt lat="55.495034000" lon="-3.273066000"><ele>350.3</ele><time>2013-05-26T15:19:40Z</time></trkpt>
<trkpt lat="55.494965000" lon="-3.272949000"><ele>349.9</ele><time>2013-05-26T15:19:46Z</time></trkpt>
<trkpt lat="55.494904000" lon="-3.272821000"><ele>349.5</ele><time>2013-05-26T15:19:52Z</time></trkpt>
<trkpt lat="55.494843000" lon="-3.272685000"><ele>349.2</ele><time>2013-05-26T15:19:59Z</time></trkpt>
<trkpt lat="55.494775000" lon="-3.272552000"><ele>349.0</ele><time>2013-05-26T15:20:06Z</time></trkpt>
<trkpt lat="55.494702000" lon="-3.272419000"><ele>348.8</ele><time>2013-05-26T15:20:13Z</time></trkpt>
<trkpt lat="55.494643000" lon="-3.272292000"><ele>348.6</ele><time>2013-05-26T15:20:19Z</time></trkpt>
<trkpt lat="55.494580000" lon="-3.272171000"><ele>348.5</ele><time>2013-05-26T15:20:25Z</time></trkpt>
<trkpt lat="55.494518000" lon="-3.272054000"><ele>348.3</ele><time>2013-05-26T15:20:31Z</time></trkpt>
<trkpt lat="55.494444000" lon="-3.271927000"><ele>347.0</ele><time>2013-05-26T15:20:38Z</time></trkpt>
<trkpt lat="55.494374000" lon="-3.271803000"><ele>345.7</ele><time>2013-05-26T15:20:45Z</time></trkpt>
<trkpt lat="55.494298000" lon="-3.271700000"><ele>344.5</ele><time>2013-05-26T15:20:52Z</time></trkpt>
<trkpt lat="55.494220000" lon="-3.271603000"><ele>345.9</ele><time>2013-05-26T15:20:59Z</time></trkpt>
<trkpt lat="55.494143000" lon="-3.271514000"><ele>347.4</ele><time>2013-05-26T15:21:06Z</time></trkpt>
<trkpt lat="55.494055000" lon="-3.271444000"><ele>347.1</ele><time>2013-05-26T15:21:24Z</time></trkpt>
<trkpt lat="55.493979000" lon="-3.271334000"><ele>346.6</ele><time>2013-05-26T15:21:31Z</time></trkpt>
<trkpt lat="55.493907000" lon="-3.271228000"><ele>346.2</ele><time>2013-05-26T15:21:38Z</time></trkpt>
<trkpt lat="55.493838000" lon="-3.271110000"><ele>345.7</ele><time>2013-05-26T15:21:45Z</time></trkpt>
<trkpt lat="55.493767000" lon="-3.270994000"><ele>345.8</ele><time>2013-05-26T15:21:51Z</time></trkpt>
<trkpt lat="55.493696000" lon="-3.270857000"><ele>345.9</ele><time>2013-05-26T15:22:02Z</time></trkpt>
<trkpt lat="55.493629000" lon="-3.270712000"><ele>346.0</ele><time>2013-05-26T15:22:10Z</time></trkpt>
<trkpt lat="55.493578000" lon="-3.270561000"><ele>346.1</ele><time>2013-05-26T15:22:17Z</time></trkpt>
<trkpt lat="55.493543000" lon="-3.270415000"><ele>346.2</ele><time>2013-05-26T15:22:23Z</time></trkpt>
<trkpt lat="55.493498000" lon="-3.270253000"><ele>345.3</ele><time>2013-05-26T15:22:29Z</time></trkpt>
<trkpt lat="55.493459000" lon="-3.270105000"><ele>344.4</ele><time>2013-05-26T15:22:36Z</time></trkpt>
<trkpt lat="55.493429000" lon="-3.269950000"><ele>345.2</ele><time>2013-05-26T15:22:42Z</time></trkpt>
<trkpt lat="55.493405000" lon="-3.269784000"><ele>346.0</ele><time>2013-05-26T15:22:49Z</time></trkpt>
<trkpt lat="55.493381000" lon="-3.269629000"><ele>346.8</ele><time>2013-05-26T15:22:56Z</time></trkpt>
<trkpt lat="55.493365000" lon="-3.269455000"><ele>347.9</ele><time>2013-05-26T15:23:05Z</time></trkpt>
<trkpt lat="55.493347000" lon="-3.269288000"><ele>348.5</ele><time>2013-05-26T15:23:12Z</time></trkpt>
<trkpt lat="55.493342000" lon="-3.269091000"><ele>349.0</ele><time>2013-05-26T15:23:23Z</time></trkpt>
<trkpt lat="55.493347000" lon="-3.268932000"><ele>349.5</ele><time>2013-05-26T15:23:29Z</time></trkpt>
<trkpt lat="55.493347000" lon="-3.268768000"><ele>350.1</ele><time>2013-05-26T15:23:35Z</time></trkpt>
<trkpt lat="55.493352000" lon="-3.268607000"><ele>350.6</ele><time>2013-05-26T15:23:41Z</time></trkpt>
<trkpt lat="55.493346000" lon="-3.268448000"><ele>350.9</ele><time>2013-05-26T15:23:47Z</time></trkpt>
<trkpt lat="55.493350000" lon="-3.268276000"><ele>351.2</ele><time>2013-05-26T15:23:54Z</time></trkpt>
<trkpt lat="55.493355000" lon="-3.268111000"><ele>351.5</ele><time>2013-05-26T15:24:00Z</time></trkpt>
<trkpt lat="55.493366000" lon="-3.267947000"><ele>351.7</ele><time>2013-05-26T15:24:07Z</time></trkpt>
<trkpt lat="55.493371000" lon="-3.267781000"><ele>351.9</ele><time>2013-05-26T15:24:16Z</time></trkpt>
<trkpt lat="55.493401000" lon="-3.267604000"><ele>351.8</ele><time>2013-05-26T15:24:23Z</time></trkpt>
<trkpt lat="55.493435000" lon="-3.267445000"><ele>351.7</ele><time>2013-05-26T15:24:30Z</time></trkpt>
<trkpt lat="55.493481000" lon="-3.267283000"><ele>351.6</ele><time>2013-05-26T15:24:37Z</time></trkpt>
<trkpt lat="55.493519000" lon="-3.267124000"><ele>351.5</ele><time>2013-05-26T15:24:43Z</time></trkpt>
<trkpt lat="55.493555000" lon="-3.266962000"><ele>351.2</ele><time>2013-05-26T15:24:51Z</time></trkpt>
<trkpt lat="55.493582000" lon="-3.266789000"><ele>353.5</ele><time>2013-05-26T15:24:59Z</time></trkpt>
<trkpt lat="55.493625000" lon="-3.266647000"><ele>355.9</ele><time>2013-05-26T15:25:06Z</time></trkpt>
<trkpt lat="55.493667000" lon="-3.266483000"><ele>358.3</ele><time>2013-05-26T15:25:14Z</time></trkpt>
<trkpt lat="55.493700000" lon="-3.266331000"><ele>360.6</ele><time>2013-05-26T15:25:20Z</time></trkpt>
<trkpt lat="55.493740000" lon="-3.266173000"><ele>363.0</ele><time>2013-05-26T15:25:28Z</time></trkpt>
<trkpt lat="55.493788000" lon="-3.266037000"><ele>364.5</ele><time>2013-05-26T15:25:34Z</time></trkpt>
<trkpt lat="55.493821000" lon="-3.265888000"><ele>366.1</ele><time>2013-05-26T15:25:41Z</time></trkpt>
<trkpt lat="55.493848000" lon="-3.265715000"><ele>367.6</ele><time>2013-05-26T15:25:51Z</time></trkpt>
<trkpt lat="55.493895000" lon="-3.265574000"><ele>369.2</ele><time>2013-05-26T15:25:57Z</time></trkpt>
<trkpt lat="55.493968000" lon="-3.265475000"><ele>370.7</ele><time>2013-05-26T15:26:04Z</time></trkpt>
<trkpt lat="55.493987000" lon="-3.265308000"><ele>372.5</ele><time>2013-05-26T15:26:31Z</time></trkpt>
<trkpt lat="55.494025000" lon="-3.265164000"><ele>370.7</ele><time>2013-05-26T15:26:37Z</time></trkpt>
<trkpt lat="55.494068000" lon="-3.265020000"><ele>368.9</ele><time>2013-05-26T15:26:44Z</time></trkpt>
<trkpt lat="55.494113000" lon="-3.264843000"><ele>367.1</ele><time>2013-05-26T15:26:50Z</time></trkpt>
<trkpt lat="55.494194000" lon="-3.264711000"><ele>365.3</ele><time>2013-05-26T15:26:55Z</time></trkpt>
<trkpt lat="55.494248000" lon="-3.264573000"><ele>363.5</ele><time>2013-05-26T15:27:01Z</time></trkpt>
<trkpt lat="55.494290000" lon="-3.264423000"><ele>361.6</ele><time>2013-05-26T15:27:09Z</time></trkpt>
<trkpt lat="55.494337000" lon="-3.264269000"><ele>359.8</ele><time>2013-05-26T15:27:15Z</time></trkpt>
<trkpt lat="55.494383000" lon="-3.264123000"><ele>358.0</ele><time>2013-05-26T15:27:23Z</time></trkpt>
<trkpt lat="55.494430000" lon="-3.263954000"><ele>358.7</ele><time>2013-05-26T15:27:31Z</time></trkpt>
<trkpt lat="55.494498000" lon="-3.263821000"><ele>359.5</ele><time>2013-05-26T15:27:37Z</time></trkpt>
<trkpt lat="55.494522000" lon="-3.263655000"><ele>360.2</ele><time>2013-05-26T15:27:44Z</time></trkpt>
<trkpt lat="55.494572000" lon="-3.263506000"><ele>360.7</ele><time>2013-05-26T15:27:51Z</time></trkpt>
<trkpt lat="55.494616000" lon="-3.263353000"><ele>361.3</ele><time>2013-05-26T15:27:58Z</time></trkpt>
<trkpt lat="55.494664000" lon="-3.263192000"><ele>361.8</ele><time>2013-05-26T15:28:05Z</time></trkpt>
<trkpt lat="55.494711000" lon="-3.263037000"><ele>362.4</ele><time>2013-05-26T15:28:12Z</time></trkpt>
<trkpt lat="55.494747000" lon="-3.262866000"><ele>362.9</ele><time>2013-05-26T15:28:17Z</time></trkpt>
<trkpt lat="55.494795000" lon="-3.262704000"><ele>364.4</ele><time>2013-05-26T15:28:23Z</time></trkpt>
<trkpt lat="55.494862000" lon="-3.262572000"><ele>364.7</ele><time>2013-05-26T15:28:29Z</time></trkpt>
<trkpt lat="55.494921000" lon="-3.262435000"><ele>365.1</ele><time>2013-05-26T15:28:35Z</time></trkpt>
<trkpt lat="55.494956000" lon="-3.262267000"><ele>362.9</ele><time>2013-05-26T15:28:43Z</time></trkpt>
<trkpt lat="55.495010000" lon="-3.262109000"><ele>360.7</ele><time>2013-05-26T15:28:49Z</time></trkpt>
<trkpt lat="55.495067000" lon="-3.261974000"><ele>358.5</ele><time>2013-05-26T15:28:58Z</time></trkpt>
<trkpt lat="55.495117000" lon="-3.261841000"><ele>356.9</ele><time>2013-05-26T15:29:07Z</time></trkpt>
<trkpt lat="55.495167000" lon="-3.261702000"><ele>355.3</ele><time>2013-05-26T15:29:14Z</time></trkpt>
<trkpt lat="55.495200000" lon="-3.261552000"><ele>355.0</ele><time>2013-05-26T15:29:21Z</time></trkpt>
<trkpt lat="55.495244000" lon="-3.261396000"><ele>354.7</ele><time>2013-05-26T15:29:30Z</time></trkpt>
<trkpt lat="55.495307000" lon="-3.261241000"><ele>354.5</ele><time>2013-05-26T15:29:35Z</time></trkpt>
<trkpt lat="55.495355000" lon="-3.261101000"><ele>354.2</ele><time>2013-05-26T15:29:40Z</time></trkpt>
<trkpt lat="55.495428000" lon="-3.260990000"><ele>354.0</ele><time>2013-05-26T15:29:46Z</time></trkpt>
<trkpt lat="55.495518000" lon="-3.260897000"><ele>353.8</ele><time>2013-05-26T15:29:52Z</time></trkpt>
<trkpt lat="55.495547000" lon="-3.260743000"><ele>353.6</ele><time>2013-05-26T15:30:00Z</time></trkpt>
<trkpt lat="55.495605000" lon="-3.260588000"><ele>353.5</ele><time>2013-05-26T15:30:07Z</time></trkpt>
<trkpt lat="55.495660000" lon="-3.260424000"><ele>353.3</ele><time>2013-05-26T15:30:12Z</time></trkpt>
<trkpt lat="55.495711000" lon="-3.260265000"><ele>353.6</ele><time>2013-05-26T15:30:17Z</time></trkpt>
<trkpt lat="55.495753000" lon="-3.260112000"><ele>354.0</ele><time>2013-05-26T15:30:23Z</time></trkpt>
<trkpt lat="55.495806000" lon="-3.259968000"><ele>352.4</ele><time>2013-05-26T15:30:32Z</time></trkpt>
<trkpt lat="55.495881000" lon="-3.259863000"><ele>350.7</ele><time>2013-05-26T15:30:37Z</time></trkpt>
<trkpt lat="55.495958000" lon="-3.259733000"><ele>350.1</ele><time>2013-05-26T15:30:43Z</time></trkpt>
<trkpt lat="55.496033000" lon="-3.259622000"><ele>349.5</ele><time>2013-05-26T15:30:49Z</time></trkpt>
<trkpt lat="55.496115000" lon="-3.259513000"><ele>349.8</ele><time>2013-05-26T15:30:56Z</time></trkpt>
<trkpt lat="55.496193000" lon="-3.259400000"><ele>350.2</ele><time>2013-05-26T15:31:04Z</time></trkpt>
<trkpt lat="55.496280000" lon="-3.259272000"><ele>350.5</ele><time>2013-05-26T15:31:10Z</time></trkpt>
<trkpt lat="55.496358000" lon="-3.259187000"><ele>350.6</ele><time>2013-05-26T15:31:15Z</time></trkpt>
<trkpt lat="55.496437000" lon="-3.259107000"><ele>350.7</ele><time>2013-05-26T15:31:22Z</time></trkpt>
<trkpt lat="55.496529000" lon="-3.259027000"><ele>350.8</ele><time>2013-05-26T15:31:30Z</time></trkpt>
<trkpt lat="55.496598000" lon="-3.258900000"><ele>350.9</ele><time>2013-05-26T15:32:03Z</time></trkpt>
<trkpt lat="55.496592000" lon="-3.258949000"><ele>352.2</ele><time>2013-05-26T15:32:40Z</time></trkpt>
</trkseg>
</trk>
</gpx>
